Time,TemperatureF,DewpointF,PressureIn,WindDirection,WindDirectionDegrees,WindSpeedMPH,WindSpeedGustMPH,Humidity,HourlyPrecipIn,Conditions,Clouds,dailyrainin,SoftwareType,DateUTC
2013-05-23 00:00:00,73.8,71.3,30.02,SSW,194,10.0,11.0,92,0.00,,---,0.00,VWS V14.01,2013-05-23 04:00:00,
2013-05-23 00:01:00,73.8,71.3,30.02,SSW,194,9.0,11.0,92,0.00,,---,0.00,VWS V14.01,2013-05-23 04:01:00,
2013-05-23 00:02:00,73.8,71.3,30.02,SSW,194,5.0,10.0,92,0.00,,---,0.00,VWS V14.01,2013-05-23 04:02:00,
2013-05-23 00:03:00,73.8,71.3,30.02,SSW,194,9.0,11.0,92,0.00,,---,0.00,VWS V14.01,2013-05-23 04:03:00,
2013-05-23 00:04:00,73.7,71.2,30.02,SSW,194,10.0,11.0,92,0.00,,---,0.00,VWS V14.01,2013-05-23 04:04:00,
2013-05-23 00:05:00,73.7,71.2,30.02,SSW,194,6.0,11.0,92,0.00,,---,0.00,VWS V14.01,2013-05-23 04:05:00,
2013-05-23 00:06:00,73.8,71.3,30.02,SSW,194,10.0,10.0,92,0.00,,---,0.00,VWS V14.01,2013-05-23 04:06:00,
2013-05-23 00:07:00,73.7,71.2,30.02,SSW,194,9.0,12.0,92,0.00,,---,0.00,VWS V14.01,2013-05-23 04:07:00,
2013-05-23 00:08:00,73.7,71.2,30.02,SSW,194,7.0,12.0,92,0.00,,---,0.00,VWS V14.01,2013-05-23 04:08:00,
2013-05-23 00:09:00,73.7,71.2,30.02,SSW,194,7.0,12.0,92,0.00,,---,0.00,VWS V14.01,2013-05-23 04:09:00,
2013-05-23 00:10:00,73.7,71.2,30.02,SSW,194,6.0,6.0,92,0.00,,---,0.00,VWS V14.01,2013-05-23 04:10:00,
2013-05-23 00:11:00,73.8,71.3,30.02,SSW,194,5.0,10.0,92,0.00,,---,0.00,VWS V14.01,2013-05-23 04:11:00,
2013-05-23 00:12:00,73.7,71.2,30.02,SSW,194,7.0,11.0,92,0.00,,---,0.00,VWS V14.01,2013-05-23 04:12:00,
2013-05-23 00:13:00,73.7,71.2,30.02,SSW,194,7.0,11.0,92,0.00,,---,0.00,VWS V14.01,2013-05-23 04:13:00,
2013-05-23 00:14:00,73.7,71.2,30.01,SSW,194,6.0,11.0,92,0.00,,---,0.00,VWS V14.01,2013-05-23 04:14:00,
2013-05-23 00:15:00,73.7,71.2,30.01,SSW,194,10.0,10.0,92,0.00,,---,0.00,VWS V14.01,2013-05-23 04:15:00,
2013-05-23 00:16:00,73.7,71.2,30.02,SSW,194,11.0,12.0,92,0.00,,---,0.00,VWS V14.01,2013-05-23 04:16:00,
2013-05-23 00:17:00,73.7,71.2,30.01,SSW,194,6.0,10.0,92,0.00,,---,0.00,VWS V14.01,2013-05-23 04:17:00,
2013-05-23 00:18:00,73.7,71.2,30.01,SSW,194,7.0,10.0,92,0.00,,---,0.00,VWS V14.01,2013-05-23 04:18:00,
2013-05-23 00:19:00,73.7,71.2,30.01,SSW,194,7.0,10.0,92,0.00,,---,0.00,VWS V14.01,2013-05-23 04:19:00,
2013-05-23 00:20:00,73.7,71.2,30.01,SSW,194,6.0,9.0,92,0.00,,---,0.00,VWS V14.01,2013-05-23 04:20:00,
2013-05-23 00:21:00,73.7,71.2,30.02,SSW,194,7.0,11.0,92,0.00,,---,0.00,VWS V14.01,2013-05-23 04:21:00,
2013-05-23 00:22:00,73.7,71.2,30.01,SSW,194,7.0,10.0,92,0.00,,---,0.00,VWS V14.01,2013-05-23 04:22:00,
2013-05-23 00:23:00,73.7,71.2,30.01,SSW,194,7.0,10.0,92,0.00,,---,0.00,VWS V14.01,2013-05-23 04:23:00,
2013-05-23 00:24:00,73.7,71.2,30.01,SSW,194,9.0,10.0,92,0.00,,---,0.00,VWS V14.01,2013-05-23 04:24:00,
2013-05-23 00:25:00,73.7,71.2,30.01,SSW,194,6.0,6.0,92,0.00,,---,0.00,VWS V14.01,2013-05-23 04:25:00,
2013-05-23 00:26:00,73.7,71.2,30.01,SSW,194,5.0,10.0,92,0.00,,---,0.00,VWS V14.01,2013-05-23 04:26:00,
2013-05-23 00:27:00,73.7,71.2,30.01,SSW,194,7.0,9.0,92,0.00,,---,0.00,VWS V14.01,2013-05-23 04:27:00,
2013-05-23 00:28:00,73.7,71.2,30.01,SSW,194,9.0,10.0,92,0.00,,---,0.00,VWS V14.01,2013-05-23 04:28:00,
2013-05-23 00:29:00,73.8,71.3,30.01,SSW,194,8.0,10.0,92,0.00,,---,0.00,VWS V14.01,2013-05-23 04:29:00,
2013-05-23 00:30:00,73.8,71.3,30.01,SSW,194,4.0,7.0,92,0.00,,---,0.00,VWS V14.01,2013-05-23 04:30:00,
2013-05-23 00:31:00,73.7,71.2,30.01,SSW,194,5.0,10.0,92,0.00,,---,0.00,VWS V14.01,2013-05-23 04:31:00,
2013-05-23 00:32:00,73.8,71.0,30.01,SSW,194,6.0,10.0,91,0.00,,---,0.00,VWS V14.01,2013-05-23 04:32:00,
2013-05-23 00:33:00,73.8,71.0,30.01,SSW,194,5.0,10.0,91,0.00,,---,0.00,VWS V14.01,2013-05-23 04:33:00,
2013-05-23 00:34:00,73.8,71.3,30.01,SSW,194,7.0,10.0,92,0.00,,---,0.00,VWS V14.01,2013-05-23 04:34:00,
2013-05-23 00:35:00,73.8,71.0,30.01,SSW,194,10.0,10.0,91,0.00,,---,0.00,VWS V14.01,2013-05-23 04:35:00,
2013-05-23 00:36:00,73.7,71.2,30.01,SSW,194,4.0,9.0,92,0.00,,---,0.00,VWS V14.01,2013-05-23 04:36:00,
2013-05-23 00:37:00,73.8,71.0,30.01,SSW,193,6.0,10.0,91,0.00,,---,0.00,VWS V14.01,2013-05-23 04:37:00,
2013-05-23 00:38:00,73.8,71.0,30.01,SSW,193,7.0,10.0,91,0.00,,---,0.00,VWS V14.01,2013-05-23 04:38:00,
2013-05-23 00:39:00,73.8,71.0,30.01,SSW,193,8.0,10.0,91,0.00,,---,0.00,VWS V14.01,2013-05-23 04:39:00,
2013-05-23 00:40:00,73.8,71.0,30.01,SSW,193,6.0,8.0,91,0.00,,---,0.00,VWS V14.01,2013-05-23 04:40:00,
2013-05-23 00:41:00,73.8,71.0,30.01,SSW,194,6.0,9.0,91,0.00,,---,0.00,VWS V14.01,2013-05-23 04:41:00,
2013-05-23 00:42:00,73.8,71.0,30.01,SSW,192,6.0,9.0,91,0.00,,---,0.00,VWS V14.01,2013-05-23 04:42:00,
2013-05-23 00:43:00,73.8,71.0,30.01,SSW,192,9.0,11.0,91,0.00,,---,0.00,VWS V14.01,2013-05-23 04:43:00,
2013-05-23 00:44:00,73.8,71.0,30.00,SSW,192,9.0,11.0,91,0.00,,---,0.00,VWS V14.01,2013-05-23 04:44:00,
2013-05-23 00:45:00,73.8,71.0,30.00,SSW,192,6.0,10.0,91,0.00,,---,0.00,VWS V14.01,2013-05-23 04:45:00,
2013-05-23 00:46:00,73.8,71.0,30.01,SSW,193,5.0,10.0,91,0.00,,---,0.00,VWS V14.01,2013-05-23 04:46:00,
2013-05-23 00:47:00,73.9,71.1,30.00,SSW,192,6.0,10.0,91,0.00,,---,0.00,VWS V14.01,2013-05-23 04:47:00,
2013-05-23 00:48:00,73.9,71.1,30.00,SSW,192,7.0,10.0,91,0.00,,---,0.00,VWS V14.01,2013-05-23 04:48:00,
2013-05-23 00:49:00,74.0,71.2,30.00,SSW,192,9.0,10.0,91,0.00,,---,0.00,VWS V14.01,2013-05-23 04:49:00,
2013-05-23 00:50:00,74.0,71.2,30.00,SSW,192,10.0,10.0,91,0.00,,---,0.00,VWS V14.01,2013-05-23 04:50:00,
2013-05-23 00:51:00,73.8,71.0,30.01,SSW,192,9.0,9.0,91,0.00,,---,0.00,VWS V14.01,2013-05-23 04:51:00,
2013-05-23 00:52:00,74.0,71.2,30.00,South,191,10.0,11.0,91,0.00,,---,0.00,VWS V14.01,2013-05-23 04:52:00,
2013-05-23 00:53:00,74.0,71.2,30.00,South,191,7.0,11.0,91,0.00,,---,0.00,VWS V14.01,2013-05-23 04:53:00,
2013-05-23 00:54:00,74.0,71.2,30.00,South,190,7.0,11.0,91,0.00,,---,0.00,VWS V14.01,2013-05-23 04:54:00,
2013-05-23 00:55:00,74.0,71.2,30.00,South,190,9.0,9.0,91,0.00,,---,0.00,VWS V14.01,2013-05-23 04:55:00,
2013-05-23 00:56:00,73.9,71.1,30.00,SSW,192,8.0,10.0,91,0.00,,---,0.00,VWS V14.01,2013-05-23 04:56:00,
2013-05-23 00:57:00,74.1,71.3,30.00,South,190,9.0,9.0,91,0.00,,---,0.00,VWS V14.01,2013-05-23 04:57:00,
2013-05-23 00:58:00,74.0,71.2,30.00,South,190,10.0,10.0,91,0.00,,---,0.00,VWS V14.01,2013-05-23 04:58:00,
2013-05-23 00:59:00,74.0,71.2,30.00,South,190,8.0,10.0,91,0.00,,---,0.00,VWS V14.01,2013-05-23 04:59:00,
2013-05-23 01:00:00,74.0,71.2,30.00,South,190,7.0,7.0,91,0.00,,---,0.00,VWS V14.01,2013-05-23 05:00:00,
2013-05-23 01:01:00,74.0,71.2,30.00,South,191,7.0,11.0,91,0.00,,---,0.00,VWS V14.01,2013-05-23 05:01:00,
2013-05-23 01:02:00,74.1,71.3,30.00,South,190,6.0,10.0,91,0.00,,---,0.00,VWS V14.01,2013-05-23 05:02:00,
2013-05-23 01:03:00,74.1,71.3,30.00,South,190,7.0,10.0,91,0.00,,---,0.00,VWS V14.01,2013-05-23 05:03:00,
2013-05-23 01:04:00,74.1,71.3,30.00,South,190,6.0,10.0,91,0.00,,---,0.00,VWS V14.01,2013-05-23 05:04:00,
2013-05-23 01:05:00,74.0,71.2,30.00,South,190,8.0,10.0,91,0.00,,---,0.00,VWS V14.01,2013-05-23 05:05:00,
2013-05-23 01:06:00,74.1,71.3,30.00,South,190,9.0,9.0,91,0.00,,---,0.00,VWS V14.01,2013-05-23 05:06:00,
2013-05-23 01:07:00,74.0,71.2,30.00,South,190,6.0,10.0,91,0.00,,---,0.00,VWS V14.01,2013-05-23 05:07:00,
2013-05-23 01:08:00,74.0,71.2,30.00,South,190,7.0,10.0,91,0.00,,---,0.00,VWS V14.01,2013-05-23 05:08:00,
2013-05-23 01:09:00,74.0,71.2,30.00,South,190,5.0,10.0,91,0.00,,---,0.00,VWS V14.01,2013-05-23 05:09:00,
2013-05-23 01:10:00,74.0,71.2,30.00,South,190,7.0,7.0,91,0.00,,---,0.00,VWS V14.01,2013-05-23 05:10:00,
2013-05-23 01:11:00,74.1,71.3,30.00,South,190,6.0,10.0,91,0.00,,---,0.00,VWS V14.01,2013-05-23 05:11:00,
2013-05-23 01:12:00,74.0,71.2,30.00,South,190,5.0,10.0,91,0.00,,---,0.00,VWS V14.01,2013-05-23 05:12:00,
2013-05-23 01:13:00,74.0,71.2,30.00,South,190,6.0,10.0,91,0.00,,---,0.00,VWS V14.01,2013-05-23 05:13:00,
2013-05-23 01:14:00,74.0,71.2,30.00,South,190,6.0,10.0,91,0.00,,---,0.00,VWS V14.01,2013-05-23 05:14:00,
2013-05-23 01:15:00,74.0,71.2,30.00,South,190,6.0,7.0,91,0.00,,---,0.00,VWS V14.01,2013-05-23 05:15:00,
2013-05-23 01:16:00,74.0,71.2,30.00,South,190,6.0,10.0,91,0.00,,---,0.00,VWS V14.01,2013-05-23 05:16:00,
2013-05-23 01:17:00,74.1,71.3,30.00,South,191,6.0,7.0,91,0.00,,---,0.00,VWS V14.01,2013-05-23 05:17:00,
2013-05-23 01:18:00,74.1,71.3,30.00,South,190,7.0,8.0,91,0.00,,---,0.00,VWS V14.01,2013-05-23 05:18:00,
2013-05-23 01:19:00,74.1,71.3,30.00,South,190,6.0,9.0,91,0.00,,---,0.00,VWS V14.01,2013-05-23 05:19:00,
2013-05-23 01:20:00,74.0,71.2,30.00,South,190,7.0,8.0,91,0.00,,---,0.00,VWS V14.01,2013-05-23 05:20:00,
2013-05-23 01:21:00,74.0,71.2,30.00,South,190,7.0,10.0,91,0.00,,---,0.00,VWS V14.01,2013-05-23 05:21:00,
2013-05-23 01:22:00,74.0,71.2,30.00,South,190,6.0,12.0,91,0.00,,---,0.00,VWS V14.01,2013-05-23 05:22:00,
2013-05-23 01:23:00,74.1,71.3,30.00,South,188,12.0,15.0,91,0.00,,---,0.00,VWS V14.01,2013-05-23 05:23:00,
2013-05-23 01:24:00,74.0,71.2,30.00,South,186,10.0,15.0,91,0.00,,---,0.00,VWS V14.01,2013-05-23 05:24:00,
2013-05-23 01:25:00,74.0,71.2,30.00,South,182,12.0,13.0,91,0.00,,---,0.00,VWS V14.01,2013-05-23 05:25:00,
2013-05-23 01:26:00,74.0,71.2,30.00,South,190,6.0,7.0,91,0.00,,---,0.00,VWS V14.01,2013-05-23 05:26:00,
2013-05-23 01:27:00,74.0,71.2,30.00,South,180,12.0,13.0,91,0.00,,---,0.00,VWS V14.01,2013-05-23 05:27:00,
2013-05-23 01:28:00,74.1,71.3,30.00,South,180,10.0,13.0,91,0.00,,---,0.00,VWS V14.01,2013-05-23 05:28:00,
2013-05-23 01:29:00,74.2,71.4,29.99,South,179,10.0,13.0,91,0.00,,---,0.00,VWS V14.01,2013-05-23 05:29:00,
2013-05-23 01:30:00,74.2,71.4,29.99,South,178,9.0,11.0,91,0.00,,---,0.00,VWS V14.01,2013-05-23 05:30:00,
2013-05-23 01:31:00,74.0,71.2,30.00,South,190,9.0,12.0,91,0.00,,---,0.00,VWS V14.01,2013-05-23 05:31:00,
2013-05-23 01:32:00,74.3,71.5,29.99,South,178,11.0,12.0,91,0.00,,---,0.00,VWS V14.01,2013-05-23 05:32:00,
2013-05-23 01:33:00,74.2,71.1,29.99,South,177,12.0,14.0,90,0.00,,---,0.00,VWS V14.01,2013-05-23 05:33:00,
2013-05-23 01:34:00,74.2,71.1,29.99,South,177,12.0,14.0,90,0.00,,---,0.00,VWS V14.01,2013-05-23 05:34:00,
2013-05-23 01:35:00,74.2,71.1,29.99,South,177,10.0,11.0,90,0.00,,---,0.00,VWS V14.01,2013-05-23 05:35:00,
2013-05-23 01:36:00,74.0,71.2,30.00,South,180,9.0,13.0,91,0.00,,---,0.00,VWS V14.01,2013-05-23 05:36:00,
2013-05-23 01:37:00,74.2,71.1,29.99,South,177,12.0,12.0,90,0.00,,---,0.00,VWS V14.01,2013-05-23 05:37:00,
2013-05-23 01:38:00,74.1,71.0,29.99,South,180,10.0,13.0,90,0.00,,---,0.00,VWS V14.01,2013-05-23 05:38:00,
2013-05-23 01:39:00,74.1,71.0,29.99,South,180,12.0,14.0,90,0.00,,---,0.00,VWS V14.01,2013-05-23 05:39:00,
2013-05-23 01:40:00,74.0,70.9,29.99,South,184,10.0,12.0,90,0.00,,---,0.00,VWS V14.01,2013-05-23 05:40:00,
2013-05-23 01:41:00,74.3,71.5,29.99,South,178,7.0,11.0,91,0.00,,---,0.00,VWS V14.01,2013-05-23 05:41:00,
2013-05-23 01:42:00,74.0,70.6,29.99,South,184,6.0,15.0,89,0.00,,---,0.00,VWS V14.01,2013-05-23 05:42:00,
2013-05-23 01:43:00,74.0,70.6,29.99,South,186,10.0,15.0,89,0.00,,---,0.00,VWS V14.01,2013-05-23 05:43:00,
2013-05-23 01:44:00,74.0,70.6,29.99,South,186,7.0,15.0,89,0.00,,---,0.00,VWS V14.01,2013-05-23 05:44:00,
2013-05-23 01:45:00,74.0,70.6,29.99,South,186,8.0,9.0,89,0.00,,---,0.00,VWS V14.01,2013-05-23 05:45:00,
2013-05-23 01:46:00,74.2,71.1,29.99,South,177,11.0,11.0,90,0.00,,---,0.00,VWS V14.01,2013-05-23 05:46:00,
2013-05-23 01:47:00,74.0,70.6,29.99,South,189,11.0,12.0,89,0.00,,---,0.00,VWS V14.01,2013-05-23 05:47:00,
2013-05-23 01:48:00,74.0,70.6,29.99,South,186,11.0,13.0,89,0.00,,---,0.00,VWS V14.01,2013-05-23 05:48:00,
2013-05-23 01:49:00,74.0,70.6,29.99,South,190,7.0,13.0,89,0.00,,---,0.00,VWS V14.01,2013-05-23 05:49:00,
2013-05-23 01:50:00,74.0,70.6,29.99,South,188,8.0,11.0,89,0.00,,---,0.00,VWS V14.01,2013-05-23 05:50:00,
2013-05-23 01:51:00,74.0,70.6,29.99,South,185,7.0,15.0,89,0.00,,---,0.00,VWS V14.01,2013-05-23 05:51:00,
2013-05-23 01:52:00,74.0,70.6,29.99,SSW,192,12.0,13.0,89,0.00,,---,0.00,VWS V14.01,2013-05-23 05:52:00,
2013-05-23 01:53:00,74.0,70.6,29.99,SSW,194,12.0,14.0,89,0.00,,---,0.00,VWS V14.01,2013-05-23 05:53:00,
2013-05-23 01:54:00,74.0,70.6,29.99,SSW,194,10.0,14.0,89,0.00,,---,0.00,VWS V14.01,2013-05-23 05:54:00,
2013-05-23 01:55:00,74.1,70.7,29.99,SSW,194,10.0,11.0,89,0.00,,---,0.00,VWS V14.01,2013-05-23 05:55:00,
2013-05-23 01:56:00,74.0,70.6,29.99,South,189,11.0,12.0,89,0.00,,---,0.00,VWS V14.01,2013-05-23 05:56:00,
2013-05-23 01:57:00,74.1,70.7,29.99,SSW,196,8.0,12.0,89,0.00,,---,0.00,VWS V14.01,2013-05-23 05:57:00,
2013-05-23 01:58:00,74.1,71.0,29.99,SSW,196,9.0,12.0,90,0.00,,---,0.00,VWS V14.01,2013-05-23 05:58:00,
2013-05-23 01:59:00,74.1,71.0,29.99,SSW,198,11.0,12.0,90,0.00,,---,0.00,VWS V14.01,2013-05-23 05:59:00,
2013-05-23 02:00:00,74.1,70.7,29.99,SSW,196,10.0,12.0,89,0.00,,---,0.00,VWS V14.01,2013-05-23 06:00:00,
2013-05-23 02:01:00,74.0,70.6,29.99,South,190,7.0,13.0,89,0.00,,---,0.00,VWS V14.01,2013-05-23 06:01:00,
2013-05-23 02:02:00,74.1,71.0,29.99,SSW,194,11.0,12.0,90,0.00,,---,0.00,VWS V14.01,2013-05-23 06:02:00,
2013-05-23 02:03:00,74.1,71.0,29.99,South,188,8.0,12.0,90,0.00,,---,0.00,VWS V14.01,2013-05-23 06:03:00,
2013-05-23 02:04:00,74.1,71.0,29.99,SSW,192,11.0,12.0,90,0.00,,---,0.00,VWS V14.01,2013-05-23 06:04:00,
2013-05-23 02:05:00,74.1,71.0,29.99,South,190,8.0,11.0,90,0.00,,---,0.00,VWS V14.01,2013-05-23 06:05:00,
2013-05-23 02:06:00,74.0,70.6,29.99,SSW,193,10.0,12.0,89,0.00,,---,0.00,VWS V14.01,2013-05-23 06:06:00,
2013-05-23 02:07:00,74.1,71.0,29.99,SSW,192,9.0,11.0,90,0.00,,---,0.00,VWS V14.01,2013-05-23 06:07:00,
2013-05-23 02:08:00,74.1,71.0,29.99,SSW,194,6.0,11.0,90,0.00,,---,0.00,VWS V14.01,2013-05-23 06:08:00,
2013-05-23 02:09:00,74.1,71.0,29.99,SSW,192,8.0,11.0,90,0.00,,---,0.00,VWS V14.01,2013-05-23 06:09:00,
2013-05-23 02:10:00,74.1,71.0,29.99,SSW,194,10.0,10.0,90,0.00,,---,0.00,VWS V14.01,2013-05-23 06:10:00,
2013-05-23 02:11:00,74.1,71.0,29.99,SSW,193,9.0,12.0,90,0.00,,---,0.00,VWS V14.01,2013-05-23 06:11:00,
2013-05-23 02:12:00,74.1,71.0,29.99,SSW,198,9.0,10.0,90,0.00,,---,0.00,VWS V14.01,2013-05-23 06:12:00,
2013-05-23 02:13:00,74.1,71.0,29.99,SSW,199,7.0,10.0,90,0.00,,---,0.00,VWS V14.01,2013-05-23 06:13:00,
2013-05-23 02:14:00,74.1,71.0,29.98,SSW,200,6.0,10.0,90,0.00,,---,0.00,VWS V14.01,2013-05-23 06:14:00,
2013-05-23 02:15:00,74.0,70.9,29.98,SSW,196,7.0,9.0,90,0.00,,---,0.00,VWS V14.01,2013-05-23 06:15:00,
2013-05-23 02:16:00,74.1,71.0,29.99,South,191,9.0,11.0,90,0.00,,---,0.00,VWS V14.01,2013-05-23 06:16:00,
2013-05-23 02:17:00,74.0,70.9,29.98,SSW,193,6.0,9.0,90,0.00,,---,0.00,VWS V14.01,2013-05-23 06:17:00,
2013-05-23 02:18:00,74.0,70.9,29.98,South,190,5.0,9.0,90,0.00,,---,0.00,VWS V14.01,2013-05-23 06:18:00,
2013-05-23 02:19:00,74.0,70.9,29.98,South,190,4.0,9.0,90,0.00,,---,0.00,VWS V14.01,2013-05-23 06:19:00,
2013-05-23 02:20:00,74.0,70.9,29.98,South,190,6.0,7.0,90,0.00,,---,0.00,VWS V14.01,2013-05-23 06:20:00,
2013-05-23 02:21:00,74.1,71.0,29.99,SSW,198,6.0,10.0,90,0.00,,---,0.00,VWS V14.01,2013-05-23 06:21:00,
2013-05-23 02:22:00,74.0,70.9,29.98,South,190,3.0,7.0,90,0.00,,---,0.00,VWS V14.01,2013-05-23 06:22:00,
2013-05-23 02:23:00,74.0,70.9,29.98,South,190,10.0,10.0,90,0.00,,---,0.00,VWS V14.01,2013-05-23 06:23:00,
2013-05-23 02:24:00,74.0,70.9,29.98,South,190,6.0,10.0,90,0.00,,---,0.00,VWS V14.01,2013-05-23 06:24:00,
2013-05-23 02:25:00,74.0,70.9,29.98,South,190,6.0,7.0,90,0.00,,---,0.00,VWS V14.01,2013-05-23 06:25:00,
2013-05-23 02:26:00,74.0,70.9,29.98,SSW,193,6.0,9.0,90,0.00,,---,0.00,VWS V14.01,2013-05-23 06:26:00,
2013-05-23 02:27:00,74.0,70.9,29.98,South,184,6.0,10.0,90,0.00,,---,0.00,VWS V14.01,2013-05-23 06:27:00,
2013-05-23 02:28:00,74.0,70.9,29.98,South,182,12.0,12.0,90,0.00,,---,0.00,VWS V14.01,2013-05-23 06:28:00,
2013-05-23 02:29:00,74.0,70.9,29.98,South,181,10.0,12.0,90,0.00,,---,0.00,VWS V14.01,2013-05-23 06:29:00,
2013-05-23 02:30:00,73.9,70.8,29.98,South,184,14.0,16.0,90,0.00,,---,0.00,VWS V14.01,2013-05-23 06:30:00,
2013-05-23 02:31:00,74.0,70.9,29.98,South,190,4.0,7.0,90,0.00,,---,0.00,VWS V14.01,2013-05-23 06:31:00,
2013-05-23 02:32:00,74.0,70.9,29.98,South,177,13.0,16.0,90,0.00,,---,0.00,VWS V14.01,2013-05-23 06:32:00,
2013-05-23 02:33:00,74.0,70.9,29.98,South,177,12.0,16.0,90,0.00,,---,0.00,VWS V14.01,2013-05-23 06:33:00,
2013-05-23 02:34:00,74.0,70.9,29.98,South,187,7.0,16.0,90,0.00,,---,0.00,VWS V14.01,2013-05-23 06:34:00,
2013-05-23 02:35:00,74.0,70.9,29.98,South,175,9.0,11.0,90,0.00,,---,0.00,VWS V14.01,2013-05-23 06:35:00,
2013-05-23 02:36:00,74.0,70.9,29.98,South,184,6.0,10.0,90,0.00,,---,0.00,VWS V14.01,2013-05-23 06:36:00,
2013-05-23 02:37:00,74.0,70.9,29.98,South,186,11.0,13.0,90,0.00,,---,0.00,VWS V14.01,2013-05-23 06:37:00,
2013-05-23 02:38:00,73.9,70.8,29.98,South,177,8.0,13.0,90,0.00,,---,0.00,VWS V14.01,2013-05-23 06:38:00,
2013-05-23 02:39:00,74.0,70.9,29.98,South,175,11.0,13.0,90,0.00,,---,0.00,VWS V14.01,2013-05-23 06:39:00,
2013-05-23 02:40:00,74.0,70.9,29.98,South,169,11.0,11.0,90,0.00,,---,0.00,VWS V14.01,2013-05-23 06:40:00,
2013-05-23 02:41:00,74.0,70.9,29.98,South,176,7.0,16.0,90,0.00,,---,0.00,VWS V14.01,2013-05-23 06:41:00,
2013-05-23 02:42:00,73.9,70.8,29.98,SSE,168,10.0,11.0,90,0.00,,---,0.00,VWS V14.01,2013-05-23 06:42:00,
2013-05-23 02:43:00,73.9,70.8,29.98,SSE,168,11.0,12.0,90,0.00,,---,0.00,VWS V14.01,2013-05-23 06:43:00,
2013-05-23 02:44:00,73.8,70.7,29.97,South,170,10.0,12.0,90,0.00,,---,0.00,VWS V14.01,2013-05-23 06:44:00,
2013-05-23 02:45:00,73.7,70.6,29.97,SSE,168,10.0,10.0,90,0.00,,---,0.00,VWS V14.01,2013-05-23 06:45:00,
2013-05-23 02:46:00,74.0,70.9,29.98,South,186,6.0,13.0,90,0.00,,---,0.00,VWS V14.01,2013-05-23 06:46:00,
2013-05-23 02:47:00,73.7,70.6,29.97,SSE,160,9.0,11.0,90,0.00,,---,0.00,VWS V14.01,2013-05-23 06:47:00,
2013-05-23 02:48:00,73.7,70.6,29.97,SSE,155,12.0,13.0,90,0.00,,---,0.00,VWS V14.01,2013-05-23 06:48:00,
2013-05-23 02:49:00,73.6,70.5,29.97,SSE,166,9.0,13.0,90,0.00,,---,0.00,VWS V14.01,2013-05-23 06:49:00,
2013-05-23 02:50:00,73.4,70.3,29.97,SSE,166,8.0,9.0,90,0.00,,---,0.00,VWS V14.01,2013-05-23 06:50:00,
2013-05-23 02:51:00,73.9,70.8,29.98,South,169,8.0,11.0,90,0.00,,---,0.00,VWS V14.01,2013-05-23 06:51:00,
2013-05-23 02:52:00,73.5,70.4,29.97,SSE,164,9.0,10.0,90,0.00,,---,0.00,VWS V14.01,2013-05-23 06:52:00,
2013-05-23 02:53:00,73.5,70.4,29.97,SSE,163,7.0,10.0,90,0.00,,---,0.00,VWS V14.01,2013-05-23 06:53:00,
2013-05-23 02:54:00,73.6,70.5,29.97,SSE,159,10.0,10.0,90,0.00,,---,0.00,VWS V14.01,2013-05-23 06:54:00,
2013-05-23 02:55:00,73.6,70.5,29.97,SSE,159,10.0,10.0,90,0.00,,---,0.00,VWS V14.01,2013-05-23 06:55:00,
2013-05-23 02:56:00,73.7,70.6,29.97,SSE,163,10.0,11.0,90,0.00,,---,0.00,VWS V14.01,2013-05-23 06:56:00,
2013-05-23 02:57:00,73.7,70.6,29.97,SSE,156,11.0,12.0,90,0.00,,---,0.00,VWS V14.01,2013-05-23 06:57:00,
2013-05-23 02:58:00,73.8,70.7,29.97,SSE,155,10.0,12.0,90,0.00,,---,0.00,VWS V14.01,2013-05-23 06:58:00,
2013-05-23 02:59:00,73.8,70.7,29.98,SSE,155,10.0,12.0,90,0.00,,---,0.00,VWS V14.01,2013-05-23 06:59:00,
2013-05-23 03:00:00,73.7,70.6,29.98,SSE,157,10.0,10.0,90,0.00,,---,0.00,VWS V14.01,2013-05-23 07:00:00,
2013-05-23 03:01:00,73.4,70.3,29.97,SSE,163,9.0,10.0,90,0.00,,---,0.00,VWS V14.01,2013-05-23 07:01:00,
2013-05-23 03:02:00,73.7,70.6,29.98,SSE,159,10.0,11.0,90,0.00,,---,0.00,VWS V14.01,2013-05-23 07:02:00,
2013-05-23 03:03:00,73.7,70.6,29.98,SSE,161,7.0,11.0,90,0.00,,---,0.00,VWS V14.01,2013-05-23 07:03:00,
2013-05-23 03:04:00,73.7,70.6,29.98,SSE,159,7.0,11.0,90,0.00,,---,0.00,VWS V14.01,2013-05-23 07:04:00,
2013-05-23 03:05:00,73.7,70.9,29.98,SSE,159,7.0,7.0,91,0.00,,---,0.00,VWS V14.01,2013-05-23 07:05:00,
2013-05-23 03:06:00,73.7,70.6,29.97,SSE,157,7.0,12.0,90,0.00,,---,0.00,VWS V14.01,2013-05-23 07:06:00,
2013-05-23 03:07:00,73.8,71.0,29.98,SSE,161,7.0,9.0,91,0.00,,---,0.00,VWS V14.01,2013-05-23 07:07:00,
2013-05-23 03:08:00,73.8,71.0,29.98,SSE,161,6.0,9.0,91,0.00,,---,0.00,VWS V14.01,2013-05-23 07:08:00,
2013-05-23 03:09:00,73.9,71.1,29.98,SSE,161,5.0,9.0,91,0.00,,---,0.00,VWS V14.01,2013-05-23 07:09:00,
2013-05-23 03:10:00,73.9,71.1,29.98,SSE,161,6.0,6.0,91,0.00,,---,0.00,VWS V14.01,2013-05-23 07:10:00,
2013-05-23 03:11:00,73.7,70.6,29.98,SSE,160,9.0,11.0,90,0.00,,---,0.00,VWS V14.01,2013-05-23 07:11:00,
2013-05-23 03:12:00,74.0,71.2,29.98,SSE,161,7.0,8.0,91,0.00,,---,0.00,VWS V14.01,2013-05-23 07:12:00,
2013-05-23 03:13:00,74.0,71.2,29.98,SSE,157,10.0,10.0,91,0.00,,---,0.00,VWS V14.01,2013-05-23 07:13:00,
2013-05-23 03:14:00,73.9,71.1,29.98,SSE,150,7.0,10.0,91,0.00,,---,0.00,VWS V14.01,2013-05-23 07:14:00,
2013-05-23 03:15:00,73.9,71.1,29.98,SE,145,6.0,8.0,91,0.00,,---,0.00,VWS V14.01,2013-05-23 07:15:00,
2013-05-23 03:16:00,73.8,71.0,29.98,SSE,161,6.0,9.0,91,0.00,,---,0.00,VWS V14.01,2013-05-23 07:16:00,
2013-05-23 03:17:00,73.9,71.1,29.98,SSE,147,7.0,9.0,91,0.00,,---,0.00,VWS V14.01,2013-05-23 07:17:00,
2013-05-23 03:18:00,73.9,71.1,29.98,SSE,148,6.0,9.0,91,0.00,,---,0.00,VWS V14.01,2013-05-23 07:18:00,
2013-05-23 03:19:00,73.9,71.1,29.98,SSE,148,7.0,9.0,91,0.00,,---,0.00,VWS V14.01,2013-05-23 07:19:00,
2013-05-23 03:20:00,73.9,71.1,29.98,SE,146,7.0,9.0,91,0.00,,---,0.00,VWS V14.01,2013-05-23 07:20:00,
2013-05-23 03:21:00,73.9,71.1,29.98,SSE,161,6.0,7.0,91,0.00,,---,0.00,VWS V14.01,2013-05-23 07:21:00,
2013-05-23 03:22:00,73.8,71.0,29.98,SE,145,6.0,9.0,91,0.00,,---,0.00,VWS V14.01,2013-05-23 07:22:00,
2013-05-23 03:23:00,73.8,71.0,29.98,SE,145,7.0,9.0,91,0.00,,---,0.00,VWS V14.01,2013-05-23 07:23:00,
2013-05-23 03:24:00,73.8,71.0,29.98,SE,144,7.0,9.0,91,0.00,,---,0.00,VWS V14.01,2013-05-23 07:24:00,
2013-05-23 03:25:00,73.7,70.9,29.98,SE,144,6.0,7.0,91,0.00,,---,0.00,VWS V14.01,2013-05-23 07:25:00,
2013-05-23 03:26:00,73.9,71.1,29.98,SE,146,6.0,9.0,91,0.00,,---,0.00,VWS V14.01,2013-05-23 07:26:00,
2013-05-23 03:27:00,73.7,70.9,29.98,SSE,149,9.0,9.0,91,0.00,,---,0.00,VWS V14.01,2013-05-23 07:27:00,
2013-05-23 03:28:00,73.7,70.9,29.98,SSE,150,7.0,9.0,91,0.00,,---,0.00,VWS V14.01,2013-05-23 07:28:00,
2013-05-23 03:29:00,73.7,71.2,29.98,SSE,153,7.0,9.0,92,0.00,,---,0.00,VWS V14.01,2013-05-23 07:29:00,
2013-05-23 03:30:00,73.7,71.2,29.98,SSE,154,7.0,9.0,92,0.00,,---,0.00,VWS V14.01,2013-05-23 07:30:00,
2013-05-23 03:31:00,73.8,71.0,29.98,SE,145,6.0,9.0,91,0.00,,---,0.00,VWS V14.01,2013-05-23 07:31:00,
2013-05-23 03:32:00,73.7,71.2,29.98,SSE,155,7.0,10.0,92,0.00,,---,0.00,VWS V14.01,2013-05-23 07:32:00,
2013-05-23 03:33:00,73.7,71.2,29.98,SSE,155,6.0,10.0,92,0.00,,---,0.00,VWS V14.01,2013-05-23 07:33:00,
2013-05-23 03:34:00,73.7,71.2,29.98,SSE,154,7.0,10.0,92,0.00,,---,0.00,VWS V14.01,2013-05-23 07:34:00,
2013-05-23 03:35:00,73.7,71.2,29.98,SSE,153,7.0,8.0,92,0.00,,---,0.00,VWS V14.01,2013-05-23 07:35:00,
2013-05-23 03:36:00,73.7,70.9,29.98,SSE,148,6.0,9.0,91,0.00,,---,0.00,VWS V14.01,2013-05-23 07:36:00,
2013-05-23 03:37:00,73.7,71.2,29.98,SSE,153,8.0,9.0,92,0.00,,---,0.00,VWS V14.01,2013-05-23 07:37:00,
2013-05-23 03:38:00,73.7,71.2,29.98,SSE,155,6.0,9.0,92,0.00,,---,0.00,VWS V14.01,2013-05-23 07:38:00,
2013-05-23 03:39:00,73.7,71.2,29.98,SSE,155,7.0,9.0,92,0.00,,---,0.00,VWS V14.01,2013-05-23 07:39:00,
2013-05-23 03:40:00,73.7,71.2,29.98,SSE,157,8.0,9.0,92,0.00,,---,0.00,VWS V14.01,2013-05-23 07:40:00,
2013-05-23 03:41:00,73.7,71.2,29.98,SSE,154,7.0,10.0,92,0.00,,---,0.00,VWS V14.01,2013-05-23 07:41:00,
2013-05-23 03:46:00,73.7,71.2,29.98,SSE,153,7.0,9.0,92,0.00,,---,0.00,VWS V14.01,2013-05-23 07:46:00,
2013-05-23 03:47:00,73.6,71.1,29.97,South,173,9.0,11.0,92,0.00,,---,0.00,VWS V14.01,2013-05-23 07:47:00,
2013-05-23 03:48:00,73.6,71.1,29.97,South,178,10.0,11.0,92,0.00,,---,0.00,VWS V14.01,2013-05-23 07:48:00,
2013-05-23 03:49:00,73.6,71.1,29.97,South,182,11.0,12.0,92,0.00,,---,0.00,VWS V14.01,2013-05-23 07:49:00,
2013-05-23 03:50:00,73.6,71.1,29.97,SSW,193,9.0,11.0,92,0.00,,---,0.00,VWS V14.01,2013-05-23 07:50:00,
2013-05-23 03:51:00,73.6,71.1,29.97,SSW,194,10.0,13.0,92,0.00,,---,0.00,VWS V14.01,2013-05-23 07:51:00,
2013-05-23 03:52:00,73.6,71.1,29.97,South,190,8.0,13.0,92,0.00,,---,0.00,VWS V14.01,2013-05-23 07:52:00,
2013-05-23 03:53:00,73.6,71.1,29.97,South,191,12.0,13.0,92,0.00,,---,0.00,VWS V14.01,2013-05-23 07:53:00,
2013-05-23 03:54:00,73.6,71.1,29.97,SSW,192,10.0,13.0,92,0.00,,---,0.00,VWS V14.01,2013-05-23 07:54:00,
2013-05-23 03:55:00,73.7,71.2,29.97,SSW,192,10.0,10.0,92,0.00,,---,0.00,VWS V14.01,2013-05-23 07:55:00,
2013-05-23 03:56:00,73.6,71.1,29.97,South,173,6.0,11.0,92,0.00,,---,0.00,VWS V14.01,2013-05-23 07:56:00,
2013-05-23 03:57:00,73.8,71.0,29.97,South,190,9.0,12.0,91,0.00,,---,0.00,VWS V14.01,2013-05-23 07:57:00,
2013-05-23 03:58:00,73.8,71.0,29.97,South,191,10.0,12.0,91,0.00,,---,0.00,VWS V14.01,2013-05-23 07:58:00,
2013-05-23 03:59:00,73.7,70.9,29.97,South,190,11.0,12.0,91,0.00,,---,0.00,VWS V14.01,2013-05-23 07:59:00,
2013-05-23 04:00:00,73.7,70.9,29.97,SSW,192,12.0,12.0,91,0.00,,---,0.00,VWS V14.01,2013-05-23 08:00:00,
2013-05-23 04:01:00,73.6,71.1,29.97,South,190,7.0,13.0,92,0.00,,---,0.00,VWS V14.01,2013-05-23 08:01:00,
2013-05-23 04:02:00,73.7,70.9,29.97,South,190,8.0,12.0,91,0.00,,---,0.00,VWS V14.01,2013-05-23 08:02:00,
2013-05-23 04:03:00,73.8,71.0,29.97,South,190,10.0,12.0,91,0.00,,---,0.00,VWS V14.01,2013-05-23 08:03:00,
2013-05-23 04:04:00,73.8,71.0,29.97,SSW,192,7.0,12.0,91,0.00,,---,0.00,VWS V14.01,2013-05-23 08:04:00,
2013-05-23 04:05:00,73.8,71.0,29.97,SSW,192,7.0,7.0,91,0.00,,---,0.00,VWS V14.01,2013-05-23 08:05:00,
2013-05-23 04:06:00,73.8,71.3,29.97,South,190,6.0,12.0,92,0.00,,---,0.00,VWS V14.01,2013-05-23 08:06:00,
2013-05-23 04:07:00,73.8,71.0,29.97,South,190,5.0,9.0,91,0.00,,---,0.00,VWS V14.01,2013-05-23 08:07:00,
2013-05-23 04:08:00,73.7,70.9,29.97,South,190,6.0,9.0,91,0.00,,---,0.00,VWS V14.01,2013-05-23 08:08:00,
2013-05-23 04:09:00,73.7,70.9,29.97,South,190,4.0,9.0,91,0.00,,---,0.00,VWS V14.01,2013-05-23 08:09:00,
2013-05-23 04:10:00,73.8,71.0,29.97,South,190,6.0,7.0,91,0.00,,---,0.00,VWS V14.01,2013-05-23 08:10:00,
2013-05-23 04:11:00,73.7,70.9,29.97,South,190,7.0,12.0,91,0.00,,---,0.00,VWS V14.01,2013-05-23 08:11:00,
2013-05-23 04:12:00,73.7,70.9,29.97,South,190,6.0,7.0,91,0.00,,---,0.00,VWS V14.01,2013-05-23 08:12:00,
2013-05-23 04:13:00,73.8,71.0,29.97,South,190,4.0,7.0,91,0.00,,---,0.00,VWS V14.01,2013-05-23 08:13:00,
2013-05-23 04:14:00,73.8,71.0,29.97,South,190,4.0,7.0,91,0.00,,---,0.00,VWS V14.01,2013-05-23 08:14:00,
2013-05-23 04:15:00,73.7,70.9,29.97,South,189,5.0,5.0,91,0.00,,---,0.00,VWS V14.01,2013-05-23 08:15:00,
2013-05-23 04:16:00,73.8,71.0,29.97,South,190,4.0,9.0,91,0.00,,---,0.00,VWS V14.01,2013-05-23 08:16:00,
2013-05-23 04:17:00,73.7,70.9,29.97,South,190,5.0,6.0,91,0.00,,---,0.00,VWS V14.01,2013-05-23 08:17:00,
2013-05-23 04:18:00,73.7,70.9,29.97,South,190,6.0,7.0,91,0.00,,---,0.00,VWS V14.01,2013-05-23 08:18:00,
2013-05-23 04:19:00,73.7,70.9,29.97,South,190,0.0,7.0,91,0.00,,---,0.00,VWS V14.01,2013-05-23 08:19:00,
2013-05-23 04:20:00,73.7,70.9,29.97,South,190,3.0,4.0,91,0.00,,---,0.00,VWS V14.01,2013-05-23 08:20:00,
2013-05-23 04:21:00,73.8,71.0,29.97,South,190,5.0,7.0,91,0.00,,---,0.00,VWS V14.01,2013-05-23 08:21:00,
2013-05-23 04:22:00,73.7,70.9,29.97,South,190,4.0,5.0,91,0.00,,---,0.00,VWS V14.01,2013-05-23 08:22:00,
2013-05-23 04:23:00,73.7,70.9,29.97,South,190,4.0,6.0,91,0.00,,---,0.00,VWS V14.01,2013-05-23 08:23:00,
2013-05-23 04:24:00,73.7,70.9,29.97,South,189,5.0,6.0,91,0.00,,---,0.00,VWS V14.01,2013-05-23 08:24:00,
2013-05-23 04:25:00,73.7,71.2,29.97,South,190,5.0,5.0,92,0.00,,---,0.00,VWS V14.01,2013-05-23 08:25:00,
2013-05-23 04:26:00,73.7,70.9,29.97,South,190,4.0,6.0,91,0.00,,---,0.00,VWS V14.01,2013-05-23 08:26:00,
2013-05-23 04:27:00,73.7,71.2,29.97,South,190,4.0,5.0,92,0.00,,---,0.00,VWS V14.01,2013-05-23 08:27:00,
2013-05-23 04:28:00,73.7,71.2,29.97,South,189,5.0,6.0,92,0.00,,---,0.00,VWS V14.01,2013-05-23 08:28:00,
2013-05-23 04:29:00,73.6,71.1,29.97,South,190,4.0,6.0,92,0.00,,---,0.00,VWS V14.01,2013-05-23 08:29:00,
2013-05-23 04:30:00,73.7,71.2,29.97,South,190,3.0,3.0,92,0.00,,---,0.00,VWS V14.01,2013-05-23 08:30:00,
2013-05-23 04:31:00,73.7,70.9,29.97,South,190,5.0,5.0,91,0.00,,---,0.00,VWS V14.01,2013-05-23 08:31:00,
2013-05-23 04:32:00,73.7,71.2,29.97,South,190,4.0,5.0,92,0.00,,---,0.00,VWS V14.01,2013-05-23 08:32:00,
2013-05-23 04:33:00,73.7,71.2,29.97,South,190,4.0,5.0,92,0.00,,---,0.00,VWS V14.01,2013-05-23 08:33:00,
2013-05-23 04:34:00,73.7,71.2,29.97,South,190,4.0,5.0,92,0.00,,---,0.00,VWS V14.01,2013-05-23 08:34:00,
2013-05-23 04:35:00,73.7,71.2,29.97,South,190,5.0,5.0,92,0.00,,---,0.00,VWS V14.01,2013-05-23 08:35:00,
2013-05-23 04:36:00,73.7,71.2,29.97,South,190,4.0,5.0,92,0.00,,---,0.00,VWS V14.01,2013-05-23 08:36:00,
2013-05-23 04:37:00,73.7,71.2,29.97,South,190,4.0,6.0,92,0.00,,---,0.00,VWS V14.01,2013-05-23 08:37:00,
2013-05-23 04:38:00,73.6,71.1,29.97,South,190,5.0,6.0,92,0.00,,---,0.00,VWS V14.01,2013-05-23 08:38:00,
2013-05-23 04:39:00,73.6,71.1,29.97,South,190,4.0,6.0,92,0.00,,---,0.00,VWS V14.01,2013-05-23 08:39:00,
2013-05-23 04:40:00,73.6,71.1,29.97,South,190,5.0,5.0,92,0.00,,---,0.00,VWS V14.01,2013-05-23 08:40:00,
2013-05-23 04:41:00,73.7,71.2,29.97,South,190,3.0,5.0,92,0.00,,---,0.00,VWS V14.01,2013-05-23 08:41:00,
2013-05-23 04:42:00,73.6,71.1,29.97,South,190,0.0,6.0,92,0.00,,---,0.00,VWS V14.01,2013-05-23 08:42:00,
2013-05-23 04:43:00,73.6,71.1,29.97,South,190,4.0,6.0,92,0.00,,---,0.00,VWS V14.01,2013-05-23 08:43:00,
2013-05-23 04:44:00,73.6,71.1,29.97,South,190,5.0,6.0,92,0.00,,---,0.00,VWS V14.01,2013-05-23 08:44:00,
2013-05-23 04:45:00,73.5,71.0,29.97,South,190,3.0,3.0,92,0.00,,---,0.00,VWS V14.01,2013-05-23 08:45:00,
2013-05-23 04:46:00,73.7,71.2,29.97,South,190,4.0,6.0,92,0.00,,---,0.00,VWS V14.01,2013-05-23 08:46:00,
2013-05-23 04:47:00,73.5,71.0,29.97,South,190,4.0,4.0,92,0.00,,---,0.00,VWS V14.01,2013-05-23 08:47:00,
2013-05-23 04:48:00,73.5,71.0,29.97,South,190,3.0,5.0,92,0.00,,---,0.00,VWS V14.01,2013-05-23 08:48:00,
2013-05-23 04:49:00,73.5,71.0,29.97,South,190,3.0,5.0,92,0.00,,---,0.00,VWS V14.01,2013-05-23 08:49:00,
2013-05-23 04:50:00,73.5,71.0,29.97,South,190,4.0,5.0,92,0.00,,---,0.00,VWS V14.01,2013-05-23 08:50:00,
2013-05-23 04:51:00,73.6,71.1,29.97,South,190,0.0,6.0,92,0.00,,---,0.00,VWS V14.01,2013-05-23 08:51:00,
2013-05-23 04:52:00,73.5,71.0,29.97,South,190,5.0,6.0,92,0.00,,---,0.00,VWS V14.01,2013-05-23 08:52:00,
2013-05-23 04:53:00,73.5,71.0,29.97,South,189,2.0,6.0,92,0.00,,---,0.00,VWS V14.01,2013-05-23 08:53:00,
2013-05-23 04:54:00,73.5,71.0,29.97,South,190,4.0,6.0,92,0.00,,---,0.00,VWS V14.01,2013-05-23 08:54:00,
2013-05-23 04:55:00,73.4,70.9,29.97,South,190,3.0,3.0,92,0.00,,---,0.00,VWS V14.01,2013-05-23 08:55:00,
2013-05-23 04:56:00,73.6,71.1,29.97,South,190,3.0,4.0,92,0.00,,---,0.00,VWS V14.01,2013-05-23 08:56:00,
2013-05-23 04:57:00,73.5,71.0,29.97,South,190,0.0,5.0,92,0.00,,---,0.00,VWS V14.01,2013-05-23 08:57:00,
2013-05-23 04:58:00,73.5,71.0,29.97,South,190,4.0,5.0,92,0.00,,---,0.00,VWS V14.01,2013-05-23 08:58:00,
2013-05-23 04:59:00,73.4,70.9,29.96,South,190,4.0,5.0,92,0.00,,---,0.00,VWS V14.01,2013-05-23 08:59:00,
2013-05-23 05:00:00,73.5,71.0,29.96,South,190,4.0,4.0,92,0.00,,---,0.00,VWS V14.01,2013-05-23 09:00:00,
2013-05-23 05:01:00,73.5,71.0,29.97,South,190,3.0,6.0,92,0.00,,---,0.00,VWS V14.01,2013-05-23 09:01:00,
2013-05-23 05:02:00,73.4,70.9,29.96,South,190,0.0,4.0,92,0.00,,---,0.00,VWS V14.01,2013-05-23 09:02:00,
2013-05-23 05:03:00,73.4,70.9,29.96,South,190,0.0,4.0,92,0.00,,---,0.00,VWS V14.01,2013-05-23 09:03:00,
2013-05-23 05:04:00,73.4,70.9,29.96,South,190,0.0,4.0,92,0.00,,---,0.00,VWS V14.01,2013-05-23 09:04:00,
2013-05-23 05:05:00,73.4,70.9,29.96,South,190,0.0,0.0,92,0.00,,---,0.00,VWS V14.01,2013-05-23 09:05:00,
2013-05-23 05:06:00,73.5,71.0,29.97,South,190,2.0,5.0,92,0.00,,---,0.00,VWS V14.01,2013-05-23 09:06:00,
2013-05-23 05:07:00,73.4,70.9,29.96,South,190,3.0,4.0,92,0.00,,---,0.00,VWS V14.01,2013-05-23 09:07:00,
2013-05-23 05:08:00,73.4,70.9,29.96,South,190,4.0,6.0,92,0.00,,---,0.00,VWS V14.01,2013-05-23 09:08:00,
2013-05-23 05:09:00,73.4,70.9,29.96,South,190,0.0,6.0,92,0.00,,---,0.00,VWS V14.01,2013-05-23 09:09:00,
2013-05-23 05:10:00,73.4,70.9,29.96,South,190,0.0,0.0,92,0.00,,---,0.00,VWS V14.01,2013-05-23 09:10:00,
2013-05-23 05:11:00,73.4,70.9,29.96,South,190,0.0,4.0,92,0.00,,---,0.00,VWS V14.01,2013-05-23 09:11:00,
2013-05-23 05:12:00,73.4,70.9,29.96,South,190,5.0,5.0,92,0.00,,---,0.00,VWS V14.01,2013-05-23 09:12:00,
2013-05-23 05:13:00,73.4,70.9,29.96,South,190,4.0,5.0,92,0.00,,---,0.00,VWS V14.01,2013-05-23 09:13:00,
2013-05-23 05:14:00,73.4,70.9,29.96,South,190,4.0,6.0,92,0.00,,---,0.00,VWS V14.01,2013-05-23 09:14:00,
2013-05-23 05:15:00,73.4,70.9,29.96,South,190,4.0,4.0,92,0.00,,---,0.00,VWS V14.01,2013-05-23 09:15:00,
2013-05-23 05:16:00,73.4,70.9,29.96,South,190,4.0,4.0,92,0.00,,---,0.00,VWS V14.01,2013-05-23 09:16:00,
2013-05-23 05:17:00,73.4,70.9,29.96,South,189,4.0,5.0,92,0.00,,---,0.00,VWS V14.01,2013-05-23 09:17:00,
2013-05-23 05:18:00,73.5,71.0,29.96,South,189,4.0,5.0,92,0.00,,---,0.00,VWS V14.01,2013-05-23 09:18:00,
2013-05-23 05:19:00,73.5,71.0,29.96,South,189,6.0,7.0,92,0.00,,---,0.00,VWS V14.01,2013-05-23 09:19:00,
2013-05-23 05:20:00,73.5,71.0,29.96,South,188,7.0,8.0,92,0.00,,---,0.00,VWS V14.01,2013-05-23 09:20:00,
2013-05-23 05:21:00,73.4,70.9,29.96,South,190,4.0,5.0,92,0.00,,---,0.00,VWS V14.01,2013-05-23 09:21:00,
2013-05-23 05:22:00,72.8,69.7,29.96,SSE,162,15.0,18.0,90,0.00,,---,0.00,VWS V14.01,2013-05-23 09:22:00,
2013-05-23 05:23:00,72.1,68.7,29.96,SSE,162,10.0,18.0,89,0.00,,---,0.00,VWS V14.01,2013-05-23 09:23:00,
2013-05-23 05:24:00,71.8,68.7,29.96,SSE,162,11.0,18.0,90,0.00,,---,0.00,VWS V14.01,2013-05-23 09:24:00,
2013-05-23 05:25:00,71.5,68.4,29.96,SSE,163,11.0,11.0,90,0.00,,---,0.00,VWS V14.01,2013-05-23 09:25:00,
2013-05-23 05:26:00,73.5,71.0,29.96,South,190,3.0,5.0,92,0.00,,---,0.00,VWS V14.01,2013-05-23 09:26:00,
2013-05-23 05:27:00,71.5,68.7,29.96,SSE,163,7.0,11.0,91,0.00,,---,0.00,VWS V14.01,2013-05-23 09:27:00,
2013-05-23 05:28:00,71.5,68.7,29.96,South,173,10.0,11.0,91,0.00,,---,0.00,VWS V14.01,2013-05-23 09:28:00,
2013-05-23 05:29:00,71.5,68.4,29.97,South,190,11.0,13.0,90,0.00,,---,0.00,VWS V14.01,2013-05-23 09:29:00,
2013-05-23 05:30:00,71.4,68.3,29.97,South,177,11.0,11.0,90,0.00,,---,0.00,VWS V14.01,2013-05-23 09:30:00,
2013-05-23 05:31:00,73.0,69.9,29.96,SSE,162,17.0,18.0,90,0.00,,---,0.00,VWS V14.01,2013-05-23 09:31:00,
2013-05-23 05:32:00,71.8,68.7,29.97,SSE,167,20.0,23.0,90,0.00,,---,0.00,VWS V14.01,2013-05-23 09:32:00,
2013-05-23 05:33:00,72.0,68.9,29.97,South,177,19.0,25.0,90,0.00,,---,0.00,VWS V14.01,2013-05-23 09:33:00,
2013-05-23 05:34:00,72.1,69.0,29.97,SSW,193,20.0,25.0,90,0.00,,---,0.00,VWS V14.01,2013-05-23 09:34:00,
2013-05-23 05:35:00,72.2,69.1,29.97,South,190,17.0,25.0,90,0.00,,---,0.00,VWS V14.01,2013-05-23 09:35:00,
2013-05-23 05:36:00,71.4,68.6,29.96,SSE,163,8.0,11.0,91,0.00,,---,0.00,VWS V14.01,2013-05-23 09:36:00,
2013-05-23 05:37:00,72.0,68.9,29.97,South,176,15.0,25.0,90,0.00,,---,0.00,VWS V14.01,2013-05-23 09:37:00,
2013-05-23 05:38:00,71.9,68.5,29.97,SSW,192,16.0,27.0,89,0.00,,---,0.00,VWS V14.01,2013-05-23 09:38:00,
2013-05-23 05:39:00,71.9,68.8,29.97,South,175,14.0,27.0,90,0.00,,---,0.00,VWS V14.01,2013-05-23 09:39:00,
2013-05-23 05:40:00,71.8,68.4,29.97,South,174,17.0,19.0,89,0.00,,---,0.00,VWS V14.01,2013-05-23 09:40:00,
2013-05-23 05:41:00,71.7,68.6,29.97,South,177,15.0,23.0,90,0.00,,---,0.00,VWS V14.01,2013-05-23 09:41:00,
2013-05-23 05:42:00,71.6,68.5,29.97,South,175,18.0,21.0,90,0.00,,---,0.00,VWS V14.01,2013-05-23 09:42:00,
2013-05-23 05:43:00,71.5,68.4,29.97,South,178,17.0,21.0,90,0.00,,---,0.00,VWS V14.01,2013-05-23 09:43:00,
2013-05-23 05:44:00,71.5,68.4,29.97,South,170,15.0,21.0,90,0.00,,---,0.00,VWS V14.01,2013-05-23 09:44:00,
2013-05-23 05:45:00,71.3,68.2,29.97,South,170,15.0,16.0,90,0.00,,---,0.00,VWS V14.01,2013-05-23 09:45:00,
2013-05-23 05:46:00,71.9,68.5,29.97,South,180,17.0,25.0,89,0.00,,---,0.00,VWS V14.01,2013-05-23 09:46:00,
2013-05-23 05:47:00,71.4,68.3,29.97,South,177,12.0,16.0,90,0.00,,---,0.00,VWS V14.01,2013-05-23 09:47:00,
2013-05-23 05:48:00,71.5,68.4,29.97,South,177,15.0,20.0,90,0.00,,---,0.00,VWS V14.01,2013-05-23 09:48:00,
2013-05-23 05:49:00,71.4,68.3,29.97,South,181,16.0,20.0,90,0.00,,---,0.00,VWS V14.01,2013-05-23 09:49:00,
2013-05-23 05:50:00,71.4,68.3,29.97,South,171,12.0,15.0,90,0.00,,---,0.00,VWS V14.01,2013-05-23 09:50:00,
2013-05-23 05:51:00,71.7,68.6,29.97,South,173,16.0,21.0,90,0.00,,---,0.00,VWS V14.01,2013-05-23 09:51:00,
2013-05-23 05:52:00,71.5,68.4,29.97,SSE,166,14.0,16.0,90,0.01,,---,0.01,VWS V14.01,2013-05-23 09:52:00,
2013-05-23 05:53:00,71.4,68.6,29.97,SSE,166,12.0,16.0,91,0.01,,---,0.01,VWS V14.01,2013-05-23 09:53:00,
2013-05-23 05:54:00,71.4,68.3,29.97,SSE,167,16.0,16.0,90,0.01,,---,0.01,VWS V14.01,2013-05-23 09:54:00,
2013-05-23 05:55:00,71.3,68.5,29.97,South,174,13.0,14.0,91,0.02,,---,0.02,VWS V14.01,2013-05-23 09:55:00,
2013-05-23 05:56:00,71.4,68.3,29.97,South,184,11.0,16.0,90,0.00,,---,0.00,VWS V14.01,2013-05-23 09:56:00,
2013-05-23 05:57:00,71.3,68.5,29.97,South,190,14.0,17.0,91,0.02,,---,0.02,VWS V14.01,2013-05-23 09:57:00,
2013-05-23 05:58:00,71.3,68.5,29.97,South,184,5.0,17.0,91,0.02,,---,0.02,VWS V14.01,2013-05-23 09:58:00,
2013-05-23 05:59:00,71.3,68.5,29.96,South,180,10.0,17.0,91,0.02,,---,0.02,VWS V14.01,2013-05-23 09:59:00,
2013-05-23 06:00:00,71.2,68.4,29.96,South,189,11.0,11.0,91,0.02,,---,0.02,VWS V14.01,2013-05-23 10:00:00,
2013-05-23 06:01:00,71.5,68.4,29.97,South,173,12.0,16.0,90,0.01,,---,0.01,VWS V14.01,2013-05-23 10:01:00,
2013-05-23 06:02:00,71.3,68.5,29.96,South,185,6.0,14.0,91,0.02,,---,0.02,VWS V14.01,2013-05-23 10:02:00,
2013-05-23 06:03:00,71.3,68.5,29.96,South,183,9.0,14.0,91,0.02,,---,0.02,VWS V14.01,2013-05-23 10:03:00,
2013-05-23 06:04:00,71.4,68.6,29.96,South,183,11.0,14.0,91,0.02,,---,0.02,VWS V14.01,2013-05-23 10:04:00,
2013-05-23 06:05:00,71.5,68.7,29.96,South,186,12.0,13.0,91,0.02,,---,0.02,VWS V14.01,2013-05-23 10:05:00,
2013-05-23 06:06:00,71.3,68.5,29.97,South,190,11.0,17.0,91,0.02,,---,0.02,VWS V14.01,2013-05-23 10:06:00,
2013-05-23 06:07:00,71.6,68.8,29.96,SSW,196,11.0,14.0,91,0.02,,---,0.02,VWS V14.01,2013-05-23 10:07:00,
2013-05-23 06:08:00,71.7,68.9,29.96,South,190,12.0,14.0,91,0.02,,---,0.02,VWS V14.01,2013-05-23 10:08:00,
2013-05-23 06:09:00,71.7,68.9,29.96,South,185,9.0,14.0,91,0.02,,---,0.02,VWS V14.01,2013-05-23 10:09:00,
2013-05-23 06:10:00,71.7,68.9,29.96,South,188,7.0,10.0,91,0.02,,---,0.02,VWS V14.01,2013-05-23 10:10:00,
2013-05-23 06:11:00,71.3,68.5,29.96,South,186,9.0,14.0,91,0.02,,---,0.02,VWS V14.01,2013-05-23 10:11:00,
2013-05-23 06:12:00,71.8,69.3,29.96,South,190,9.0,12.0,92,0.02,,---,0.02,VWS V14.01,2013-05-23 10:12:00,
2013-05-23 06:13:00,71.9,69.4,29.96,South,189,10.0,12.0,92,0.02,,---,0.02,VWS V14.01,2013-05-23 10:13:00,
2013-05-23 06:14:00,71.9,69.4,29.97,South,188,8.0,12.0,92,0.02,,---,0.02,VWS V14.01,2013-05-23 10:14:00,
2013-05-23 06:15:00,71.9,69.4,29.97,South,184,7.0,12.0,92,0.02,,---,0.02,VWS V14.01,2013-05-23 10:15:00,
2013-05-23 06:16:00,71.6,68.8,29.96,South,190,13.0,14.0,91,0.02,,---,0.02,VWS V14.01,2013-05-23 10:16:00,
2013-05-23 06:17:00,71.7,68.9,29.97,South,184,7.0,13.0,91,0.02,,---,0.02,VWS V14.01,2013-05-23 10:17:00,
2013-05-23 06:18:00,71.8,69.3,29.97,South,186,10.0,13.0,92,0.02,,---,0.02,VWS V14.01,2013-05-23 10:18:00,
2013-05-23 06:19:00,71.8,69.3,29.97,South,182,11.0,13.0,92,0.02,,---,0.02,VWS V14.01,2013-05-23 10:19:00,
2013-05-23 06:20:00,71.8,69.3,29.97,South,182,11.0,11.0,92,0.02,,---,0.02,VWS V14.01,2013-05-23 10:20:00,
2013-05-23 06:21:00,71.8,69.0,29.96,South,182,9.0,12.0,91,0.02,,---,0.02,VWS V14.01,2013-05-23 10:21:00,
2013-05-23 06:22:00,71.9,69.4,29.97,South,182,11.0,12.0,92,0.02,,---,0.02,VWS V14.01,2013-05-23 10:22:00,
2013-05-23 06:23:00,71.9,69.4,29.97,South,189,13.0,13.0,92,0.02,,---,0.02,VWS V14.01,2013-05-23 10:23:00,
2013-05-23 06:24:00,71.9,69.1,29.97,South,184,10.0,14.0,91,0.02,,---,0.02,VWS V14.01,2013-05-23 10:24:00,
2013-05-23 06:25:00,71.9,69.1,29.97,South,172,14.0,14.0,91,0.02,,---,0.02,VWS V14.01,2013-05-23 10:25:00,
2013-05-23 06:26:00,71.8,69.0,29.97,South,181,12.0,13.0,91,0.02,,---,0.02,VWS V14.01,2013-05-23 10:26:00,
2013-05-23 06:27:00,71.7,68.9,29.97,South,171,9.0,14.0,91,0.02,,---,0.02,VWS V14.01,2013-05-23 10:27:00,
2013-05-23 06:28:00,71.7,68.9,29.97,South,175,12.0,14.0,91,0.02,,---,0.02,VWS V14.01,2013-05-23 10:28:00,
2013-05-23 06:29:00,71.7,68.9,29.97,South,170,11.0,15.0,91,0.02,,---,0.02,VWS V14.01,2013-05-23 10:29:00,
2013-05-23 06:30:00,71.7,68.9,29.97,SSE,166,14.0,14.0,91,0.02,,---,0.02,VWS V14.01,2013-05-23 10:30:00,
2013-05-23 06:31:00,71.9,69.4,29.97,South,182,11.0,12.0,92,0.02,,---,0.02,VWS V14.01,2013-05-23 10:31:00,
2013-05-23 06:32:00,71.8,69.0,29.97,SSE,163,14.0,15.0,91,0.02,,---,0.02,VWS V14.01,2013-05-23 10:32:00,
2013-05-23 06:33:00,71.8,69.0,29.97,South,170,11.0,15.0,91,0.02,,---,0.02,VWS V14.01,2013-05-23 10:33:00,
2013-05-23 06:34:00,71.8,69.0,29.97,South,170,13.0,15.0,91,0.02,,---,0.02,VWS V14.01,2013-05-23 10:34:00,
2013-05-23 06:35:00,71.8,69.0,29.97,SSE,164,13.0,14.0,91,0.02,,---,0.02,VWS V14.01,2013-05-23 10:35:00,
2013-05-23 06:36:00,71.8,69.0,29.97,SSE,168,12.0,14.0,91,0.02,,---,0.02,VWS V14.01,2013-05-23 10:36:00,
2013-05-23 06:37:00,71.8,69.0,29.97,SSE,167,12.0,14.0,91,0.02,,---,0.02,VWS V14.01,2013-05-23 10:37:00,
2013-05-23 06:38:00,71.9,69.1,29.97,SSE,166,10.0,14.0,91,0.02,,---,0.02,VWS V14.01,2013-05-23 10:38:00,
2013-05-23 06:39:00,72.0,69.2,29.97,South,171,13.0,14.0,91,0.02,,---,0.02,VWS V14.01,2013-05-23 10:39:00,
2013-05-23 06:40:00,71.9,69.1,29.97,South,176,12.0,12.0,91,0.02,,---,0.02,VWS V14.01,2013-05-23 10:40:00,
2013-05-23 06:41:00,71.8,69.0,29.97,SSE,167,11.0,14.0,91,0.02,,---,0.02,VWS V14.01,2013-05-23 10:41:00,
2013-05-23 06:42:00,72.0,69.2,29.97,SSE,167,11.0,14.0,91,0.02,,---,0.02,VWS V14.01,2013-05-23 10:42:00,
2013-05-23 06:43:00,72.0,69.2,29.97,South,169,12.0,14.0,91,0.02,,---,0.02,VWS V14.01,2013-05-23 10:43:00,
2013-05-23 06:44:00,72.0,69.6,29.98,SSE,168,14.0,14.0,92,0.02,,---,0.02,VWS V14.01,2013-05-23 10:44:00,
2013-05-23 06:45:00,72.1,69.3,29.98,South,175,10.0,11.0,91,0.02,,---,0.02,VWS V14.01,2013-05-23 10:45:00,
2013-05-23 06:46:00,71.8,69.0,29.97,SSE,167,12.0,14.0,91,0.02,,---,0.02,VWS V14.01,2013-05-23 10:46:00,
2013-05-23 06:47:00,72.1,69.3,29.98,South,184,7.0,14.0,91,0.02,,---,0.02,VWS V14.01,2013-05-23 10:47:00,
2013-05-23 06:48:00,72.2,69.8,29.98,South,178,10.0,14.0,92,0.02,,---,0.02,VWS V14.01,2013-05-23 10:48:00,
2013-05-23 06:49:00,72.2,69.8,29.98,South,187,11.0,16.0,92,0.02,,---,0.02,VWS V14.01,2013-05-23 10:49:00,
2013-05-23 06:50:00,72.2,69.8,29.98,South,190,14.0,16.0,92,0.02,,---,0.02,VWS V14.01,2013-05-23 10:50:00,
2013-05-23 06:51:00,71.9,69.1,29.97,South,173,10.0,14.0,91,0.02,,---,0.02,VWS V14.01,2013-05-23 10:51:00,
2013-05-23 06:52:00,72.2,69.4,29.98,SSW,213,25.0,30.0,91,0.02,,---,0.02,VWS V14.01,2013-05-23 10:52:00,
2013-05-23 06:53:00,72.2,69.8,29.98,SW,220,20.0,30.0,92,0.02,,---,0.02,VWS V14.01,2013-05-23 10:53:00,
2013-05-23 06:54:00,72.0,69.2,29.98,SW,229,23.0,30.0,91,0.03,,---,0.03,VWS V14.01,2013-05-23 10:54:00,
2013-05-23 06:55:00,71.6,68.8,29.98,SW,231,20.0,24.0,91,0.04,,---,0.05,VWS V14.01,2013-05-23 10:55:00,
2013-05-23 06:56:00,72.1,69.3,29.98,South,179,10.0,14.0,91,0.02,,---,0.02,VWS V14.01,2013-05-23 10:56:00,
2013-05-23 06:57:00,71.1,68.3,29.98,SW,227,14.0,24.0,91,0.07,,---,0.08,VWS V14.01,2013-05-23 10:57:00,
2013-05-23 06:58:00,71.1,68.7,29.98,SW,225,14.0,24.0,92,0.07,,---,0.08,VWS V14.01,2013-05-23 10:58:00,
2013-05-23 06:59:00,71.0,68.6,29.98,SW,223,13.0,24.0,92,0.07,,---,0.08,VWS V14.01,2013-05-23 10:59:00,
2013-05-23 07:00:00,71.1,68.7,29.98,SW,225,13.0,15.0,92,0.07,,---,0.09,VWS V14.01,2013-05-23 11:00:00,
2013-05-23 07:01:00,72.2,69.4,29.98,SSW,208,26.0,30.0,91,0.02,,---,0.02,VWS V14.01,2013-05-23 11:01:00,
2013-05-23 07:02:00,71.1,68.7,29.98,SW,233,12.0,15.0,92,0.08,,---,0.10,VWS V14.01,2013-05-23 11:02:00,
2013-05-23 07:03:00,71.1,68.7,29.98,WSW,246,8.0,15.0,92,0.08,,---,0.10,VWS V14.01,2013-05-23 11:03:00,
2013-05-23 07:04:00,71.3,68.9,29.98,WSW,249,6.0,15.0,92,0.08,,---,0.10,VWS V14.01,2013-05-23 11:04:00,
2013-05-23 07:05:00,71.1,68.3,29.98,WSW,248,9.0,10.0,91,0.08,,---,0.10,VWS V14.01,2013-05-23 11:05:00,
2013-05-23 07:06:00,71.1,68.3,29.98,SW,227,15.0,24.0,91,0.06,,---,0.07,VWS V14.01,2013-05-23 11:06:00,
2013-05-23 07:07:00,70.7,67.9,29.98,WSW,240,9.0,10.0,91,0.08,,---,0.10,VWS V14.01,2013-05-23 11:07:00,
2013-05-23 07:08:00,70.8,68.4,29.98,WSW,240,9.0,10.0,92,0.08,,---,0.10,VWS V14.01,2013-05-23 11:08:00,
2013-05-23 07:09:00,70.8,68.4,29.98,WSW,238,9.0,14.0,92,0.08,,---,0.10,VWS V14.01,2013-05-23 11:09:00,
2013-05-23 07:10:00,70.8,68.4,29.98,WSW,237,13.0,13.0,92,0.08,,---,0.10,VWS V14.01,2013-05-23 11:10:00,
2013-05-23 07:11:00,71.1,68.7,29.98,SW,233,12.0,15.0,92,0.08,,---,0.10,VWS V14.01,2013-05-23 11:11:00,
2013-05-23 07:12:00,70.9,68.5,29.98,SW,226,14.0,15.0,92,0.08,,---,0.10,VWS V14.01,2013-05-23 11:12:00,
2013-05-23 07:13:00,70.9,68.5,29.98,SW,231,12.0,15.0,92,0.08,,---,0.10,VWS V14.01,2013-05-23 11:13:00,
2013-05-23 07:14:00,70.8,68.4,29.98,SW,229,13.0,15.0,92,0.08,,---,0.10,VWS V14.01,2013-05-23 11:14:00,
2013-05-23 07:15:00,70.8,68.1,29.98,SW,229,12.0,13.0,91,0.08,,---,0.10,VWS V14.01,2013-05-23 11:15:00,
2013-05-23 07:16:00,70.9,68.2,29.98,WSW,248,7.0,10.0,91,0.08,,---,0.10,VWS V14.01,2013-05-23 11:16:00,
2013-05-23 07:17:00,71.0,68.6,29.98,SW,226,11.0,13.0,92,0.08,,---,0.10,VWS V14.01,2013-05-23 11:17:00,
2013-05-23 07:18:00,71.0,68.2,29.98,SW,224,13.0,13.0,91,0.08,,---,0.10,VWS V14.01,2013-05-23 11:18:00,
2013-05-23 07:19:00,70.8,68.1,29.98,SW,225,12.0,14.0,91,0.08,,---,0.10,VWS V14.01,2013-05-23 11:19:00,
2013-05-23 07:20:00,70.9,68.2,29.98,SW,227,12.0,12.0,91,0.08,,---,0.10,VWS V14.01,2013-05-23 11:20:00,
2013-05-23 07:21:00,70.8,68.4,29.98,SW,229,11.0,15.0,92,0.08,,---,0.10,VWS V14.01,2013-05-23 11:21:00,
2013-05-23 07:22:00,70.8,68.1,29.98,SW,225,10.0,12.0,91,0.08,,---,0.10,VWS V14.01,2013-05-23 11:22:00,
2013-05-23 07:23:00,70.8,68.4,29.98,SW,223,8.0,12.0,92,0.08,,---,0.10,VWS V14.01,2013-05-23 11:23:00,
2013-05-23 07:24:00,71.0,68.6,29.98,SW,222,10.0,12.0,92,0.08,,---,0.10,VWS V14.01,2013-05-23 11:24:00,
2013-05-23 07:25:00,70.9,68.2,29.98,SW,223,9.0,9.0,91,0.08,,---,0.10,VWS V14.01,2013-05-23 11:25:00,
2013-05-23 07:26:00,71.0,68.6,29.98,SW,227,11.0,13.0,92,0.08,,---,0.10,VWS V14.01,2013-05-23 11:26:00,
2013-05-23 07:27:00,70.9,68.5,29.98,SW,225,8.0,9.0,92,0.08,,---,0.10,VWS V14.01,2013-05-23 11:27:00,
2013-05-23 07:28:00,71.0,68.6,29.98,SW,228,7.0,9.0,92,0.08,,---,0.10,VWS V14.01,2013-05-23 11:28:00,
2013-05-23 07:29:00,71.0,68.6,29.98,SW,229,7.0,9.0,92,0.08,,---,0.10,VWS V14.01,2013-05-23 11:29:00,
2013-05-23 07:30:00,71.0,68.6,29.98,SW,233,9.0,10.0,92,0.08,,---,0.10,VWS V14.01,2013-05-23 11:30:00,
2013-05-23 07:31:00,70.9,68.2,29.98,SW,225,10.0,12.0,91,0.08,,---,0.10,VWS V14.01,2013-05-23 11:31:00,
2013-05-23 07:32:00,71.1,68.7,29.98,SW,233,7.0,10.0,92,0.08,,---,0.10,VWS V14.01,2013-05-23 11:32:00,
2013-05-23 07:33:00,71.1,68.7,29.98,SW,234,8.0,10.0,92,0.08,,---,0.10,VWS V14.01,2013-05-23 11:33:00,
2013-05-23 07:34:00,71.1,68.7,29.98,SW,233,7.0,10.0,92,0.08,,---,0.10,VWS V14.01,2013-05-23 11:34:00,
2013-05-23 07:35:00,71.1,68.7,29.98,SW,232,7.0,8.0,92,0.08,,---,0.10,VWS V14.01,2013-05-23 11:35:00,
2013-05-23 07:36:00,70.9,68.5,29.98,SW,225,8.0,9.0,92,0.08,,---,0.10,VWS V14.01,2013-05-23 11:36:00,
2013-05-23 07:37:00,71.2,68.8,29.98,SW,229,8.0,9.0,92,0.08,,---,0.10,VWS V14.01,2013-05-23 11:37:00,
2013-05-23 07:38:00,71.3,68.9,29.98,SW,229,7.0,9.0,92,0.08,,---,0.10,VWS V14.01,2013-05-23 11:38:00,
2013-05-23 07:39:00,71.3,68.9,29.98,SW,229,8.0,9.0,92,0.08,,---,0.10,VWS V14.01,2013-05-23 11:39:00,
2013-05-23 07:40:00,71.2,68.8,29.98,SW,229,9.0,9.0,92,0.08,,---,0.10,VWS V14.01,2013-05-23 11:40:00,
2013-05-23 07:41:00,71.1,68.7,29.98,SW,233,6.0,10.0,92,0.08,,---,0.10,VWS V14.01,2013-05-23 11:41:00,
2013-05-23 07:42:00,71.2,68.8,29.98,SW,230,8.0,10.0,92,0.08,,---,0.10,VWS V14.01,2013-05-23 11:42:00,
2013-05-23 07:43:00,71.2,68.8,29.98,SW,229,6.0,10.0,92,0.08,,---,0.10,VWS V14.01,2013-05-23 11:43:00,
2013-05-23 07:44:00,71.3,68.9,29.98,SW,230,7.0,10.0,92,0.08,,---,0.10,VWS V14.01,2013-05-23 11:44:00,
2013-05-23 07:45:00,71.3,68.9,29.98,SW,230,7.0,7.0,92,0.08,,---,0.10,VWS V14.01,2013-05-23 11:45:00,
2013-05-23 07:46:00,71.2,68.8,29.98,SW,232,7.0,8.0,92,0.08,,---,0.10,VWS V14.01,2013-05-23 11:46:00,
2013-05-23 07:47:00,71.3,68.9,29.98,SW,230,6.0,9.0,92,0.08,,---,0.10,VWS V14.01,2013-05-23 11:47:00,
2013-05-23 07:48:00,71.3,68.9,29.98,SW,230,5.0,9.0,92,0.08,,---,0.10,VWS V14.01,2013-05-23 11:48:00,
2013-05-23 07:49:00,71.3,68.9,29.98,SW,231,5.0,9.0,92,0.08,,---,0.10,VWS V14.01,2013-05-23 11:49:00,
2013-05-23 07:50:00,71.4,69.0,29.98,SW,231,6.0,6.0,92,0.08,,---,0.10,VWS V14.01,2013-05-23 11:50:00,
2013-05-23 07:51:00,71.2,68.8,29.98,SW,230,9.0,10.0,92,0.08,,---,0.10,VWS V14.01,2013-05-23 11:51:00,
2013-05-23 07:52:00,71.3,68.9,29.98,SW,231,6.0,7.0,92,0.08,,---,0.10,VWS V14.01,2013-05-23 11:52:00,
2013-05-23 07:53:00,71.3,68.9,29.98,SW,231,4.0,7.0,92,0.08,,---,0.10,VWS V14.01,2013-05-23 11:53:00,
2013-05-23 07:54:00,71.3,68.9,29.98,SW,230,5.0,7.0,92,0.08,,---,0.10,VWS V14.01,2013-05-23 11:54:00,
2013-05-23 07:55:00,71.3,68.9,29.98,SW,230,5.0,6.0,92,0.06,,---,0.10,VWS V14.01,2013-05-23 11:55:00,
2013-05-23 07:56:00,71.3,68.9,29.98,SW,230,5.0,9.0,92,0.08,,---,0.10,VWS V14.01,2013-05-23 11:56:00,
2013-05-23 07:57:00,71.3,68.9,29.98,SW,229,6.0,6.0,92,0.06,,---,0.10,VWS V14.01,2013-05-23 11:57:00,
2013-05-23 07:58:00,71.2,68.8,29.98,SW,228,7.0,7.0,92,0.06,,---,0.10,VWS V14.01,2013-05-23 11:58:00,
2013-05-23 07:59:00,71.2,68.8,29.99,SW,227,5.0,7.0,92,0.06,,---,0.10,VWS V14.01,2013-05-23 11:59:00,
2013-05-23 08:00:00,71.3,68.9,29.99,SW,227,5.0,5.0,92,0.01,,---,0.10,VWS V14.01,2013-05-23 12:00:00,
2013-05-23 08:01:00,71.3,68.9,29.98,SW,231,6.0,7.0,92,0.08,,---,0.10,VWS V14.01,2013-05-23 12:01:00,
2013-05-23 08:02:00,71.3,68.9,29.99,SW,227,5.0,6.0,92,0.01,,---,0.10,VWS V14.01,2013-05-23 12:02:00,
2013-05-23 08:03:00,71.4,69.0,29.99,SW,227,5.0,6.0,92,0.01,,---,0.10,VWS V14.01,2013-05-23 12:03:00,
2013-05-23 08:04:00,71.4,69.0,29.99,SW,227,5.0,7.0,92,0.01,,---,0.10,VWS V14.01,2013-05-23 12:04:00,
2013-05-23 08:05:00,71.4,69.0,29.99,SW,227,5.0,5.0,92,0.00,,---,0.10,VWS V14.01,2013-05-23 12:05:00,
2013-05-23 08:06:00,71.3,68.9,29.98,SW,229,5.0,6.0,92,0.06,,---,0.10,VWS V14.01,2013-05-23 12:06:00,
2013-05-23 08:07:00,71.5,69.1,29.99,SW,227,6.0,6.0,92,0.00,,---,0.10,VWS V14.01,2013-05-23 12:07:00,
2013-05-23 08:08:00,71.5,69.1,29.99,SW,227,4.0,6.0,92,0.00,,---,0.10,VWS V14.01,2013-05-23 12:08:00,
2013-05-23 08:09:00,71.6,69.2,29.99,SW,227,5.0,6.0,92,0.00,,---,0.10,VWS V14.01,2013-05-23 12:09:00,
2013-05-23 08:10:00,71.6,69.2,29.99,SW,227,5.0,7.0,92,0.00,,---,0.10,VWS V14.01,2013-05-23 12:10:00,
2013-05-23 08:11:00,71.3,68.9,29.99,SW,227,5.0,6.0,92,0.01,,---,0.10,VWS V14.01,2013-05-23 12:11:00,
2013-05-23 08:12:00,71.6,69.2,29.99,SW,224,6.0,9.0,92,0.00,,---,0.10,VWS V14.01,2013-05-23 12:12:00,
2013-05-23 08:13:00,71.6,69.2,29.99,SW,223,7.0,9.0,92,0.00,,---,0.10,VWS V14.01,2013-05-23 12:13:00,
2013-05-23 08:14:00,71.7,69.3,29.99,SW,223,6.0,9.0,92,0.00,,---,0.10,VWS V14.01,2013-05-23 12:14:00,
2013-05-23 08:15:00,71.7,69.3,29.99,SW,223,6.0,6.0,92,0.00,,---,0.10,VWS V14.01,2013-05-23 12:15:00,
2013-05-23 08:16:00,71.5,69.1,29.99,SW,227,6.0,6.0,92,0.00,,---,0.10,VWS V14.01,2013-05-23 12:16:00,
2013-05-23 08:17:00,71.8,69.3,29.99,SW,223,6.0,7.0,92,0.00,,---,0.10,VWS V14.01,2013-05-23 12:17:00,
2013-05-23 08:18:00,71.8,69.3,29.99,SW,223,6.0,7.0,92,0.00,,---,0.10,VWS V14.01,2013-05-23 12:18:00,
2013-05-23 08:19:00,71.8,69.3,29.99,SW,223,7.0,7.0,92,0.00,,---,0.10,VWS V14.01,2013-05-23 12:19:00,
2013-05-23 08:20:00,71.9,69.4,29.99,SW,223,6.0,6.0,92,0.00,,---,0.10,VWS V14.01,2013-05-23 12:20:00,
2013-05-23 08:21:00,71.6,69.2,29.99,SW,224,9.0,9.0,92,0.00,,---,0.10,VWS V14.01,2013-05-23 12:21:00,
2013-05-23 08:22:00,71.9,69.4,29.99,SW,223,6.0,7.0,92,0.00,,---,0.10,VWS V14.01,2013-05-23 12:22:00,
2013-05-23 08:23:00,71.9,69.4,29.99,SW,223,6.0,7.0,92,0.00,,---,0.10,VWS V14.01,2013-05-23 12:23:00,
2013-05-23 08:24:00,71.9,69.4,29.99,SW,223,6.0,7.0,92,0.00,,---,0.10,VWS V14.01,2013-05-23 12:24:00,
2013-05-23 08:25:00,71.9,69.4,29.99,SW,223,7.0,7.0,92,0.00,,---,0.10,VWS V14.01,2013-05-23 12:25:00,
2013-05-23 08:26:00,71.8,69.3,29.99,SW,223,6.0,7.0,92,0.00,,---,0.10,VWS V14.01,2013-05-23 12:26:00,
2013-05-23 08:27:00,71.9,69.4,29.99,SW,223,6.0,7.0,92,0.00,,---,0.10,VWS V14.01,2013-05-23 12:27:00,
2013-05-23 08:28:00,71.9,69.4,29.99,SW,223,4.0,7.0,92,0.00,,---,0.10,VWS V14.01,2013-05-23 12:28:00,
2013-05-23 08:29:00,72.0,69.6,29.98,SW,223,5.0,7.0,92,0.00,,---,0.10,VWS V14.01,2013-05-23 12:29:00,
2013-05-23 08:30:00,72.0,69.6,29.98,SW,223,7.0,7.0,92,0.00,,---,0.10,VWS V14.01,2013-05-23 12:30:00,
2013-05-23 08:31:00,71.9,69.4,29.99,SW,223,5.0,7.0,92,0.00,,---,0.10,VWS V14.01,2013-05-23 12:31:00,
2013-05-23 08:32:00,71.9,69.4,29.98,SW,223,6.0,9.0,92,0.00,,---,0.10,VWS V14.01,2013-05-23 12:32:00,
2013-05-23 08:33:00,71.9,69.4,29.98,SW,223,5.0,9.0,92,0.00,,---,0.10,VWS V14.01,2013-05-23 12:33:00,
2013-05-23 08:34:00,72.0,69.6,29.98,SW,223,6.0,9.0,92,0.00,,---,0.10,VWS V14.01,2013-05-23 12:34:00,
2013-05-23 08:35:00,72.0,69.6,29.98,SW,223,6.0,6.0,92,0.00,,---,0.10,VWS V14.01,2013-05-23 12:35:00,
2013-05-23 08:36:00,71.9,69.4,29.99,SW,223,6.0,7.0,92,0.00,,---,0.10,VWS V14.01,2013-05-23 12:36:00,
2013-05-23 08:37:00,72.1,69.7,29.98,SW,223,5.0,6.0,92,0.00,,---,0.10,VWS V14.01,2013-05-23 12:37:00,
2013-05-23 08:38:00,72.1,69.7,29.98,SW,223,5.0,6.0,92,0.00,,---,0.10,VWS V14.01,2013-05-23 12:38:00,
2013-05-23 08:39:00,72.1,69.7,29.98,SW,223,6.0,6.0,92,0.00,,---,0.10,VWS V14.01,2013-05-23 12:39:00,
2013-05-23 08:40:00,72.1,69.7,29.98,SW,223,6.0,7.0,92,0.00,,---,0.10,VWS V14.01,2013-05-23 12:40:00,
2013-05-23 08:41:00,72.0,69.6,29.98,SW,223,5.0,9.0,92,0.00,,---,0.10,VWS V14.01,2013-05-23 12:41:00,
2013-05-23 08:42:00,72.1,69.7,29.98,SW,223,7.0,7.0,92,0.00,,---,0.10,VWS V14.01,2013-05-23 12:42:00,
2013-05-23 08:43:00,72.1,69.7,29.98,SW,223,5.0,7.0,92,0.00,,---,0.10,VWS V14.01,2013-05-23 12:43:00,
2013-05-23 08:44:00,72.0,69.6,29.99,SW,223,5.0,7.0,92,0.00,,---,0.10,VWS V14.01,2013-05-23 12:44:00,
2013-05-23 08:45:00,72.0,69.6,29.99,SW,223,4.0,6.0,92,0.00,,---,0.10,VWS V14.01,2013-05-23 12:45:00,
2013-05-23 08:46:00,72.1,69.7,29.98,SW,223,5.0,6.0,92,0.00,,---,0.10,VWS V14.01,2013-05-23 12:46:00,
2013-05-23 08:47:00,72.0,69.6,29.99,SW,223,4.0,6.0,92,0.00,,---,0.10,VWS V14.01,2013-05-23 12:47:00,
2013-05-23 08:48:00,72.1,70.0,29.99,SW,223,6.0,6.0,93,0.00,,---,0.10,VWS V14.01,2013-05-23 12:48:00,
2013-05-23 08:49:00,72.1,69.7,29.99,SW,223,7.0,7.0,92,0.00,,---,0.10,VWS V14.01,2013-05-23 12:49:00,
2013-05-23 08:50:00,72.1,69.7,29.99,SW,223,6.0,6.0,92,0.00,,---,0.10,VWS V14.01,2013-05-23 12:50:00,
2013-05-23 08:51:00,72.1,69.7,29.98,SW,223,6.0,7.0,92,0.00,,---,0.10,VWS V14.01,2013-05-23 12:51:00,
2013-05-23 08:52:00,72.0,69.6,29.99,SW,223,5.0,6.0,92,0.00,,---,0.10,VWS V14.01,2013-05-23 12:52:00,
2013-05-23 08:53:00,72.0,69.6,29.99,SW,223,4.0,6.0,92,0.00,,---,0.10,VWS V14.01,2013-05-23 12:53:00,
2013-05-23 08:54:00,72.1,70.0,29.99,SW,223,4.0,6.0,93,0.00,,---,0.10,VWS V14.01,2013-05-23 12:54:00,
2013-05-23 08:55:00,72.1,70.0,29.99,SW,223,4.0,4.0,93,0.00,,---,0.10,VWS V14.01,2013-05-23 12:55:00,
2013-05-23 08:56:00,72.0,69.6,29.99,SW,223,5.0,6.0,92,0.00,,---,0.10,VWS V14.01,2013-05-23 12:56:00,
2013-05-23 08:57:00,72.2,69.8,29.99,SW,223,4.0,5.0,92,0.00,,---,0.10,VWS V14.01,2013-05-23 12:57:00,
2013-05-23 08:58:00,72.2,69.8,29.99,SW,223,5.0,5.0,92,0.00,,---,0.10,VWS V14.01,2013-05-23 12:58:00,
2013-05-23 08:59:00,72.2,70.1,29.99,SW,223,5.0,6.0,93,0.00,,---,0.10,VWS V14.01,2013-05-23 12:59:00,
2013-05-23 09:00:00,72.2,70.1,29.99,SW,223,5.0,6.0,93,0.00,,---,0.10,VWS V14.01,2013-05-23 13:00:00,
2013-05-23 09:01:00,72.1,69.7,29.99,SW,223,5.0,6.0,92,0.00,,---,0.10,VWS V14.01,2013-05-23 13:01:00,
2013-05-23 09:02:00,72.2,69.8,29.99,SW,223,5.0,7.0,92,0.00,,---,0.10,VWS V14.01,2013-05-23 13:02:00,
2013-05-23 09:03:00,72.2,69.8,29.99,SW,223,5.0,7.0,92,0.00,,---,0.10,VWS V14.01,2013-05-23 13:03:00,
2013-05-23 09:04:00,72.1,69.7,29.99,SW,223,5.0,7.0,92,0.00,,---,0.10,VWS V14.01,2013-05-23 13:04:00,
2013-05-23 09:05:00,72.1,70.0,29.99,SW,223,4.0,6.0,93,0.00,,---,0.10,VWS V14.01,2013-05-23 13:05:00,
2013-05-23 09:06:00,72.2,70.1,29.99,SW,223,3.0,5.0,93,0.00,,---,0.10,VWS V14.01,2013-05-23 13:06:00,
2013-05-23 09:07:00,72.2,70.1,29.99,SW,223,6.0,6.0,93,0.00,,---,0.10,VWS V14.01,2013-05-23 13:07:00,
2013-05-23 09:08:00,72.2,69.8,29.99,SW,223,5.0,6.0,92,0.00,,---,0.10,VWS V14.01,2013-05-23 13:08:00,
2013-05-23 09:09:00,72.2,70.1,29.99,SW,223,4.0,6.0,93,0.00,,---,0.10,VWS V14.01,2013-05-23 13:09:00,
2013-05-23 09:10:00,72.2,70.1,29.99,SW,223,4.0,4.0,93,0.00,,---,0.10,VWS V14.01,2013-05-23 13:10:00,
2013-05-23 09:11:00,72.2,69.8,29.99,SW,223,5.0,7.0,92,0.00,,---,0.10,VWS V14.01,2013-05-23 13:11:00,
2013-05-23 09:12:00,72.2,70.1,29.99,SW,223,4.0,6.0,93,0.00,,---,0.10,VWS V14.01,2013-05-23 13:12:00,
2013-05-23 09:13:00,72.2,70.1,29.99,SW,223,4.0,6.0,93,0.00,,---,0.10,VWS V14.01,2013-05-23 13:13:00,
2013-05-23 09:14:00,72.3,70.2,29.98,SW,223,4.0,6.0,93,0.00,,---,0.10,VWS V14.01,2013-05-23 13:14:00,
2013-05-23 09:15:00,72.3,70.2,29.98,SW,223,4.0,5.0,93,0.00,,---,0.10,VWS V14.01,2013-05-23 13:15:00,
2013-05-23 09:16:00,72.2,70.1,29.99,SW,223,4.0,6.0,93,0.00,,---,0.10,VWS V14.01,2013-05-23 13:16:00,
2013-05-23 09:17:00,72.3,70.2,29.98,SW,223,5.0,5.0,93,0.00,,---,0.10,VWS V14.01,2013-05-23 13:17:00,
2013-05-23 09:18:00,72.3,70.2,29.98,SW,223,4.0,5.0,93,0.00,,---,0.10,VWS V14.01,2013-05-23 13:18:00,
2013-05-23 09:19:00,72.3,70.2,29.98,SW,223,4.0,5.0,93,0.00,,---,0.10,VWS V14.01,2013-05-23 13:19:00,
2013-05-23 09:20:00,72.3,70.2,29.98,SW,223,4.0,4.0,93,0.00,,---,0.10,VWS V14.01,2013-05-23 13:20:00,
2013-05-23 09:21:00,72.2,70.1,29.99,SW,223,3.0,6.0,93,0.00,,---,0.10,VWS V14.01,2013-05-23 13:21:00,
2013-05-23 09:22:00,72.4,70.3,29.98,SW,223,5.0,5.0,93,0.00,,---,0.10,VWS V14.01,2013-05-23 13:22:00,
2013-05-23 09:23:00,72.4,70.3,29.98,SW,223,4.0,5.0,93,0.00,,---,0.10,VWS V14.01,2013-05-23 13:23:00,
2013-05-23 09:24:00,72.4,70.3,29.98,SW,223,4.0,5.0,93,0.00,,---,0.10,VWS V14.01,2013-05-23 13:24:00,
2013-05-23 09:25:00,72.4,70.3,29.98,SW,223,5.0,5.0,93,0.00,,---,0.10,VWS V14.01,2013-05-23 13:25:00,
2013-05-23 09:26:00,72.3,70.2,29.98,SW,223,5.0,5.0,93,0.00,,---,0.10,VWS V14.01,2013-05-23 13:26:00,
2013-05-23 09:27:00,72.4,70.3,29.98,SW,223,4.0,6.0,93,0.00,,---,0.10,VWS V14.01,2013-05-23 13:27:00,
2013-05-23 09:28:00,72.4,70.3,29.98,SW,223,5.0,7.0,93,0.00,,---,0.10,VWS V14.01,2013-05-23 13:28:00,
2013-05-23 09:29:00,72.4,69.9,29.98,SW,223,4.0,7.0,92,0.00,,---,0.10,VWS V14.01,2013-05-23 13:29:00,
2013-05-23 09:30:00,72.4,70.3,29.98,SW,223,6.0,6.0,93,0.00,,---,0.10,VWS V14.01,2013-05-23 13:30:00,
2013-05-23 09:31:00,72.3,70.2,29.98,SW,223,5.0,5.0,93,0.00,,---,0.10,VWS V14.01,2013-05-23 13:31:00,
2013-05-23 09:32:00,72.4,70.3,29.98,SW,223,6.0,7.0,93,0.00,,---,0.10,VWS V14.01,2013-05-23 13:32:00,
2013-05-23 09:33:00,72.4,70.3,29.98,SW,223,5.0,7.0,93,0.00,,---,0.10,VWS V14.01,2013-05-23 13:33:00,
2013-05-23 09:34:00,72.5,70.4,29.98,SW,223,5.0,7.0,93,0.00,,---,0.10,VWS V14.01,2013-05-23 13:34:00,
2013-05-23 09:35:00,72.5,70.4,29.98,SW,223,4.0,7.0,93,0.00,,---,0.10,VWS V14.01,2013-05-23 13:35:00,
2013-05-23 09:36:00,72.4,70.3,29.98,SW,223,5.0,6.0,93,0.00,,---,0.10,VWS V14.01,2013-05-23 13:36:00,
2013-05-23 09:37:00,72.5,70.1,29.98,SW,219,9.0,9.0,92,0.00,,---,0.10,VWS V14.01,2013-05-23 13:37:00,
2013-05-23 09:38:00,72.4,69.9,29.98,SSE,159,12.0,17.0,92,0.00,,---,0.10,VWS V14.01,2013-05-23 13:38:00,
2013-05-23 09:39:00,72.2,69.8,29.98,SSE,163,11.0,17.0,92,0.00,,---,0.10,VWS V14.01,2013-05-23 13:39:00,
2013-05-23 09:40:00,72.2,69.8,29.98,South,179,11.0,14.0,92,0.00,,---,0.10,VWS V14.01,2013-05-23 13:40:00,
2013-05-23 09:41:00,72.4,69.9,29.98,SW,223,6.0,7.0,92,0.00,,---,0.10,VWS V14.01,2013-05-23 13:41:00,
2013-05-23 09:42:00,72.1,69.7,29.98,SSW,193,15.0,16.0,92,0.01,,---,0.11,VWS V14.01,2013-05-23 13:42:00,
2013-05-23 09:43:00,72.1,69.7,29.98,SSW,202,15.0,19.0,92,0.01,,---,0.11,VWS V14.01,2013-05-23 13:43:00,
2013-05-23 09:44:00,71.9,69.4,29.98,SSW,194,19.0,20.0,92,0.01,,---,0.11,VWS V14.01,2013-05-23 13:44:00,
2013-05-23 09:45:00,71.7,69.3,29.98,SSW,208,14.0,18.0,92,0.01,,---,0.11,VWS V14.01,2013-05-23 13:45:00,
2013-05-23 09:46:00,72.5,70.4,29.98,SW,221,9.0,9.0,93,0.00,,---,0.10,VWS V14.01,2013-05-23 13:46:00,
2013-05-23 09:47:00,71.5,69.1,29.98,SSW,200,12.0,18.0,92,0.01,,---,0.11,VWS V14.01,2013-05-23 13:47:00,
2013-05-23 09:48:00,71.6,69.2,29.98,SSW,202,10.0,18.0,92,0.01,,---,0.11,VWS V14.01,2013-05-23 13:48:00,
2013-05-23 09:49:00,71.6,69.2,29.98,SSW,207,14.0,18.0,92,0.01,,---,0.11,VWS V14.01,2013-05-23 13:49:00,
2013-05-23 09:50:00,71.5,69.1,29.98,SSW,204,16.0,16.0,92,0.01,,---,0.11,VWS V14.01,2013-05-23 13:50:00,
2013-05-23 09:51:00,72.0,69.6,29.98,SSW,194,13.0,16.0,92,0.00,,---,0.10,VWS V14.01,2013-05-23 13:51:00,
2013-05-23 09:52:00,71.4,69.0,29.98,SSW,204,14.0,18.0,92,0.01,,---,0.11,VWS V14.01,2013-05-23 13:52:00,
2013-05-23 09:53:00,71.4,69.0,29.98,SSW,209,12.0,18.0,92,0.02,,---,0.12,VWS V14.01,2013-05-23 13:53:00,
2013-05-23 09:54:00,71.5,69.4,29.98,SW,222,12.0,18.0,93,0.02,,---,0.12,VWS V14.01,2013-05-23 13:54:00,
2013-05-23 09:55:00,71.5,69.4,29.98,SW,221,14.0,14.0,93,0.02,,---,0.12,VWS V14.01,2013-05-23 13:55:00,
2013-05-23 09:56:00,71.5,69.1,29.98,SSW,209,9.0,18.0,92,0.01,,---,0.11,VWS V14.01,2013-05-23 13:56:00,
2013-05-23 09:57:00,71.3,69.2,29.98,SW,227,10.0,15.0,93,0.02,,---,0.12,VWS V14.01,2013-05-23 13:57:00,
2013-05-23 09:58:00,71.4,69.3,29.98,SW,229,11.0,15.0,93,0.02,,---,0.12,VWS V14.01,2013-05-23 13:58:00,
2013-05-23 09:59:00,71.3,69.2,29.97,SW,226,10.0,15.0,93,0.02,,---,0.12,VWS V14.01,2013-05-23 13:59:00,
2013-05-23 10:00:00,71.3,69.2,29.97,SW,223,7.0,8.0,93,0.02,,---,0.12,VWS V14.01,2013-05-23 14:00:00,
2013-05-23 10:01:00,71.4,69.0,29.98,SSW,208,15.0,18.0,92,0.01,,---,0.11,VWS V14.01,2013-05-23 14:01:00,
2013-05-23 10:02:00,71.4,69.3,29.97,SW,225,9.0,10.0,93,0.02,,---,0.12,VWS V14.01,2013-05-23 14:02:00,
2013-05-23 10:03:00,71.4,69.3,29.97,SW,222,6.0,10.0,93,0.02,,---,0.12,VWS V14.01,2013-05-23 14:03:00,
2013-05-23 10:04:00,71.5,69.4,29.97,SW,215,7.0,10.0,93,0.02,,---,0.12,VWS V14.01,2013-05-23 14:04:00,
2013-05-23 10:05:00,71.5,69.4,29.97,SW,215,6.0,8.0,93,0.02,,---,0.12,VWS V14.01,2013-05-23 14:05:00,
2013-05-23 10:06:00,71.3,69.2,29.98,SW,225,12.0,15.0,93,0.02,,---,0.12,VWS V14.01,2013-05-23 14:06:00,
2013-05-23 10:07:00,71.5,69.4,29.97,SSW,196,6.0,10.0,93,0.02,,---,0.12,VWS V14.01,2013-05-23 14:07:00,
2013-05-23 10:08:00,71.5,69.4,29.97,SSW,196,10.0,10.0,93,0.02,,---,0.12,VWS V14.01,2013-05-23 14:08:00,
2013-05-23 10:09:00,71.5,69.4,29.97,SSW,196,9.0,10.0,93,0.02,,---,0.12,VWS V14.01,2013-05-23 14:09:00,
2013-05-23 10:10:00,71.4,69.3,29.97,SSW,198,7.0,7.0,93,0.02,,---,0.12,VWS V14.01,2013-05-23 14:10:00,
2013-05-23 10:11:00,71.4,69.3,29.97,SW,225,10.0,10.0,93,0.02,,---,0.12,VWS V14.01,2013-05-23 14:11:00,
2013-05-23 10:12:00,71.5,69.7,29.97,SSW,202,5.0,9.0,94,0.02,,---,0.12,VWS V14.01,2013-05-23 14:12:00,
2013-05-23 10:13:00,71.5,69.7,29.97,SSW,198,7.0,9.0,94,0.02,,---,0.12,VWS V14.01,2013-05-23 14:13:00,
2013-05-23 10:14:00,71.5,69.4,29.97,SSW,198,6.0,9.0,93,0.02,,---,0.12,VWS V14.01,2013-05-23 14:14:00,
2013-05-23 10:15:00,71.5,69.4,29.97,SSW,198,7.0,8.0,93,0.02,,---,0.12,VWS V14.01,2013-05-23 14:15:00,
2013-05-23 10:16:00,71.4,69.3,29.97,SSW,198,6.0,10.0,93,0.02,,---,0.12,VWS V14.01,2013-05-23 14:16:00,
2013-05-23 10:17:00,71.4,69.3,29.97,SSW,197,5.0,8.0,93,0.02,,---,0.12,VWS V14.01,2013-05-23 14:17:00,
2013-05-23 10:18:00,71.4,69.3,29.97,SSW,199,5.0,8.0,93,0.02,,---,0.12,VWS V14.01,2013-05-23 14:18:00,
2013-05-23 10:19:00,71.5,69.7,29.97,SSW,199,5.0,8.0,94,0.02,,---,0.12,VWS V14.01,2013-05-23 14:19:00,
2013-05-23 10:20:00,71.5,69.7,29.97,SSW,199,6.0,6.0,94,0.02,,---,0.12,VWS V14.01,2013-05-23 14:20:00,
2013-05-23 10:21:00,71.5,69.4,29.97,SSW,202,6.0,9.0,93,0.02,,---,0.12,VWS V14.01,2013-05-23 14:21:00,
2013-05-23 10:22:00,71.5,69.4,29.97,SSW,198,6.0,9.0,93,0.02,,---,0.12,VWS V14.01,2013-05-23 14:22:00,
2013-05-23 10:23:00,71.6,69.8,29.97,SSW,198,4.0,9.0,94,0.02,,---,0.12,VWS V14.01,2013-05-23 14:23:00,
2013-05-23 10:24:00,71.7,69.9,29.97,SSW,197,4.0,9.0,94,0.02,,---,0.12,VWS V14.01,2013-05-23 14:24:00,
2013-05-23 10:25:00,71.8,70.0,29.97,SSW,196,9.0,9.0,94,0.02,,---,0.12,VWS V14.01,2013-05-23 14:25:00,
2013-05-23 10:26:00,71.4,69.3,29.97,SSW,197,5.0,8.0,93,0.02,,---,0.12,VWS V14.01,2013-05-23 14:26:00,
2013-05-23 10:27:00,71.9,69.8,29.97,South,180,9.0,9.0,93,0.02,,---,0.12,VWS V14.01,2013-05-23 14:27:00,
2013-05-23 10:28:00,71.9,69.8,29.97,South,170,11.0,11.0,93,0.02,,---,0.12,VWS V14.01,2013-05-23 14:28:00,
2013-05-23 10:29:00,71.8,69.7,29.97,South,169,10.0,11.0,93,0.02,,---,0.12,VWS V14.01,2013-05-23 14:29:00,
2013-05-23 10:30:00,71.8,69.7,29.97,SSE,164,9.0,10.0,93,0.02,,---,0.12,VWS V14.01,2013-05-23 14:30:00,
2013-05-23 10:31:00,71.5,69.4,29.97,SSW,198,9.0,9.0,93,0.02,,---,0.12,VWS V14.01,2013-05-23 14:31:00,
2013-05-23 10:32:00,71.9,69.8,29.97,SSE,165,10.0,11.0,93,0.02,,---,0.12,VWS V14.01,2013-05-23 14:32:00,
2013-05-23 10:33:00,71.8,69.7,29.97,SSE,165,10.0,12.0,93,0.02,,---,0.12,VWS V14.01,2013-05-23 14:33:00,
2013-05-23 10:34:00,71.8,69.7,29.97,SSE,165,10.0,12.0,93,0.02,,---,0.12,VWS V14.01,2013-05-23 14:34:00,
2013-05-23 10:35:00,71.9,69.8,29.97,SSE,167,9.0,10.0,93,0.02,,---,0.12,VWS V14.01,2013-05-23 14:35:00,
2013-05-23 10:36:00,71.9,69.8,29.97,South,182,9.0,9.0,93,0.02,,---,0.12,VWS V14.01,2013-05-23 14:36:00,
2013-05-23 10:37:00,71.9,69.8,29.97,SSE,159,12.0,13.0,93,0.02,,---,0.12,VWS V14.01,2013-05-23 14:37:00,
2013-05-23 10:38:00,71.9,69.8,29.97,SSE,159,9.0,13.0,93,0.02,,---,0.12,VWS V14.01,2013-05-23 14:38:00,
2013-05-23 10:39:00,71.9,69.8,29.97,SSE,161,8.0,13.0,93,0.02,,---,0.12,VWS V14.01,2013-05-23 14:39:00,
2013-05-23 10:40:00,71.9,69.8,29.97,South,169,8.0,9.0,93,0.02,,---,0.12,VWS V14.01,2013-05-23 14:40:00,
2013-05-23 10:41:00,71.9,69.8,29.97,SSE,163,11.0,11.0,93,0.02,,---,0.12,VWS V14.01,2013-05-23 14:41:00,
2013-05-23 10:42:00,71.9,69.8,29.97,South,169,10.0,14.0,93,0.02,,---,0.12,VWS V14.01,2013-05-23 14:42:00,
2013-05-23 10:43:00,71.7,69.6,29.97,South,169,8.0,14.0,93,0.02,,---,0.12,VWS V14.01,2013-05-23 14:43:00,
2013-05-23 10:44:00,71.8,69.7,29.97,South,184,9.0,14.0,93,0.02,,---,0.12,VWS V14.01,2013-05-23 14:44:00,
2013-05-23 10:45:00,71.8,69.7,29.97,SSW,200,12.0,12.0,93,0.02,,---,0.13,VWS V14.01,2013-05-23 14:45:00,
2013-05-23 10:46:00,71.9,69.8,29.97,SSE,160,12.0,12.0,93,0.02,,---,0.12,VWS V14.01,2013-05-23 14:46:00,
2013-05-23 10:47:00,71.7,69.6,29.97,SSW,200,6.0,12.0,93,0.02,,---,0.13,VWS V14.01,2013-05-23 14:47:00,
2013-05-23 10:48:00,71.8,69.7,29.97,SSW,194,7.0,12.0,93,0.02,,---,0.13,VWS V14.01,2013-05-23 14:48:00,
2013-05-23 10:49:00,71.9,69.8,29.97,SSW,192,8.0,12.0,93,0.02,,---,0.13,VWS V14.01,2013-05-23 14:49:00,
2013-05-23 10:50:00,71.8,69.7,29.97,SSW,194,7.0,7.0,93,0.02,,---,0.13,VWS V14.01,2013-05-23 14:50:00,
2013-05-23 10:51:00,71.9,69.8,29.97,SSE,167,10.0,14.0,93,0.02,,---,0.12,VWS V14.01,2013-05-23 14:51:00,
2013-05-23 10:52:00,71.7,69.6,29.97,SSW,200,9.0,12.0,93,0.02,,---,0.13,VWS V14.01,2013-05-23 14:52:00,
2013-05-23 10:53:00,71.6,69.5,29.97,SSW,194,10.0,12.0,93,0.02,,---,0.13,VWS V14.01,2013-05-23 14:53:00,
2013-05-23 10:54:00,71.5,69.4,29.97,SSW,198,10.0,12.0,93,0.02,,---,0.13,VWS V14.01,2013-05-23 14:54:00,
2013-05-23 10:55:00,71.6,69.5,29.97,SSW,201,7.0,7.0,93,0.01,,---,0.13,VWS V14.01,2013-05-23 14:55:00,
2013-05-23 10:56:00,71.7,69.6,29.97,SSW,200,7.0,12.0,93,0.02,,---,0.13,VWS V14.01,2013-05-23 14:56:00,
2013-05-23 10:57:00,71.6,69.5,29.97,SSW,208,8.0,9.0,93,0.01,,---,0.13,VWS V14.01,2013-05-23 14:57:00,
2013-05-23 10:58:00,71.6,69.5,29.97,SSW,209,6.0,9.0,93,0.01,,---,0.13,VWS V14.01,2013-05-23 14:58:00,
2013-05-23 10:59:00,71.6,69.5,29.97,SSW,211,7.0,9.0,93,0.01,,---,0.13,VWS V14.01,2013-05-23 14:59:00,
2013-05-23 11:00:00,71.6,69.5,29.97,SSW,213,6.0,7.0,93,0.01,,---,0.13,VWS V14.01,2013-05-23 15:00:00,
2013-05-23 11:01:00,71.7,69.6,29.97,SSW,200,10.0,12.0,93,0.02,,---,0.13,VWS V14.01,2013-05-23 15:01:00,
2013-05-23 11:02:00,71.7,69.6,29.97,SW,223,6.0,7.0,93,0.01,,---,0.13,VWS V14.01,2013-05-23 15:02:00,
2013-05-23 11:03:00,71.6,69.5,29.97,SW,223,6.0,7.0,93,0.01,,---,0.13,VWS V14.01,2013-05-23 15:03:00,
2013-05-23 11:04:00,71.7,69.6,29.97,SW,223,6.0,7.0,93,0.01,,---,0.13,VWS V14.01,2013-05-23 15:04:00,
2013-05-23 11:05:00,71.7,69.6,29.97,SW,223,6.0,6.0,93,0.01,,---,0.13,VWS V14.01,2013-05-23 15:05:00,
2013-05-23 11:06:00,71.6,69.5,29.97,SSW,208,6.0,9.0,93,0.01,,---,0.13,VWS V14.01,2013-05-23 15:06:00,
2013-05-23 11:07:00,71.6,69.5,29.97,SW,223,6.0,7.0,93,0.01,,---,0.13,VWS V14.01,2013-05-23 15:07:00,
2013-05-23 11:08:00,71.5,69.4,29.97,SW,223,5.0,7.0,93,0.01,,---,0.13,VWS V14.01,2013-05-23 15:08:00,
2013-05-23 11:09:00,71.5,69.4,29.97,SW,223,6.0,7.0,93,0.01,,---,0.13,VWS V14.01,2013-05-23 15:09:00,
2013-05-23 11:10:00,71.4,69.3,29.97,SW,223,5.0,6.0,93,0.01,,---,0.13,VWS V14.01,2013-05-23 15:10:00,
2013-05-23 11:11:00,71.7,69.6,29.97,SW,223,5.0,7.0,93,0.01,,---,0.13,VWS V14.01,2013-05-23 15:11:00,
2013-05-23 11:12:00,71.3,69.2,29.97,SW,223,4.0,6.0,93,0.01,,---,0.13,VWS V14.01,2013-05-23 15:12:00,
2013-05-23 11:13:00,71.3,69.2,29.97,SW,223,6.0,6.0,93,0.01,,---,0.13,VWS V14.01,2013-05-23 15:13:00,
2013-05-23 11:14:00,71.3,69.2,29.97,SW,223,6.0,7.0,93,0.01,,---,0.13,VWS V14.01,2013-05-23 15:14:00,
2013-05-23 11:15:00,71.2,69.1,29.97,SW,223,5.0,6.0,93,0.01,,---,0.13,VWS V14.01,2013-05-23 15:15:00,
2013-05-23 11:16:00,71.6,69.5,29.97,SW,223,6.0,7.0,93,0.01,,---,0.13,VWS V14.01,2013-05-23 15:16:00,
2013-05-23 11:17:00,71.2,69.1,29.97,SW,223,5.0,6.0,93,0.01,,---,0.13,VWS V14.01,2013-05-23 15:17:00,
2013-05-23 11:18:00,71.2,69.1,29.97,SW,223,5.0,6.0,93,0.01,,---,0.13,VWS V14.01,2013-05-23 15:18:00,
2013-05-23 11:19:00,71.2,69.1,29.97,SW,223,4.0,6.0,93,0.01,,---,0.13,VWS V14.01,2013-05-23 15:19:00,
2013-05-23 11:20:00,71.2,69.1,29.97,SW,223,4.0,4.0,93,0.01,,---,0.13,VWS V14.01,2013-05-23 15:20:00,
2013-05-23 11:21:00,71.3,69.2,29.97,SW,223,5.0,6.0,93,0.01,,---,0.13,VWS V14.01,2013-05-23 15:21:00,
2013-05-23 11:22:00,71.3,69.2,29.97,SW,223,5.0,6.0,93,0.01,,---,0.13,VWS V14.01,2013-05-23 15:22:00,
2013-05-23 11:23:00,71.3,69.2,29.97,SW,223,5.0,6.0,93,0.01,,---,0.13,VWS V14.01,2013-05-23 15:23:00,
2013-05-23 11:24:00,71.3,69.2,29.97,SW,223,4.0,6.0,93,0.01,,---,0.13,VWS V14.01,2013-05-23 15:24:00,
2013-05-23 11:25:00,71.3,69.2,29.97,SW,223,5.0,5.0,93,0.01,,---,0.13,VWS V14.01,2013-05-23 15:25:00,
2013-05-23 11:26:00,71.2,69.1,29.97,SW,223,6.0,6.0,93,0.01,,---,0.13,VWS V14.01,2013-05-23 15:26:00,
2013-05-23 11:27:00,71.4,69.3,29.97,SW,223,5.0,5.0,93,0.01,,---,0.13,VWS V14.01,2013-05-23 15:27:00,
2013-05-23 11:28:00,71.4,69.3,29.97,SW,223,4.0,6.0,93,0.01,,---,0.13,VWS V14.01,2013-05-23 15:28:00,
2013-05-23 11:29:00,71.3,69.2,29.96,SW,223,5.0,6.0,93,0.01,,---,0.13,VWS V14.01,2013-05-23 15:29:00,
2013-05-23 11:30:00,71.3,69.2,29.96,SW,223,4.0,4.0,93,0.01,,---,0.13,VWS V14.01,2013-05-23 15:30:00,
2013-05-23 11:31:00,71.3,69.2,29.97,SW,223,5.0,6.0,93,0.01,,---,0.13,VWS V14.01,2013-05-23 15:31:00,
2013-05-23 11:32:00,71.4,69.3,29.96,SW,223,3.0,6.0,93,0.01,,---,0.13,VWS V14.01,2013-05-23 15:32:00,
2013-05-23 11:33:00,71.4,69.3,29.96,SW,223,0.0,6.0,93,0.01,,---,0.13,VWS V14.01,2013-05-23 15:33:00,
2013-05-23 11:34:00,71.5,69.4,29.96,SW,223,1.0,6.0,93,0.01,,---,0.13,VWS V14.01,2013-05-23 15:34:00,
2013-05-23 11:35:00,71.5,69.4,29.96,SW,223,3.0,3.0,93,0.01,,---,0.13,VWS V14.01,2013-05-23 15:35:00,
2013-05-23 11:36:00,71.4,69.3,29.97,SW,223,5.0,5.0,93,0.01,,---,0.13,VWS V14.01,2013-05-23 15:36:00,
2013-05-23 11:37:00,71.5,69.4,29.96,SW,223,4.0,4.0,93,0.01,,---,0.13,VWS V14.01,2013-05-23 15:37:00,
2013-05-23 11:38:00,71.5,69.4,29.96,SW,223,5.0,6.0,93,0.01,,---,0.13,VWS V14.01,2013-05-23 15:38:00,
2013-05-23 11:39:00,71.5,69.4,29.96,SW,223,5.0,6.0,93,0.01,,---,0.13,VWS V14.01,2013-05-23 15:39:00,
2013-05-23 11:40:00,71.5,69.4,29.96,SW,220,6.0,7.0,93,0.01,,---,0.13,VWS V14.01,2013-05-23 15:40:00,
2013-05-23 11:41:00,71.4,69.3,29.96,SW,223,4.0,6.0,93,0.01,,---,0.13,VWS V14.01,2013-05-23 15:41:00,
2013-05-23 11:42:00,71.7,69.6,29.96,South,185,10.0,11.0,93,0.01,,---,0.13,VWS V14.01,2013-05-23 15:42:00,
2013-05-23 11:43:00,71.7,69.6,29.96,South,171,11.0,12.0,93,0.01,,---,0.13,VWS V14.01,2013-05-23 15:43:00,
2013-05-23 11:44:00,71.6,69.5,29.96,SSE,165,12.0,13.0,93,0.01,,---,0.13,VWS V14.01,2013-05-23 15:44:00,
2013-05-23 11:45:00,71.6,69.5,29.96,SSE,163,12.0,12.0,93,0.00,,---,0.13,VWS V14.01,2013-05-23 15:45:00,
2013-05-23 11:46:00,71.5,69.4,29.96,SW,223,4.0,4.0,93,0.01,,---,0.13,VWS V14.01,2013-05-23 15:46:00,
2013-05-23 11:47:00,71.2,68.8,29.96,SSE,161,11.0,12.0,92,0.00,,---,0.13,VWS V14.01,2013-05-23 15:47:00,
2013-05-23 11:48:00,71.1,69.0,29.96,SSE,161,11.0,12.0,93,0.00,,---,0.13,VWS V14.01,2013-05-23 15:48:00,
2013-05-23 11:49:00,71.2,69.1,29.96,SSE,159,12.0,12.0,93,0.00,,---,0.13,VWS V14.01,2013-05-23 15:49:00,
2013-05-23 11:50:00,71.0,68.9,29.96,SSE,157,12.0,12.0,93,0.00,,---,0.13,VWS V14.01,2013-05-23 15:50:00,
2013-05-23 11:51:00,71.7,69.6,29.96,South,188,11.0,11.0,93,0.01,,---,0.13,VWS V14.01,2013-05-23 15:51:00,
2013-05-23 11:52:00,70.7,68.6,29.96,SSE,157,7.0,12.0,93,0.00,,---,0.13,VWS V14.01,2013-05-23 15:52:00,
2013-05-23 11:53:00,70.8,68.7,29.96,SSE,157,9.0,12.0,93,0.00,,---,0.13,VWS V14.01,2013-05-23 15:53:00,
2013-05-23 11:54:00,70.8,68.7,29.96,SSE,157,9.0,12.0,93,0.00,,---,0.13,VWS V14.01,2013-05-23 15:54:00,
2013-05-23 11:55:00,70.8,68.7,29.96,SSE,156,7.0,7.0,93,0.00,,---,0.13,VWS V14.01,2013-05-23 15:55:00,
2013-05-23 11:56:00,71.2,68.8,29.96,SSE,161,11.0,12.0,92,0.00,,---,0.13,VWS V14.01,2013-05-23 15:56:00,
2013-05-23 11:57:00,71.0,68.9,29.96,SSE,154,10.0,12.0,93,0.00,,---,0.13,VWS V14.01,2013-05-23 15:57:00,
2013-05-23 11:58:00,70.9,68.8,29.96,SSE,153,10.0,12.0,93,0.00,,---,0.13,VWS V14.01,2013-05-23 15:58:00,
2013-05-23 11:59:00,70.9,68.8,29.96,SSE,152,10.0,12.0,93,0.00,,---,0.13,VWS V14.01,2013-05-23 15:59:00,
2013-05-23 12:00:00,71.0,68.9,29.96,SSE,151,12.0,12.0,93,0.00,,---,0.13,VWS V14.01,2013-05-23 16:00:00,
2013-05-23 12:01:00,70.7,68.6,29.96,SSE,157,9.0,12.0,93,0.00,,---,0.13,VWS V14.01,2013-05-23 16:01:00,
2013-05-23 12:02:00,71.3,69.2,29.96,SSE,151,12.0,13.0,93,0.00,,---,0.13,VWS V14.01,2013-05-23 16:02:00,
2013-05-23 12:03:00,71.5,69.4,29.96,SSE,151,11.0,13.0,93,0.00,,---,0.13,VWS V14.01,2013-05-23 16:03:00,
2013-05-23 12:04:00,71.6,69.5,29.96,SSE,150,13.0,14.0,93,0.00,,---,0.13,VWS V14.01,2013-05-23 16:04:00,
2013-05-23 12:05:00,71.6,69.5,29.96,SSE,150,13.0,13.0,93,0.00,,---,0.13,VWS V14.01,2013-05-23 16:05:00,
2013-05-23 12:06:00,71.0,68.9,29.96,SSE,154,10.0,12.0,93,0.00,,---,0.13,VWS V14.01,2013-05-23 16:06:00,
2013-05-23 12:07:00,71.7,69.6,29.96,SSE,150,10.0,13.0,93,0.00,,---,0.13,VWS V14.01,2013-05-23 16:07:00,
2013-05-23 12:08:00,71.8,69.7,29.96,SSE,150,12.0,13.0,93,0.00,,---,0.13,VWS V14.01,2013-05-23 16:08:00,
2013-05-23 12:09:00,71.8,69.7,29.96,SSE,150,13.0,13.0,93,0.00,,---,0.13,VWS V14.01,2013-05-23 16:09:00,
2013-05-23 12:10:00,71.8,69.7,29.96,SSE,150,12.0,13.0,93,0.00,,---,0.13,VWS V14.01,2013-05-23 16:10:00,
2013-05-23 12:11:00,71.3,69.2,29.96,SSE,151,13.0,13.0,93,0.00,,---,0.13,VWS V14.01,2013-05-23 16:11:00,
2013-05-23 12:12:00,71.9,69.8,29.96,SSE,149,10.0,13.0,93,0.00,,---,0.13,VWS V14.01,2013-05-23 16:12:00,
2013-05-23 12:13:00,71.9,69.8,29.96,SSE,149,11.0,13.0,93,0.00,,---,0.13,VWS V14.01,2013-05-23 16:13:00,
2013-05-23 12:14:00,71.9,69.8,29.95,SSE,150,11.0,13.0,93,0.00,,---,0.13,VWS V14.01,2013-05-23 16:14:00,
2013-05-23 12:15:00,71.8,69.7,29.95,SSE,155,11.0,13.0,93,0.00,,---,0.13,VWS V14.01,2013-05-23 16:15:00,
2013-05-23 12:16:00,71.7,69.6,29.96,SSE,150,12.0,13.0,93,0.00,,---,0.13,VWS V14.01,2013-05-23 16:16:00,
2013-05-23 12:17:00,71.9,70.1,29.95,SSE,155,10.0,13.0,94,0.00,,---,0.13,VWS V14.01,2013-05-23 16:17:00,
2013-05-23 12:18:00,71.9,69.8,29.95,SSE,154,9.0,13.0,93,0.00,,---,0.13,VWS V14.01,2013-05-23 16:18:00,
2013-05-23 12:19:00,72.0,69.9,29.95,SSE,156,12.0,13.0,93,0.00,,---,0.13,VWS V14.01,2013-05-23 16:19:00,
2013-05-23 12:20:00,72.0,69.9,29.95,SSE,151,10.0,11.0,93,0.01,,---,0.14,VWS V14.01,2013-05-23 16:20:00,
2013-05-23 12:21:00,71.8,69.7,29.96,SSE,150,12.0,13.0,93,0.00,,---,0.13,VWS V14.01,2013-05-23 16:21:00,
2013-05-23 12:22:00,72.0,69.9,29.95,SSE,148,11.0,13.0,93,0.01,,---,0.14,VWS V14.01,2013-05-23 16:22:00,
2013-05-23 12:23:00,72.0,70.2,29.95,SSE,150,11.0,13.0,94,0.01,,---,0.14,VWS V14.01,2013-05-23 16:23:00,
2013-05-23 12:24:00,72.0,69.9,29.95,SSE,151,11.0,13.0,93,0.01,,---,0.14,VWS V14.01,2013-05-23 16:24:00,
2013-05-23 12:25:00,72.1,70.0,29.95,SSE,148,12.0,12.0,93,0.01,,---,0.14,VWS V14.01,2013-05-23 16:25:00,
2013-05-23 12:26:00,71.9,70.1,29.95,SSE,154,13.0,13.0,94,0.00,,---,0.13,VWS V14.01,2013-05-23 16:26:00,
2013-05-23 12:27:00,72.0,69.9,29.95,SSE,151,12.0,13.0,93,0.01,,---,0.14,VWS V14.01,2013-05-23 16:27:00,
2013-05-23 12:28:00,72.0,69.9,29.95,SSE,150,11.0,13.0,93,0.01,,---,0.14,VWS V14.01,2013-05-23 16:28:00,
2013-05-23 12:29:00,72.0,70.2,29.95,SSE,148,10.0,13.0,94,0.01,,---,0.14,VWS V14.01,2013-05-23 16:29:00,
2013-05-23 12:30:00,72.0,70.2,29.95,SSE,148,12.0,12.0,94,0.01,,---,0.14,VWS V14.01,2013-05-23 16:30:00,
2013-05-23 12:31:00,72.0,69.9,29.95,SSE,150,12.0,13.0,93,0.01,,---,0.14,VWS V14.01,2013-05-23 16:31:00,
2013-05-23 12:32:00,71.8,69.7,29.95,SE,145,12.0,13.0,93,0.01,,---,0.14,VWS V14.01,2013-05-23 16:32:00,
2013-05-23 12:33:00,71.7,69.6,29.95,SE,146,11.0,13.0,93,0.01,,---,0.14,VWS V14.01,2013-05-23 16:33:00,
2013-05-23 12:34:00,71.7,69.6,29.95,SE,146,11.0,13.0,93,0.01,,---,0.14,VWS V14.01,2013-05-23 16:34:00,
2013-05-23 12:35:00,71.6,69.5,29.95,SE,144,11.0,12.0,93,0.01,,---,0.14,VWS V14.01,2013-05-23 16:35:00,
2013-05-23 12:36:00,72.0,69.9,29.95,SSE,151,13.0,13.0,93,0.01,,---,0.14,VWS V14.01,2013-05-23 16:36:00,
2013-05-23 12:37:00,71.7,69.9,29.95,SSE,150,10.0,13.0,94,0.01,,---,0.14,VWS V14.01,2013-05-23 16:37:00,
2013-05-23 12:38:00,71.8,70.0,29.95,SE,144,12.0,13.0,94,0.01,,---,0.14,VWS V14.01,2013-05-23 16:38:00,
2013-05-23 12:39:00,71.8,69.7,29.95,SE,146,14.0,15.0,93,0.01,,---,0.14,VWS V14.01,2013-05-23 16:39:00,
2013-05-23 12:40:00,71.8,69.7,29.95,SE,145,10.0,11.0,93,0.01,,---,0.14,VWS V14.01,2013-05-23 16:40:00,
2013-05-23 12:41:00,71.8,69.7,29.95,SE,144,11.0,13.0,93,0.01,,---,0.14,VWS V14.01,2013-05-23 16:41:00,
2013-05-23 12:42:00,71.7,69.6,29.95,SSE,148,12.0,13.0,93,0.01,,---,0.14,VWS V14.01,2013-05-23 16:42:00,
2013-05-23 12:43:00,71.7,69.6,29.95,SSE,150,12.0,13.0,93,0.01,,---,0.14,VWS V14.01,2013-05-23 16:43:00,
2013-05-23 12:44:00,71.8,69.7,29.94,SE,146,11.0,13.0,93,0.01,,---,0.14,VWS V14.01,2013-05-23 16:44:00,
2013-05-23 12:45:00,71.9,69.8,29.94,SE,141,13.0,13.0,93,0.01,,---,0.14,VWS V14.01,2013-05-23 16:45:00,
2013-05-23 12:46:00,71.7,69.9,29.95,SSE,150,9.0,13.0,94,0.01,,---,0.14,VWS V14.01,2013-05-23 16:46:00,
2013-05-23 12:47:00,71.9,69.8,29.94,SE,140,12.0,14.0,93,0.01,,---,0.14,VWS V14.01,2013-05-23 16:47:00,
2013-05-23 12:48:00,72.0,69.9,29.94,SE,139,13.0,14.0,93,0.01,,---,0.14,VWS V14.01,2013-05-23 16:48:00,
2013-05-23 12:49:00,72.0,69.9,29.94,SE,139,13.0,14.0,93,0.01,,---,0.14,VWS V14.01,2013-05-23 16:49:00,
2013-05-23 12:50:00,72.0,69.9,29.94,SE,142,13.0,13.0,93,0.01,,---,0.14,VWS V14.01,2013-05-23 16:50:00,
2013-05-23 12:51:00,71.7,69.6,29.95,SSE,149,12.0,13.0,93,0.01,,---,0.14,VWS V14.01,2013-05-23 16:51:00,
2013-05-23 12:52:00,72.1,70.3,29.94,SE,142,14.0,14.0,94,0.01,,---,0.14,VWS V14.01,2013-05-23 16:52:00,
2013-05-23 12:53:00,72.1,70.0,29.94,SE,143,13.0,14.0,93,0.01,,---,0.14,VWS V14.01,2013-05-23 16:53:00,
2013-05-23 12:54:00,72.1,70.0,29.94,SE,143,12.0,15.0,93,0.01,,---,0.14,VWS V14.01,2013-05-23 16:54:00,
2013-05-23 12:55:00,72.1,70.0,29.94,SE,139,12.0,12.0,93,0.01,,---,0.14,VWS V14.01,2013-05-23 16:55:00,
2013-05-23 12:56:00,71.9,69.8,29.94,SE,141,11.0,14.0,93,0.01,,---,0.14,VWS V14.01,2013-05-23 16:56:00,
2013-05-23 12:57:00,72.2,70.1,29.94,SE,138,13.0,14.0,93,0.01,,---,0.14,VWS V14.01,2013-05-23 16:57:00,
2013-05-23 12:58:00,72.1,70.0,29.94,SE,136,12.0,14.0,93,0.01,,---,0.14,VWS V14.01,2013-05-23 16:58:00,
2013-05-23 12:59:00,72.0,69.9,29.94,SE,135,10.0,14.0,93,0.01,,---,0.14,VWS V14.01,2013-05-23 16:59:00,
2013-05-23 13:00:00,72.0,69.9,29.94,SE,136,12.0,13.0,93,0.01,,---,0.14,VWS V14.01,2013-05-23 17:00:00,
2013-05-23 13:01:00,72.1,70.3,29.94,SE,140,11.0,13.0,94,0.01,,---,0.14,VWS V14.01,2013-05-23 17:01:00,
2013-05-23 13:02:00,71.9,69.8,29.94,SE,139,11.0,14.0,93,0.01,,---,0.14,VWS V14.01,2013-05-23 17:02:00,
2013-05-23 13:03:00,71.9,69.8,29.94,SE,140,13.0,14.0,93,0.01,,---,0.14,VWS V14.01,2013-05-23 17:03:00,
2013-05-23 13:04:00,71.9,69.8,29.94,SE,140,14.0,14.0,93,0.01,,---,0.14,VWS V14.01,2013-05-23 17:04:00,
2013-05-23 13:05:00,71.9,69.8,29.94,SE,144,10.0,11.0,93,0.01,,---,0.14,VWS V14.01,2013-05-23 17:05:00,
2013-05-23 13:06:00,72.2,70.1,29.94,SE,138,14.0,14.0,93,0.01,,---,0.14,VWS V14.01,2013-05-23 17:06:00,
2013-05-23 13:07:00,72.0,70.2,29.94,SE,143,12.0,12.0,94,0.01,,---,0.14,VWS V14.01,2013-05-23 17:07:00,
2013-05-23 13:08:00,72.0,70.2,29.94,SSE,151,8.0,12.0,94,0.01,,---,0.14,VWS V14.01,2013-05-23 17:08:00,
2013-05-23 13:09:00,72.1,70.3,29.94,SSE,155,14.0,14.0,94,0.01,,---,0.14,VWS V14.01,2013-05-23 17:09:00,
2013-05-23 13:10:00,72.0,69.9,29.94,SSE,158,14.0,14.0,93,0.01,,---,0.14,VWS V14.01,2013-05-23 17:10:00,
2013-05-23 13:11:00,71.9,69.8,29.94,SE,139,12.0,14.0,93,0.01,,---,0.14,VWS V14.01,2013-05-23 17:11:00,
2013-05-23 13:12:00,72.0,70.2,29.94,SSE,165,12.0,14.0,94,0.01,,---,0.14,VWS V14.01,2013-05-23 17:12:00,
2013-05-23 13:13:00,71.9,69.8,29.94,SSE,164,12.0,14.0,93,0.01,,---,0.14,VWS V14.01,2013-05-23 17:13:00,
2013-05-23 13:14:00,71.8,69.7,29.93,SSE,165,12.0,14.0,93,0.01,,---,0.14,VWS V14.01,2013-05-23 17:14:00,
2013-05-23 13:15:00,71.7,69.9,29.93,SSE,161,14.0,14.0,94,0.01,,---,0.14,VWS V14.01,2013-05-23 17:15:00,
2013-05-23 13:16:00,72.0,70.2,29.94,SE,144,10.0,12.0,94,0.01,,---,0.14,VWS V14.01,2013-05-23 17:16:00,
2013-05-23 13:17:00,71.6,69.5,29.93,South,169,11.0,14.0,93,0.01,,---,0.14,VWS V14.01,2013-05-23 17:17:00,
2013-05-23 13:18:00,71.5,69.7,29.93,SSE,166,13.0,14.0,94,0.01,,---,0.14,VWS V14.01,2013-05-23 17:18:00,
2013-05-23 13:19:00,71.6,69.8,29.93,SSE,168,12.0,14.0,94,0.01,,---,0.14,VWS V14.01,2013-05-23 17:19:00,
2013-05-23 13:20:00,71.6,69.8,29.93,South,169,9.0,10.0,94,0.00,,---,0.14,VWS V14.01,2013-05-23 17:20:00,
2013-05-23 13:21:00,72.0,70.2,29.94,SSE,163,11.0,14.0,94,0.01,,---,0.14,VWS V14.01,2013-05-23 17:21:00,
2013-05-23 13:22:00,71.7,69.9,29.93,South,171,13.0,13.0,94,0.00,,---,0.14,VWS V14.01,2013-05-23 17:22:00,
2013-05-23 13:23:00,71.7,69.9,29.93,South,174,12.0,13.0,94,0.00,,---,0.14,VWS V14.01,2013-05-23 17:23:00,
2013-05-23 13:24:00,71.7,69.9,29.93,South,173,10.0,13.0,94,0.00,,---,0.14,VWS V14.01,2013-05-23 17:24:00,
2013-05-23 13:25:00,71.7,69.9,29.93,South,174,11.0,11.0,94,0.00,,---,0.14,VWS V14.01,2013-05-23 17:25:00,
2013-05-23 13:26:00,71.6,69.5,29.93,SSE,168,13.0,14.0,93,0.01,,---,0.14,VWS V14.01,2013-05-23 17:26:00,
2013-05-23 13:27:00,71.7,69.9,29.93,SSE,167,10.0,12.0,94,0.00,,---,0.14,VWS V14.01,2013-05-23 17:27:00,
2013-05-23 13:28:00,71.7,69.9,29.93,SSE,164,10.0,12.0,94,0.00,,---,0.14,VWS V14.01,2013-05-23 17:28:00,
2013-05-23 13:29:00,71.7,69.9,29.93,SSE,167,12.0,12.0,94,0.00,,---,0.14,VWS V14.01,2013-05-23 17:29:00,
2013-05-23 13:30:00,71.5,69.7,29.93,SSE,167,10.0,13.0,94,0.00,,---,0.14,VWS V14.01,2013-05-23 17:30:00,
2013-05-23 13:31:00,71.7,69.9,29.93,South,170,12.0,13.0,94,0.00,,---,0.14,VWS V14.01,2013-05-23 17:31:00,
2013-05-23 13:32:00,71.6,69.8,29.93,SSE,167,10.0,13.0,94,0.00,,---,0.14,VWS V14.01,2013-05-23 17:32:00,
2013-05-23 13:33:00,71.6,69.8,29.93,South,171,8.0,13.0,94,0.00,,---,0.14,VWS V14.01,2013-05-23 17:33:00,
2013-05-23 13:34:00,71.7,69.9,29.93,South,173,9.0,13.0,94,0.00,,---,0.14,VWS V14.01,2013-05-23 17:34:00,
2013-05-23 13:35:00,71.8,70.0,29.93,South,169,11.0,11.0,94,0.00,,---,0.14,VWS V14.01,2013-05-23 17:35:00,
2013-05-23 13:36:00,71.7,69.9,29.93,SSE,167,11.0,12.0,94,0.00,,---,0.14,VWS V14.01,2013-05-23 17:36:00,
2013-05-23 13:37:00,71.8,70.0,29.93,South,169,10.0,13.0,94,0.00,,---,0.14,VWS V14.01,2013-05-23 17:37:00,
2013-05-23 13:38:00,71.8,70.0,29.93,South,170,10.0,13.0,94,0.00,,---,0.14,VWS V14.01,2013-05-23 17:38:00,
2013-05-23 13:39:00,71.7,69.9,29.93,South,171,12.0,14.0,94,0.00,,---,0.14,VWS V14.01,2013-05-23 17:39:00,
2013-05-23 13:40:00,71.7,69.9,29.93,South,171,10.0,11.0,94,0.00,,---,0.14,VWS V14.01,2013-05-23 17:40:00,
2013-05-23 13:41:00,71.6,69.8,29.93,SSE,167,10.0,13.0,94,0.00,,---,0.14,VWS V14.01,2013-05-23 17:41:00,
2013-05-23 13:42:00,71.7,69.9,29.93,South,171,13.0,13.0,94,0.00,,---,0.14,VWS V14.01,2013-05-23 17:42:00,
2013-05-23 13:43:00,71.8,70.0,29.93,South,173,11.0,13.0,94,0.00,,---,0.14,VWS V14.01,2013-05-23 17:43:00,
2013-05-23 13:44:00,71.9,70.1,29.92,South,172,12.0,13.0,94,0.00,,---,0.14,VWS V14.01,2013-05-23 17:44:00,
2013-05-23 13:45:00,71.8,70.0,29.92,South,173,14.0,14.0,94,0.00,,---,0.14,VWS V14.01,2013-05-23 17:45:00,
2013-05-23 13:46:00,71.8,70.0,29.93,South,169,11.0,13.0,94,0.00,,---,0.14,VWS V14.01,2013-05-23 17:46:00,
2013-05-23 13:47:00,71.7,69.6,29.92,South,171,12.0,15.0,93,0.00,,---,0.14,VWS V14.01,2013-05-23 17:47:00,
2013-05-23 13:48:00,71.8,70.0,29.92,South,175,11.0,15.0,94,0.00,,---,0.14,VWS V14.01,2013-05-23 17:48:00,
2013-05-23 13:49:00,71.9,70.1,29.92,South,185,11.0,15.0,94,0.00,,---,0.14,VWS V14.01,2013-05-23 17:49:00,
2013-05-23 13:50:00,71.9,69.8,29.92,South,178,10.0,12.0,93,0.00,,---,0.14,VWS V14.01,2013-05-23 17:50:00,
2013-05-23 13:51:00,71.8,70.0,29.93,South,171,11.0,12.0,94,0.00,,---,0.14,VWS V14.01,2013-05-23 17:51:00,
2013-05-23 13:52:00,72.0,70.2,29.92,South,176,6.0,12.0,94,0.00,,---,0.14,VWS V14.01,2013-05-23 17:52:00,
2013-05-23 13:53:00,72.0,70.2,29.92,South,176,14.0,14.0,94,0.00,,---,0.14,VWS V14.01,2013-05-23 17:53:00,
2013-05-23 13:54:00,72.0,69.9,29.92,South,176,10.0,14.0,93,0.00,,---,0.14,VWS V14.01,2013-05-23 17:54:00,
2013-05-23 13:55:00,72.0,69.9,29.92,South,171,12.0,12.0,93,0.00,,---,0.14,VWS V14.01,2013-05-23 17:55:00,
2013-05-23 13:56:00,71.7,69.6,29.92,South,171,12.0,15.0,93,0.00,,---,0.14,VWS V14.01,2013-05-23 17:56:00,
2013-05-23 13:57:00,71.9,69.8,29.92,South,177,6.0,13.0,93,0.00,,---,0.14,VWS V14.01,2013-05-23 17:57:00,
2013-05-23 13:58:00,71.9,69.8,29.92,South,182,7.0,13.0,93,0.00,,---,0.14,VWS V14.01,2013-05-23 17:58:00,
2013-05-23 13:59:00,72.0,70.2,29.91,South,180,6.0,13.0,94,0.00,,---,0.14,VWS V14.01,2013-05-23 17:59:00,
2013-05-23 14:00:00,72.1,70.3,29.91,South,177,5.0,6.0,94,0.00,,---,0.14,VWS V14.01,2013-05-23 18:00:00,
2013-05-23 14:01:00,72.0,70.2,29.92,South,175,8.0,12.0,94,0.00,,---,0.14,VWS V14.01,2013-05-23 18:01:00,
2013-05-23 14:02:00,72.1,70.3,29.91,South,180,4.0,11.0,94,0.00,,---,0.14,VWS V14.01,2013-05-23 18:02:00,
2013-05-23 14:03:00,72.1,70.3,29.91,South,185,6.0,11.0,94,0.00,,---,0.14,VWS V14.01,2013-05-23 18:03:00,
2013-05-23 14:04:00,72.1,70.3,29.91,South,185,6.0,11.0,94,0.00,,---,0.14,VWS V14.01,2013-05-23 18:04:00,
2013-05-23 14:05:00,72.0,69.9,29.91,South,187,9.0,9.0,93,0.00,,---,0.14,VWS V14.01,2013-05-23 18:05:00,
2013-05-23 14:06:00,71.9,69.8,29.92,South,173,12.0,13.0,93,0.00,,---,0.14,VWS V14.01,2013-05-23 18:06:00,
2013-05-23 14:07:00,71.9,69.8,29.91,South,190,4.0,12.0,93,0.00,,---,0.14,VWS V14.01,2013-05-23 18:07:00,
2013-05-23 14:08:00,71.9,69.8,29.91,South,190,12.0,12.0,93,0.00,,---,0.14,VWS V14.01,2013-05-23 18:08:00,
2013-05-23 14:09:00,71.9,69.8,29.91,South,189,10.0,12.0,93,0.00,,---,0.14,VWS V14.01,2013-05-23 18:09:00,
2013-05-23 14:10:00,71.8,69.7,29.91,SSW,194,12.0,12.0,93,0.00,,---,0.14,VWS V14.01,2013-05-23 18:10:00,
2013-05-23 14:11:00,72.1,70.3,29.91,South,181,8.0,11.0,94,0.00,,---,0.14,VWS V14.01,2013-05-23 18:11:00,
2013-05-23 14:12:00,71.8,69.7,29.91,South,190,5.0,13.0,93,0.00,,---,0.14,VWS V14.01,2013-05-23 18:12:00,
2013-05-23 14:13:00,71.9,69.8,29.91,South,186,6.0,13.0,93,0.00,,---,0.14,VWS V14.01,2013-05-23 18:13:00,
2013-05-23 14:14:00,72.0,69.9,29.91,South,183,7.0,13.0,93,0.00,,---,0.14,VWS V14.01,2013-05-23 18:14:00,
2013-05-23 14:15:00,72.0,69.9,29.91,SSW,192,6.0,8.0,93,0.00,,---,0.14,VWS V14.01,2013-05-23 18:15:00,
2013-05-23 14:16:00,72.0,69.9,29.91,South,190,6.0,12.0,93,0.00,,---,0.14,VWS V14.01,2013-05-23 18:16:00,
2013-05-23 14:17:00,72.0,69.9,29.91,South,188,6.0,10.0,93,0.00,,---,0.14,VWS V14.01,2013-05-23 18:17:00,
2013-05-23 14:18:00,72.1,70.0,29.91,SSW,194,4.0,10.0,93,0.00,,---,0.14,VWS V14.01,2013-05-23 18:18:00,
2013-05-23 14:19:00,72.1,70.0,29.91,South,187,6.0,10.0,93,0.00,,---,0.14,VWS V14.01,2013-05-23 18:19:00,
2013-05-23 14:20:00,72.2,70.1,29.91,South,186,7.0,7.0,93,0.00,,---,0.14,VWS V14.01,2013-05-23 18:20:00,
2013-05-23 14:21:00,71.8,69.7,29.91,South,190,5.0,13.0,93,0.00,,---,0.14,VWS V14.01,2013-05-23 18:21:00,
2013-05-23 14:22:00,72.1,70.0,29.91,South,189,6.0,10.0,93,0.00,,---,0.14,VWS V14.01,2013-05-23 18:22:00,
2013-05-23 14:23:00,72.1,70.0,29.91,South,187,5.0,10.0,93,0.00,,---,0.14,VWS V14.01,2013-05-23 18:23:00,
2013-05-23 14:24:00,72.1,70.0,29.91,South,186,5.0,10.0,93,0.00,,---,0.14,VWS V14.01,2013-05-23 18:24:00,
2013-05-23 14:25:00,72.2,70.1,29.91,South,188,6.0,9.0,93,0.00,,---,0.14,VWS V14.01,2013-05-23 18:25:00,
2013-05-23 14:26:00,72.0,69.9,29.91,South,188,6.0,10.0,93,0.00,,---,0.14,VWS V14.01,2013-05-23 18:26:00,
2013-05-23 14:27:00,72.2,70.1,29.91,South,190,9.0,9.0,93,0.00,,---,0.14,VWS V14.01,2013-05-23 18:27:00,
2013-05-23 14:28:00,72.3,70.2,29.91,South,189,3.0,9.0,93,0.00,,---,0.14,VWS V14.01,2013-05-23 18:28:00,
2013-05-23 14:29:00,72.4,70.3,29.90,South,188,5.0,9.0,93,0.00,,---,0.14,VWS V14.01,2013-05-23 18:29:00,
2013-05-23 14:30:00,72.4,70.3,29.90,South,187,5.0,5.0,93,0.00,,---,0.14,VWS V14.01,2013-05-23 18:30:00,
2013-05-23 14:31:00,72.1,70.0,29.91,South,189,7.0,10.0,93,0.00,,---,0.14,VWS V14.01,2013-05-23 18:31:00,
2013-05-23 14:32:00,72.4,70.3,29.90,South,182,7.0,9.0,93,0.00,,---,0.14,VWS V14.01,2013-05-23 18:32:00,
2013-05-23 14:33:00,72.3,69.8,29.90,South,183,7.0,11.0,92,0.00,,---,0.14,VWS V14.01,2013-05-23 18:33:00,
2013-05-23 14:34:00,72.3,70.2,29.90,South,183,4.0,11.0,93,0.00,,---,0.14,VWS V14.01,2013-05-23 18:34:00,
2013-05-23 14:35:00,72.3,70.2,29.90,South,183,7.0,7.0,93,0.00,,---,0.14,VWS V14.01,2013-05-23 18:35:00,
2013-05-23 14:36:00,72.2,70.1,29.91,South,190,8.0,9.0,93,0.00,,---,0.14,VWS V14.01,2013-05-23 18:36:00,
2013-05-23 14:37:00,72.4,70.3,29.90,South,182,5.0,8.0,93,0.00,,---,0.14,VWS V14.01,2013-05-23 18:37:00,
2013-05-23 14:38:00,72.5,70.4,29.90,South,181,7.0,8.0,93,0.00,,---,0.14,VWS V14.01,2013-05-23 18:38:00,
2013-05-23 14:39:00,72.5,70.4,29.90,South,181,6.0,9.0,93,0.00,,---,0.14,VWS V14.01,2013-05-23 18:39:00,
2013-05-23 14:40:00,72.6,70.5,29.90,South,181,6.0,6.0,93,0.00,,---,0.14,VWS V14.01,2013-05-23 18:40:00,
2013-05-23 14:41:00,72.4,70.3,29.90,South,183,7.0,9.0,93,0.00,,---,0.14,VWS V14.01,2013-05-23 18:41:00,
2013-05-23 14:42:00,72.5,70.1,29.90,South,178,9.0,9.0,92,0.00,,---,0.14,VWS V14.01,2013-05-23 18:42:00,
2013-05-23 14:43:00,72.4,69.9,29.90,South,175,6.0,9.0,92,0.00,,---,0.14,VWS V14.01,2013-05-23 18:43:00,
2013-05-23 14:44:00,72.3,69.8,29.88,South,175,6.0,9.0,92,0.00,,---,0.14,VWS V14.01,2013-05-23 18:44:00,
2013-05-23 14:45:00,72.3,70.2,29.88,South,175,5.0,6.0,93,0.00,,---,0.14,VWS V14.01,2013-05-23 18:45:00,
2013-05-23 14:46:00,72.4,70.3,29.90,South,182,6.0,8.0,93,0.00,,---,0.14,VWS V14.01,2013-05-23 18:46:00,
2013-05-23 14:47:00,72.5,70.4,29.88,South,175,9.0,9.0,93,0.00,,---,0.14,VWS V14.01,2013-05-23 18:47:00,
2013-05-23 14:48:00,72.6,70.5,29.88,South,175,7.0,9.0,93,0.00,,---,0.14,VWS V14.01,2013-05-23 18:48:00,
2013-05-23 14:49:00,72.6,70.5,29.88,South,175,6.0,9.0,93,0.00,,---,0.14,VWS V14.01,2013-05-23 18:49:00,
2013-05-23 14:50:00,72.7,70.6,29.88,South,176,4.0,6.0,93,0.00,,---,0.14,VWS V14.01,2013-05-23 18:50:00,
2013-05-23 14:51:00,72.8,70.7,29.88,South,177,6.0,7.0,93,0.00,,---,0.14,VWS V14.01,2013-05-23 18:51:00,
2013-05-23 14:52:00,72.5,70.1,29.90,South,178,6.0,9.0,92,0.00,,---,0.14,VWS V14.01,2013-05-23 18:52:00,
2013-05-23 14:53:00,72.8,70.7,29.88,South,179,6.0,9.0,93,0.00,,---,0.14,VWS V14.01,2013-05-23 18:53:00,
2013-05-23 14:54:00,72.8,70.7,29.88,South,179,3.0,9.0,93,0.00,,---,0.14,VWS V14.01,2013-05-23 18:54:00,
2013-05-23 14:55:00,72.8,70.7,29.88,South,181,6.0,6.0,93,0.00,,---,0.14,VWS V14.01,2013-05-23 18:55:00,
2013-05-23 14:56:00,72.7,70.2,29.88,South,181,5.0,7.0,92,0.00,,---,0.14,VWS V14.01,2013-05-23 18:56:00,
2013-05-23 14:57:00,72.5,70.4,29.88,South,175,9.0,9.0,93,0.00,,---,0.14,VWS V14.01,2013-05-23 18:57:00,
2013-05-23 14:58:00,72.9,70.8,29.88,South,181,3.0,7.0,93,0.00,,---,0.14,VWS V14.01,2013-05-23 18:58:00,
2013-05-23 14:59:00,72.9,70.8,29.88,South,181,5.0,7.0,93,0.00,,---,0.14,VWS V14.01,2013-05-23 18:59:00,
2013-05-23 15:00:00,72.9,70.8,29.88,South,181,10.0,10.0,93,0.00,,---,0.14,VWS V14.01,2013-05-23 19:00:00,
2013-05-23 15:01:00,72.8,70.7,29.88,South,178,7.0,9.0,93,0.00,,---,0.14,VWS V14.01,2013-05-23 19:01:00,
2013-05-23 15:02:00,73.0,70.9,29.88,South,183,9.0,11.0,93,0.00,,---,0.14,VWS V14.01,2013-05-23 19:02:00,
2013-05-23 15:03:00,72.9,70.8,29.88,South,186,6.0,11.0,93,0.00,,---,0.14,VWS V14.01,2013-05-23 19:03:00,
2013-05-23 15:04:00,72.9,70.4,29.88,South,187,7.0,11.0,92,0.00,,---,0.14,VWS V14.01,2013-05-23 19:04:00,
2013-05-23 15:05:00,72.8,70.7,29.88,South,188,6.0,7.0,93,0.00,,---,0.14,VWS V14.01,2013-05-23 19:05:00,
2013-05-23 15:06:00,72.8,70.7,29.88,South,181,4.0,7.0,93,0.00,,---,0.14,VWS V14.01,2013-05-23 19:06:00,
2013-05-23 15:07:00,73.0,70.9,29.88,South,186,7.0,11.0,93,0.00,,---,0.14,VWS V14.01,2013-05-23 19:07:00,
2013-05-23 15:08:00,72.9,70.4,29.88,South,186,8.0,11.0,92,0.00,,---,0.14,VWS V14.01,2013-05-23 19:08:00,
2013-05-23 15:09:00,72.9,70.4,29.88,South,186,7.0,11.0,92,0.00,,---,0.14,VWS V14.01,2013-05-23 19:09:00,
2013-05-23 15:10:00,72.9,70.4,29.88,South,186,11.0,11.0,92,0.00,,---,0.14,VWS V14.01,2013-05-23 19:10:00,
2013-05-23 15:11:00,73.0,70.9,29.88,South,183,9.0,11.0,93,0.00,,---,0.14,VWS V14.01,2013-05-23 19:11:00,
2013-05-23 15:12:00,72.8,70.3,29.88,South,188,10.0,12.0,92,0.00,,---,0.14,VWS V14.01,2013-05-23 19:12:00,
2013-05-23 15:13:00,72.9,70.4,29.88,South,188,11.0,12.0,92,0.00,,---,0.14,VWS V14.01,2013-05-23 19:13:00,
2013-05-23 15:14:00,72.9,70.4,29.88,South,188,10.0,12.0,92,0.00,,---,0.14,VWS V14.01,2013-05-23 19:14:00,
2013-05-23 15:15:00,72.9,70.4,29.88,South,187,10.0,10.0,92,0.00,,---,0.14,VWS V14.01,2013-05-23 19:15:00,
2013-05-23 15:16:00,73.0,70.9,29.88,South,186,7.0,11.0,93,0.00,,---,0.14,VWS V14.01,2013-05-23 19:16:00,
2013-05-23 15:17:00,73.0,70.5,29.88,South,187,5.0,11.0,92,0.00,,---,0.14,VWS V14.01,2013-05-23 19:17:00,
2013-05-23 15:18:00,73.1,70.6,29.88,South,188,12.0,12.0,92,0.00,,---,0.14,VWS V14.01,2013-05-23 19:18:00,
2013-05-23 15:19:00,73.0,70.5,29.88,South,191,12.0,13.0,92,0.00,,---,0.14,VWS V14.01,2013-05-23 19:19:00,
2013-05-23 15:20:00,73.0,70.5,29.88,South,190,4.0,11.0,92,0.00,,---,0.14,VWS V14.01,2013-05-23 19:20:00,
2013-05-23 15:21:00,72.8,70.3,29.88,South,188,10.0,12.0,92,0.00,,---,0.14,VWS V14.01,2013-05-23 19:21:00,
2013-05-23 15:22:00,73.0,70.5,29.88,South,188,9.0,12.0,92,0.00,,---,0.14,VWS V14.01,2013-05-23 19:22:00,
2013-05-23 15:23:00,73.0,70.5,29.88,South,189,6.0,12.0,92,0.00,,---,0.14,VWS V14.01,2013-05-23 19:23:00,
2013-05-23 15:24:00,73.0,70.5,29.88,South,190,12.0,12.0,92,0.00,,---,0.14,VWS V14.01,2013-05-23 19:24:00,
2013-05-23 15:25:00,73.0,70.5,29.88,South,188,6.0,8.0,92,0.00,,---,0.14,VWS V14.01,2013-05-23 19:25:00,
2013-05-23 15:26:00,73.0,70.5,29.88,South,187,10.0,11.0,92,0.00,,---,0.14,VWS V14.01,2013-05-23 19:26:00,
2013-05-23 15:27:00,73.0,70.5,29.88,South,185,6.0,10.0,92,0.00,,---,0.14,VWS V14.01,2013-05-23 19:27:00,
2013-05-23 15:28:00,73.1,70.6,29.88,South,186,4.0,11.0,92,0.00,,---,0.14,VWS V14.01,2013-05-23 19:28:00,
2013-05-23 15:29:00,73.1,70.6,29.87,South,184,10.0,11.0,92,0.00,,---,0.14,VWS V14.01,2013-05-23 19:29:00,
2013-05-23 15:30:00,73.0,70.2,29.87,South,184,7.0,7.0,91,0.00,,---,0.14,VWS V14.01,2013-05-23 19:30:00,
2013-05-23 15:31:00,73.0,70.5,29.88,South,188,9.0,12.0,92,0.00,,---,0.14,VWS V14.01,2013-05-23 19:31:00,
2013-05-23 15:32:00,73.1,70.6,29.87,South,184,10.0,10.0,92,0.00,,---,0.14,VWS V14.01,2013-05-23 19:32:00,
2013-05-23 15:33:00,73.1,70.6,29.87,South,183,10.0,10.0,92,0.00,,---,0.14,VWS V14.01,2013-05-23 19:33:00,
2013-05-23 15:34:00,73.1,70.3,29.87,South,182,10.0,12.0,91,0.00,,---,0.14,VWS V14.01,2013-05-23 19:34:00,
2013-05-23 15:35:00,73.1,70.3,29.87,South,182,9.0,10.0,91,0.00,,---,0.14,VWS V14.01,2013-05-23 19:35:00,
2013-05-23 15:36:00,73.0,70.5,29.88,South,185,6.0,10.0,92,0.00,,---,0.14,VWS V14.01,2013-05-23 19:36:00,
2013-05-23 15:37:00,73.1,70.3,29.87,South,184,8.0,12.0,91,0.00,,---,0.14,VWS V14.01,2013-05-23 19:37:00,
2013-05-23 15:38:00,73.1,70.3,29.87,South,186,6.0,12.0,91,0.00,,---,0.14,VWS V14.01,2013-05-23 19:38:00,
2013-05-23 15:39:00,73.1,70.3,29.87,South,186,9.0,12.0,91,0.00,,---,0.14,VWS V14.01,2013-05-23 19:39:00,
2013-05-23 15:40:00,73.1,70.3,29.87,South,186,9.0,9.0,91,0.00,,---,0.14,VWS V14.01,2013-05-23 19:40:00,
2013-05-23 15:41:00,73.1,70.3,29.87,South,190,11.0,13.0,91,0.00,,---,0.14,VWS V14.01,2013-05-23 19:41:00,
2013-05-23 15:42:00,73.1,70.6,29.87,South,184,10.0,10.0,92,0.00,,---,0.14,VWS V14.01,2013-05-23 19:42:00,
2013-05-23 15:43:00,73.1,70.3,29.87,SSW,192,12.0,13.0,91,0.00,,---,0.14,VWS V14.01,2013-05-23 19:43:00,
2013-05-23 15:44:00,73.0,70.2,29.87,SSW,196,12.0,14.0,91,0.00,,---,0.14,VWS V14.01,2013-05-23 19:44:00,
2013-05-23 15:45:00,72.9,70.1,29.87,SSW,196,13.0,13.0,91,0.00,,---,0.14,VWS V14.01,2013-05-23 19:45:00,
2013-05-23 15:46:00,73.1,70.3,29.87,South,184,7.0,12.0,91,0.00,,---,0.14,VWS V14.01,2013-05-23 19:46:00,
2013-05-23 15:47:00,72.8,70.0,29.87,SSW,199,13.0,15.0,91,0.00,,---,0.14,VWS V14.01,2013-05-23 19:47:00,
2013-05-23 15:48:00,72.7,69.9,29.87,SSW,200,13.0,15.0,91,0.00,,---,0.14,VWS V14.01,2013-05-23 19:48:00,
2013-05-23 15:49:00,72.7,69.9,29.87,SSW,194,11.0,15.0,91,0.00,,---,0.14,VWS V14.01,2013-05-23 19:49:00,
2013-05-23 15:50:00,72.8,70.0,29.87,SSW,202,12.0,12.0,91,0.00,,---,0.14,VWS V14.01,2013-05-23 19:50:00,
2013-05-23 15:51:00,73.1,70.3,29.87,SSW,192,12.0,13.0,91,0.00,,---,0.14,VWS V14.01,2013-05-23 19:51:00,
2013-05-23 15:52:00,72.7,69.9,29.87,SSW,200,13.0,14.0,91,0.00,,---,0.14,VWS V14.01,2013-05-23 19:52:00,
2013-05-23 15:53:00,72.6,69.8,29.87,SSW,203,13.0,14.0,91,0.00,,---,0.14,VWS V14.01,2013-05-23 19:53:00,
2013-05-23 15:54:00,72.6,69.8,29.87,SSW,201,12.0,14.0,91,0.00,,---,0.14,VWS V14.01,2013-05-23 19:54:00,
2013-05-23 15:55:00,72.6,69.8,29.87,SSW,199,13.0,13.0,91,0.00,,---,0.14,VWS V14.01,2013-05-23 19:55:00,
2013-05-23 15:56:00,72.8,70.0,29.87,SSW,199,14.0,15.0,91,0.00,,---,0.14,VWS V14.01,2013-05-23 19:56:00,
2013-05-23 15:57:00,72.5,69.7,29.87,SSW,197,15.0,16.0,91,0.00,,---,0.14,VWS V14.01,2013-05-23 19:57:00,
2013-05-23 15:58:00,72.5,69.7,29.87,SSW,198,12.0,16.0,91,0.00,,---,0.14,VWS V14.01,2013-05-23 19:58:00,
2013-05-23 15:59:00,72.6,70.2,29.87,South,190,10.0,16.0,92,0.00,,---,0.14,VWS V14.01,2013-05-23 19:59:00,
2013-05-23 16:00:00,72.6,70.2,29.87,SSW,195,13.0,13.0,92,0.00,,---,0.14,VWS V14.01,2013-05-23 20:00:00,
2013-05-23 16:01:00,72.8,70.0,29.87,SSW,200,13.0,14.0,91,0.00,,---,0.14,VWS V14.01,2013-05-23 20:01:00,
2013-05-23 16:02:00,72.6,69.8,29.87,SSW,202,9.0,15.0,91,0.00,,---,0.14,VWS V14.01,2013-05-23 20:02:00,
2013-05-23 16:03:00,72.6,70.2,29.87,SSW,202,12.0,15.0,92,0.00,,---,0.14,VWS V14.01,2013-05-23 20:03:00,
2013-05-23 16:04:00,72.6,69.8,29.87,SSW,202,14.0,15.0,91,0.00,,---,0.14,VWS V14.01,2013-05-23 20:04:00,
2013-05-23 16:05:00,72.4,69.6,29.87,SSW,207,13.0,13.0,91,0.00,,---,0.14,VWS V14.01,2013-05-23 20:05:00,
2013-05-23 16:06:00,72.6,69.8,29.87,SSW,196,15.0,16.0,91,0.00,,---,0.14,VWS V14.01,2013-05-23 20:06:00,
2013-05-23 16:07:00,72.5,70.1,29.87,SSW,200,12.0,14.0,92,0.00,,---,0.14,VWS V14.01,2013-05-23 20:07:00,
2013-05-23 16:08:00,72.6,70.2,29.87,SSW,198,12.0,14.0,92,0.00,,---,0.14,VWS V14.01,2013-05-23 20:08:00,
2013-05-23 16:09:00,72.6,70.2,29.87,SSW,207,12.0,15.0,92,0.00,,---,0.14,VWS V14.01,2013-05-23 20:09:00,
2013-05-23 16:10:00,72.6,70.2,29.87,SSW,207,11.0,11.0,92,0.00,,---,0.14,VWS V14.01,2013-05-23 20:10:00,
2013-05-23 16:11:00,72.6,69.8,29.87,SSW,202,9.0,15.0,91,0.00,,---,0.14,VWS V14.01,2013-05-23 20:11:00,
2013-05-23 16:12:00,72.6,70.2,29.87,SSW,207,14.0,14.0,92,0.00,,---,0.14,VWS V14.01,2013-05-23 20:12:00,
2013-05-23 16:13:00,72.6,70.2,29.87,SSW,203,13.0,15.0,92,0.00,,---,0.14,VWS V14.01,2013-05-23 20:13:00,
2013-05-23 16:14:00,72.5,70.1,29.87,SSW,206,16.0,17.0,92,0.00,,---,0.14,VWS V14.01,2013-05-23 20:14:00,
2013-05-23 16:15:00,72.5,70.1,29.87,SSW,204,14.0,14.0,92,0.00,,---,0.14,VWS V14.01,2013-05-23 20:15:00,
2013-05-23 16:16:00,72.4,69.9,29.87,SSW,202,11.0,14.0,92,0.00,,---,0.14,VWS V14.01,2013-05-23 20:16:00,
2013-05-23 16:17:00,72.5,70.1,29.87,SSW,203,13.0,17.0,92,0.00,,---,0.14,VWS V14.01,2013-05-23 20:17:00,
2013-05-23 16:18:00,72.6,70.2,29.87,SSW,202,15.0,17.0,92,0.00,,---,0.14,VWS V14.01,2013-05-23 20:18:00,
2013-05-23 16:19:00,72.5,70.1,29.87,SSW,206,16.0,17.0,92,0.00,,---,0.14,VWS V14.01,2013-05-23 20:19:00,
2013-05-23 16:20:00,72.4,69.9,29.87,SSW,204,14.0,15.0,92,0.00,,---,0.14,VWS V14.01,2013-05-23 20:20:00,
2013-05-23 16:21:00,72.6,70.2,29.87,SSW,207,12.0,14.0,92,0.00,,---,0.14,VWS V14.01,2013-05-23 20:21:00,
2013-05-23 16:22:00,72.5,70.1,29.87,SSW,207,15.0,16.0,92,0.00,,---,0.14,VWS V14.01,2013-05-23 20:22:00,
2013-05-23 16:23:00,72.4,69.9,29.87,SSW,203,11.0,16.0,92,0.00,,---,0.14,VWS V14.01,2013-05-23 20:23:00,
2013-05-23 16:24:00,72.5,70.1,29.87,SSW,207,13.0,16.0,92,0.00,,---,0.14,VWS V14.01,2013-05-23 20:24:00,
2013-05-23 16:25:00,72.5,70.1,29.87,SSW,205,14.0,14.0,92,0.00,,---,0.14,VWS V14.01,2013-05-23 20:25:00,
2013-05-23 16:26:00,72.6,70.2,29.87,SSW,204,14.0,17.0,92,0.00,,---,0.14,VWS V14.01,2013-05-23 20:26:00,
2013-05-23 16:27:00,72.4,69.9,29.87,SSW,206,14.0,16.0,92,0.00,,---,0.14,VWS V14.01,2013-05-23 20:27:00,
2013-05-23 16:28:00,72.3,69.8,29.87,SSW,207,11.0,16.0,92,0.00,,---,0.14,VWS V14.01,2013-05-23 20:28:00,
2013-05-23 16:29:00,72.4,69.9,29.86,SSW,203,14.0,16.0,92,0.00,,---,0.14,VWS V14.01,2013-05-23 20:29:00,
2013-05-23 16:30:00,72.4,69.9,29.86,SSW,206,13.0,14.0,92,0.00,,---,0.14,VWS V14.01,2013-05-23 20:30:00,
2013-05-23 16:31:00,72.5,70.1,29.87,SSW,205,14.0,16.0,92,0.00,,---,0.14,VWS V14.01,2013-05-23 20:31:00,
2013-05-23 16:32:00,72.5,70.1,29.86,SSW,212,14.0,16.0,92,0.00,,---,0.14,VWS V14.01,2013-05-23 20:32:00,
2013-05-23 16:33:00,72.6,70.2,29.86,SSW,209,13.0,16.0,92,0.00,,---,0.14,VWS V14.01,2013-05-23 20:33:00,
2013-05-23 16:34:00,72.6,70.2,29.86,SSW,208,13.0,16.0,92,0.00,,---,0.14,VWS V14.01,2013-05-23 20:34:00,
2013-05-23 16:35:00,72.6,70.2,29.86,SSW,210,14.0,15.0,92,0.00,,---,0.14,VWS V14.01,2013-05-23 20:35:00,
2013-05-23 16:36:00,72.4,69.9,29.87,SSW,207,16.0,16.0,92,0.00,,---,0.14,VWS V14.01,2013-05-23 20:36:00,
2013-05-23 16:37:00,72.6,69.8,29.86,SSW,208,14.0,16.0,91,0.00,,---,0.14,VWS V14.01,2013-05-23 20:37:00,
2013-05-23 16:38:00,72.5,70.1,29.86,SSW,209,15.0,16.0,92,0.00,,---,0.14,VWS V14.01,2013-05-23 20:38:00,
2013-05-23 16:39:00,72.4,69.6,29.86,SSW,208,16.0,16.0,91,0.00,,---,0.14,VWS V14.01,2013-05-23 20:39:00,
2013-05-23 16:40:00,72.5,70.1,29.86,SSW,208,14.0,15.0,92,0.00,,---,0.14,VWS V14.01,2013-05-23 20:40:00,
2013-05-23 16:41:00,72.5,70.1,29.86,SSW,212,15.0,16.0,92,0.00,,---,0.14,VWS V14.01,2013-05-23 20:41:00,
2013-05-23 16:42:00,72.6,70.2,29.86,SSW,206,14.0,16.0,92,0.00,,---,0.14,VWS V14.01,2013-05-23 20:42:00,
2013-05-23 16:43:00,72.6,69.8,29.86,SSW,207,16.0,16.0,91,0.00,,---,0.14,VWS V14.01,2013-05-23 20:43:00,
2013-05-23 16:44:00,72.6,69.8,29.85,SSW,207,13.0,16.0,91,0.00,,---,0.14,VWS V14.01,2013-05-23 20:44:00,
2013-05-23 16:45:00,72.7,70.2,29.85,SSW,210,12.0,14.0,92,0.00,,---,0.14,VWS V14.01,2013-05-23 20:45:00,
2013-05-23 16:46:00,72.6,69.8,29.86,SSW,208,14.0,16.0,91,0.00,,---,0.14,VWS V14.01,2013-05-23 20:46:00,
2013-05-23 16:47:00,72.7,70.2,29.85,SSW,208,12.0,14.0,92,0.00,,---,0.14,VWS V14.01,2013-05-23 20:47:00,
2013-05-23 16:48:00,72.8,70.3,29.85,SSW,210,14.0,14.0,92,0.00,,---,0.14,VWS V14.01,2013-05-23 20:48:00,
2013-05-23 16:49:00,72.8,70.3,29.85,SW,214,12.0,15.0,92,0.00,,---,0.14,VWS V14.01,2013-05-23 20:49:00,
2013-05-23 16:50:00,72.8,70.3,29.85,SSW,211,12.0,14.0,92,0.00,,---,0.14,VWS V14.01,2013-05-23 20:50:00,
2013-05-23 16:51:00,72.6,70.2,29.86,SSW,206,15.0,16.0,92,0.00,,---,0.14,VWS V14.01,2013-05-23 20:51:00,
2013-05-23 16:52:00,72.9,70.4,29.85,SW,214,13.0,16.0,92,0.00,,---,0.14,VWS V14.01,2013-05-23 20:52:00,
2013-05-23 16:53:00,72.9,70.4,29.85,SSW,212,15.0,16.0,92,0.00,,---,0.14,VWS V14.01,2013-05-23 20:53:00,
2013-05-23 16:54:00,72.9,70.4,29.85,SSW,211,14.0,16.0,92,0.00,,---,0.14,VWS V14.01,2013-05-23 20:54:00,
2013-05-23 16:55:00,72.9,70.4,29.85,SSW,212,15.0,15.0,92,0.00,,---,0.14,VWS V14.01,2013-05-23 20:55:00,
2013-05-23 16:56:00,72.7,70.2,29.85,SSW,208,12.0,14.0,92,0.00,,---,0.14,VWS V14.01,2013-05-23 20:56:00,
2013-05-23 16:57:00,72.9,70.4,29.85,SSW,213,15.0,16.0,92,0.00,,---,0.14,VWS V14.01,2013-05-23 20:57:00,
2013-05-23 16:58:00,73.0,70.5,29.85,SW,214,14.0,16.0,92,0.00,,---,0.14,VWS V14.01,2013-05-23 20:58:00,
2013-05-23 16:59:00,73.1,70.6,29.86,SW,214,13.0,16.0,92,0.00,,---,0.14,VWS V14.01,2013-05-23 20:59:00,
2013-05-23 17:00:00,73.1,70.6,29.86,SW,214,14.0,14.0,92,0.00,,---,0.14,VWS V14.01,2013-05-23 21:00:00,
2013-05-23 17:01:00,72.9,70.4,29.85,SW,214,16.0,16.0,92,0.00,,---,0.14,VWS V14.01,2013-05-23 21:01:00,
2013-05-23 17:02:00,73.0,70.5,29.86,SSW,213,12.0,16.0,92,0.00,,---,0.14,VWS V14.01,2013-05-23 21:02:00,
2013-05-23 17:03:00,73.1,70.6,29.86,SSW,211,15.0,16.0,92,0.00,,---,0.14,VWS V14.01,2013-05-23 21:03:00,
2013-05-23 17:04:00,73.0,70.5,29.86,SSW,207,16.0,16.0,92,0.00,,---,0.14,VWS V14.01,2013-05-23 21:04:00,
2013-05-23 17:05:00,73.1,70.6,29.86,SSW,209,14.0,14.0,92,0.00,,---,0.14,VWS V14.01,2013-05-23 21:05:00,
2013-05-23 17:06:00,72.9,70.4,29.85,SSW,213,14.0,16.0,92,0.00,,---,0.14,VWS V14.01,2013-05-23 21:06:00,
2013-05-23 17:07:00,73.1,70.6,29.86,SSW,207,14.0,16.0,92,0.00,,---,0.14,VWS V14.01,2013-05-23 21:07:00,
2013-05-23 17:08:00,73.0,70.5,29.86,SSW,207,15.0,16.0,92,0.00,,---,0.14,VWS V14.01,2013-05-23 21:08:00,
2013-05-23 17:09:00,73.0,70.5,29.86,SSW,207,15.0,17.0,92,0.00,,---,0.14,VWS V14.01,2013-05-23 21:09:00,
2013-05-23 17:10:00,72.9,70.4,29.86,SSW,211,16.0,16.0,92,0.00,,---,0.14,VWS V14.01,2013-05-23 21:10:00,
2013-05-23 17:11:00,73.0,70.5,29.86,SSW,213,12.0,16.0,92,0.00,,---,0.14,VWS V14.01,2013-05-23 21:11:00,
2013-05-23 17:12:00,73.0,70.5,29.86,SSW,211,15.0,18.0,92,0.00,,---,0.14,VWS V14.01,2013-05-23 21:12:00,
2013-05-23 17:13:00,73.0,70.5,29.86,SSW,211,14.0,18.0,92,0.00,,---,0.14,VWS V14.01,2013-05-23 21:13:00,
2013-05-23 17:14:00,73.1,70.6,29.85,SSW,213,13.0,18.0,92,0.00,,---,0.14,VWS V14.01,2013-05-23 21:14:00,
2013-05-23 17:15:00,73.1,70.6,29.85,SSW,213,14.0,14.0,92,0.00,,---,0.14,VWS V14.01,2013-05-23 21:15:00,
2013-05-23 17:16:00,73.1,70.6,29.86,SSW,207,15.0,16.0,92,0.00,,---,0.14,VWS V14.01,2013-05-23 21:16:00,
2013-05-23 17:17:00,73.1,70.6,29.85,SW,215,13.0,17.0,92,0.00,,---,0.14,VWS V14.01,2013-05-23 21:17:00,
2013-05-23 17:18:00,73.1,70.6,29.85,SW,215,15.0,17.0,92,0.00,,---,0.14,VWS V14.01,2013-05-23 21:18:00,
2013-05-23 17:19:00,73.1,70.6,29.85,SW,216,15.0,17.0,92,0.00,,---,0.14,VWS V14.01,2013-05-23 21:19:00,
2013-05-23 17:20:00,73.1,70.6,29.85,SW,216,14.0,14.0,92,0.00,,---,0.14,VWS V14.01,2013-05-23 21:20:00,
2013-05-23 17:21:00,72.9,70.4,29.86,SSW,211,15.0,18.0,92,0.00,,---,0.14,VWS V14.01,2013-05-23 21:21:00,
2013-05-23 17:22:00,73.1,70.6,29.85,SW,216,14.0,17.0,92,0.00,,---,0.14,VWS V14.01,2013-05-23 21:22:00,
2013-05-23 17:23:00,73.1,70.6,29.85,SW,216,13.0,17.0,92,0.00,,---,0.14,VWS V14.01,2013-05-23 21:23:00,
2013-05-23 17:24:00,73.2,70.7,29.85,SW,216,13.0,17.0,92,0.00,,---,0.14,VWS V14.01,2013-05-23 21:24:00,
2013-05-23 17:25:00,73.2,70.7,29.85,SW,216,17.0,17.0,92,0.00,,---,0.14,VWS V14.01,2013-05-23 21:25:00,
2013-05-23 17:26:00,73.1,70.6,29.85,SW,215,14.0,17.0,92,0.00,,---,0.14,VWS V14.01,2013-05-23 21:26:00,
2013-05-23 17:27:00,73.2,70.7,29.85,SW,216,14.0,17.0,92,0.00,,---,0.14,VWS V14.01,2013-05-23 21:27:00,
2013-05-23 17:28:00,73.2,70.7,29.85,SW,217,16.0,17.0,92,0.00,,---,0.14,VWS V14.01,2013-05-23 21:28:00,
2013-05-23 17:29:00,73.2,70.7,29.85,SW,218,15.0,17.0,92,0.00,,---,0.14,VWS V14.01,2013-05-23 21:29:00,
2013-05-23 17:30:00,73.1,70.6,29.85,SW,218,15.0,15.0,92,0.00,,---,0.14,VWS V14.01,2013-05-23 21:30:00,
2013-05-23 17:31:00,73.1,70.6,29.85,SW,216,15.0,17.0,92,0.00,,---,0.14,VWS V14.01,2013-05-23 21:31:00,
2013-05-23 17:32:00,73.2,70.7,29.85,SW,221,14.0,17.0,92,0.00,,---,0.14,VWS V14.01,2013-05-23 21:32:00,
2013-05-23 17:33:00,73.1,70.6,29.85,SW,220,13.0,17.0,92,0.00,,---,0.14,VWS V14.01,2013-05-23 21:33:00,
2013-05-23 17:34:00,73.0,70.5,29.85,SW,220,16.0,17.0,92,0.00,,---,0.14,VWS V14.01,2013-05-23 21:34:00,
2013-05-23 17:35:00,72.9,70.4,29.85,SW,221,17.0,17.0,92,0.00,,---,0.14,VWS V14.01,2013-05-23 21:35:00,
2013-05-23 17:36:00,73.2,70.7,29.85,SW,217,13.0,17.0,92,0.00,,---,0.14,VWS V14.01,2013-05-23 21:36:00,
2013-05-23 17:37:00,72.9,70.4,29.85,SW,217,12.0,18.0,92,0.00,,---,0.14,VWS V14.01,2013-05-23 21:37:00,
2013-05-23 17:38:00,73.0,70.5,29.85,SW,219,13.0,18.0,92,0.00,,---,0.14,VWS V14.01,2013-05-23 21:38:00,
2013-05-23 17:39:00,73.0,70.5,29.85,SW,219,14.0,18.0,92,0.00,,---,0.14,VWS V14.01,2013-05-23 21:39:00,
2013-05-23 17:40:00,73.0,70.5,29.85,SW,221,13.0,13.0,92,0.00,,---,0.14,VWS V14.01,2013-05-23 21:40:00,
2013-05-23 17:41:00,73.2,70.7,29.85,SW,221,13.0,17.0,92,0.00,,---,0.14,VWS V14.01,2013-05-23 21:41:00,
2013-05-23 17:42:00,73.1,70.6,29.85,SW,222,13.0,16.0,92,0.00,,---,0.14,VWS V14.01,2013-05-23 21:42:00,
2013-05-23 17:43:00,73.1,70.6,29.85,SW,221,15.0,16.0,92,0.00,,---,0.14,VWS V14.01,2013-05-23 21:43:00,
2013-05-23 17:44:00,73.0,70.5,29.85,SW,222,14.0,16.0,92,0.00,,---,0.14,VWS V14.01,2013-05-23 21:44:00,
2013-05-23 17:45:00,73.0,70.5,29.85,SW,219,16.0,16.0,92,0.00,,---,0.14,VWS V14.01,2013-05-23 21:45:00,
2013-05-23 17:46:00,72.9,70.4,29.85,SW,217,15.0,18.0,92,0.00,,---,0.14,VWS V14.01,2013-05-23 21:46:00,
2013-05-23 17:47:00,73.1,70.6,29.85,SW,221,14.0,16.0,92,0.00,,---,0.14,VWS V14.01,2013-05-23 21:47:00,
2013-05-23 17:48:00,73.0,70.5,29.85,SW,222,14.0,16.0,92,0.00,,---,0.14,VWS V14.01,2013-05-23 21:48:00,
2013-05-23 17:49:00,73.0,70.5,29.85,SW,223,13.0,16.0,92,0.00,,---,0.14,VWS V14.01,2013-05-23 21:49:00,
2013-05-23 17:50:00,73.1,70.6,29.85,SW,224,14.0,14.0,92,0.00,,---,0.14,VWS V14.01,2013-05-23 21:50:00,
2013-05-23 17:51:00,73.1,70.6,29.85,SW,222,14.0,16.0,92,0.00,,---,0.14,VWS V14.01,2013-05-23 21:51:00,
2013-05-23 17:52:00,73.1,70.6,29.85,SW,225,13.0,16.0,92,0.00,,---,0.14,VWS V14.01,2013-05-23 21:52:00,
2013-05-23 17:53:00,73.1,70.6,29.85,SW,228,13.0,16.0,92,0.00,,---,0.14,VWS V14.01,2013-05-23 21:53:00,
2013-05-23 17:54:00,73.1,70.6,29.85,SW,227,13.0,16.0,92,0.00,,---,0.14,VWS V14.01,2013-05-23 21:54:00,
2013-05-23 17:55:00,73.2,70.7,29.85,SW,227,16.0,16.0,92,0.00,,---,0.14,VWS V14.01,2013-05-23 21:55:00,
2013-05-23 17:56:00,73.0,70.5,29.85,SW,220,13.0,16.0,92,0.00,,---,0.14,VWS V14.01,2013-05-23 21:56:00,
2013-05-23 17:57:00,73.1,70.6,29.85,SW,225,15.0,17.0,92,0.00,,---,0.14,VWS V14.01,2013-05-23 21:57:00,
2013-05-23 17:58:00,73.1,70.6,29.85,SW,225,16.0,17.0,92,0.00,,---,0.14,VWS V14.01,2013-05-23 21:58:00,
2013-05-23 17:59:00,73.1,70.6,29.85,SW,226,15.0,17.0,92,0.00,,---,0.14,VWS V14.01,2013-05-23 21:59:00,
2013-05-23 18:00:00,73.1,70.6,29.85,SW,225,12.0,13.0,92,0.00,,---,0.14,VWS V14.01,2013-05-23 22:00:00,
2013-05-23 18:01:00,73.0,70.5,29.85,SW,224,14.0,16.0,92,0.00,,---,0.14,VWS V14.01,2013-05-23 22:01:00,
2013-05-23 18:02:00,73.1,70.6,29.85,SW,225,14.0,17.0,92,0.00,,---,0.14,VWS V14.01,2013-05-23 22:02:00,
2013-05-23 18:03:00,73.1,70.6,29.85,SW,225,13.0,17.0,92,0.00,,---,0.14,VWS V14.01,2013-05-23 22:03:00,
2013-05-23 18:04:00,73.2,70.7,29.85,SW,225,14.0,17.0,92,0.00,,---,0.14,VWS V14.01,2013-05-23 22:04:00,
2013-05-23 18:05:00,73.2,70.7,29.85,SW,227,16.0,16.0,92,0.00,,---,0.14,VWS V14.01,2013-05-23 22:05:00,
2013-05-23 18:06:00,73.1,70.6,29.85,SW,225,15.0,17.0,92,0.00,,---,0.14,VWS V14.01,2013-05-23 22:06:00,
2013-05-23 18:07:00,73.1,70.6,29.85,SW,228,14.0,16.0,92,0.00,,---,0.14,VWS V14.01,2013-05-23 22:07:00,
2013-05-23 18:08:00,73.1,70.6,29.85,SW,232,14.0,16.0,92,0.00,,---,0.14,VWS V14.01,2013-05-23 22:08:00,
2013-05-23 18:09:00,73.1,70.6,29.85,SW,232,16.0,16.0,92,0.00,,---,0.14,VWS V14.01,2013-05-23 22:09:00,
2013-05-23 18:10:00,73.1,70.6,29.85,SW,231,13.0,13.0,92,0.00,,---,0.14,VWS V14.01,2013-05-23 22:10:00,
2013-05-23 18:11:00,73.2,70.7,29.85,SW,225,14.0,17.0,92,0.00,,---,0.14,VWS V14.01,2013-05-23 22:11:00,
2013-05-23 18:12:00,73.2,70.7,29.85,SW,234,15.0,17.0,92,0.00,,---,0.14,VWS V14.01,2013-05-23 22:12:00,
2013-05-23 18:13:00,73.1,70.6,29.85,SW,234,12.0,17.0,92,0.00,,---,0.14,VWS V14.01,2013-05-23 22:13:00,
2013-05-23 18:14:00,73.2,70.7,29.86,SW,235,13.0,17.0,92,0.00,,---,0.14,VWS V14.01,2013-05-23 22:14:00,
2013-05-23 18:15:00,73.1,70.6,29.86,SW,234,11.0,13.0,92,0.00,,---,0.14,VWS V14.01,2013-05-23 22:15:00,
2013-05-23 18:16:00,73.1,70.6,29.85,SW,228,14.0,16.0,92,0.00,,---,0.14,VWS V14.01,2013-05-23 22:16:00,
2013-05-23 18:17:00,73.1,70.6,29.86,SW,234,15.0,17.0,92,0.00,,---,0.14,VWS V14.01,2013-05-23 22:17:00,
2013-05-23 18:18:00,73.2,70.7,29.86,SW,234,13.0,17.0,92,0.00,,---,0.14,VWS V14.01,2013-05-23 22:18:00,
2013-05-23 18:19:00,73.2,70.7,29.86,SW,236,15.0,17.0,92,0.00,,---,0.14,VWS V14.01,2013-05-23 22:19:00,
2013-05-23 18:20:00,73.1,70.6,29.86,SW,234,15.0,15.0,92,0.00,,---,0.14,VWS V14.01,2013-05-23 22:20:00,
2013-05-23 18:21:00,73.2,70.7,29.85,SW,234,16.0,17.0,92,0.00,,---,0.14,VWS V14.01,2013-05-23 22:21:00,
2013-05-23 18:22:00,73.1,70.6,29.86,SW,234,15.0,17.0,92,0.00,,---,0.14,VWS V14.01,2013-05-23 22:22:00,
2013-05-23 18:23:00,73.0,70.5,29.86,SW,234,16.0,17.0,92,0.00,,---,0.14,VWS V14.01,2013-05-23 22:23:00,
2013-05-23 18:24:00,73.0,70.5,29.86,SW,233,14.0,17.0,92,0.00,,---,0.14,VWS V14.01,2013-05-23 22:24:00,
2013-05-23 18:25:00,73.1,70.6,29.86,SW,232,15.0,16.0,92,0.00,,---,0.14,VWS V14.01,2013-05-23 22:25:00,
2013-05-23 18:26:00,73.2,70.7,29.86,SW,234,15.0,17.0,92,0.00,,---,0.14,VWS V14.01,2013-05-23 22:26:00,
2013-05-23 18:27:00,73.1,71.0,29.86,SW,232,14.0,17.0,93,0.00,,---,0.14,VWS V14.01,2013-05-23 22:27:00,
2013-05-23 18:28:00,73.1,70.6,29.86,SW,232,16.0,18.0,92,0.00,,---,0.14,VWS V14.01,2013-05-23 22:28:00,
2013-05-23 18:29:00,73.0,70.5,29.87,SW,233,14.0,18.0,92,0.00,,---,0.14,VWS V14.01,2013-05-23 22:29:00,
2013-05-23 18:30:00,73.0,70.9,29.87,SW,233,16.0,16.0,93,0.00,,---,0.14,VWS V14.01,2013-05-23 22:30:00,
2013-05-23 18:31:00,73.1,70.6,29.86,SW,234,16.0,17.0,92,0.00,,---,0.14,VWS V14.01,2013-05-23 22:31:00,
2013-05-23 18:32:00,73.0,70.5,29.87,SW,234,16.0,18.0,92,0.00,,---,0.14,VWS V14.01,2013-05-23 22:32:00,
2013-05-23 18:33:00,73.0,70.5,29.87,SW,233,13.0,18.0,92,0.00,,---,0.14,VWS V14.01,2013-05-23 22:33:00,
2013-05-23 18:34:00,73.0,70.9,29.87,SW,234,14.0,18.0,93,0.00,,---,0.14,VWS V14.01,2013-05-23 22:34:00,
2013-05-23 18:35:00,73.0,70.5,29.87,SW,236,16.0,16.0,92,0.00,,---,0.14,VWS V14.01,2013-05-23 22:35:00,
2013-05-23 18:36:00,73.1,71.0,29.86,SW,232,14.0,17.0,93,0.00,,---,0.14,VWS V14.01,2013-05-23 22:36:00,
2013-05-23 18:37:00,73.1,71.0,29.87,SW,236,13.0,18.0,93,0.00,,---,0.14,VWS V14.01,2013-05-23 22:37:00,
2013-05-23 18:38:00,73.1,71.0,29.87,SW,236,13.0,18.0,93,0.00,,---,0.14,VWS V14.01,2013-05-23 22:38:00,
2013-05-23 18:39:00,73.1,70.6,29.87,WSW,237,15.0,18.0,92,0.00,,---,0.14,VWS V14.01,2013-05-23 22:39:00,
2013-05-23 18:40:00,73.1,70.6,29.87,SW,236,17.0,17.0,92,0.00,,---,0.14,VWS V14.01,2013-05-23 22:40:00,
2013-05-23 18:41:00,73.0,70.5,29.87,SW,234,14.0,18.0,92,0.00,,---,0.14,VWS V14.01,2013-05-23 22:41:00,
2013-05-23 18:42:00,73.0,70.5,29.87,WSW,237,13.0,18.0,92,0.00,,---,0.14,VWS V14.01,2013-05-23 22:42:00,
2013-05-23 18:43:00,73.0,70.9,29.87,SW,236,15.0,18.0,93,0.00,,---,0.14,VWS V14.01,2013-05-23 22:43:00,
2013-05-23 18:44:00,73.1,71.0,29.87,WSW,238,16.0,18.0,93,0.00,,---,0.14,VWS V14.01,2013-05-23 22:44:00,
2013-05-23 18:45:00,73.1,70.6,29.87,WSW,238,15.0,15.0,92,0.00,,---,0.14,VWS V14.01,2013-05-23 22:45:00,
2013-05-23 18:46:00,73.0,70.9,29.87,SW,236,13.0,18.0,93,0.00,,---,0.14,VWS V14.01,2013-05-23 22:46:00,
2013-05-23 18:47:00,73.0,70.9,29.87,WSW,239,14.0,17.0,93,0.00,,---,0.14,VWS V14.01,2013-05-23 22:47:00,
2013-05-23 18:48:00,73.1,71.0,29.87,WSW,238,14.0,17.0,93,0.00,,---,0.14,VWS V14.01,2013-05-23 22:48:00,
2013-05-23 18:49:00,73.1,71.0,29.87,WSW,239,14.0,17.0,93,0.00,,---,0.14,VWS V14.01,2013-05-23 22:49:00,
2013-05-23 18:50:00,73.1,71.0,29.87,WSW,241,15.0,15.0,93,0.00,,---,0.14,VWS V14.01,2013-05-23 22:50:00,
2013-05-23 18:51:00,73.0,70.5,29.87,WSW,237,15.0,18.0,92,0.00,,---,0.14,VWS V14.01,2013-05-23 22:51:00,
2013-05-23 18:52:00,73.1,70.6,29.87,WSW,240,16.0,17.0,92,0.00,,---,0.14,VWS V14.01,2013-05-23 22:52:00,
2013-05-23 18:53:00,73.0,70.9,29.87,WSW,238,13.0,17.0,93,0.00,,---,0.14,VWS V14.01,2013-05-23 22:53:00,
2013-05-23 18:54:00,73.1,71.0,29.87,WSW,238,13.0,17.0,93,0.00,,---,0.14,VWS V14.01,2013-05-23 22:54:00,
2013-05-23 18:55:00,73.1,71.0,29.87,WSW,238,16.0,16.0,93,0.00,,---,0.14,VWS V14.01,2013-05-23 22:55:00,
2013-05-23 18:56:00,73.0,70.9,29.87,WSW,239,16.0,17.0,93,0.00,,---,0.14,VWS V14.01,2013-05-23 22:56:00,
2013-05-23 18:57:00,73.0,70.9,29.87,SW,234,18.0,18.0,93,0.00,,---,0.14,VWS V14.01,2013-05-23 22:57:00,
2013-05-23 18:58:00,72.9,70.4,29.87,SW,234,16.0,18.0,92,0.00,,---,0.14,VWS V14.01,2013-05-23 22:58:00,
2013-05-23 18:59:00,73.0,70.9,29.87,SW,234,16.0,18.0,93,0.00,,---,0.14,VWS V14.01,2013-05-23 22:59:00,
2013-05-23 19:00:00,73.0,70.9,29.87,SW,234,17.0,17.0,93,0.00,,---,0.14,VWS V14.01,2013-05-23 23:00:00,
2013-05-23 19:01:00,73.1,70.6,29.87,WSW,240,15.0,17.0,92,0.00,,---,0.14,VWS V14.01,2013-05-23 23:01:00,
2013-05-23 19:02:00,73.1,71.0,29.87,SW,233,15.0,17.0,93,0.00,,---,0.14,VWS V14.01,2013-05-23 23:02:00,
2013-05-23 19:03:00,73.2,71.1,29.87,SW,236,15.0,17.0,93,0.00,,---,0.14,VWS V14.01,2013-05-23 23:03:00,
2013-05-23 19:04:00,73.1,71.0,29.87,SW,235,16.0,17.0,93,0.00,,---,0.14,VWS V14.01,2013-05-23 23:04:00,
2013-05-23 19:05:00,73.1,71.0,29.87,SW,234,16.0,17.0,93,0.00,,---,0.14,VWS V14.01,2013-05-23 23:05:00,
2013-05-23 19:06:00,73.0,70.9,29.87,SW,234,17.0,18.0,93,0.00,,---,0.14,VWS V14.01,2013-05-23 23:06:00,
2013-05-23 19:07:00,73.1,71.0,29.87,WSW,237,15.0,17.0,93,0.00,,---,0.14,VWS V14.01,2013-05-23 23:07:00,
2013-05-23 19:08:00,73.1,71.0,29.87,WSW,240,15.0,17.0,93,0.00,,---,0.14,VWS V14.01,2013-05-23 23:08:00,
2013-05-23 19:09:00,73.0,70.9,29.87,WSW,240,15.0,17.0,93,0.00,,---,0.14,VWS V14.01,2013-05-23 23:09:00,
2013-05-23 19:10:00,73.1,71.0,29.87,WSW,241,15.0,15.0,93,0.00,,---,0.14,VWS V14.01,2013-05-23 23:10:00,
2013-05-23 19:11:00,73.1,71.0,29.87,SW,233,14.0,17.0,93,0.00,,---,0.14,VWS V14.01,2013-05-23 23:11:00,
2013-05-23 19:12:00,73.0,70.9,29.87,WSW,239,14.0,16.0,93,0.00,,---,0.14,VWS V14.01,2013-05-23 23:12:00,
2013-05-23 19:13:00,73.1,71.0,29.87,WSW,238,13.0,16.0,93,0.00,,---,0.14,VWS V14.01,2013-05-23 23:13:00,
2013-05-23 19:14:00,73.1,71.0,29.87,WSW,238,13.0,16.0,93,0.00,,---,0.14,VWS V14.01,2013-05-23 23:14:00,
2013-05-23 19:15:00,73.0,70.9,29.88,WSW,238,13.0,14.0,93,0.00,,---,0.14,VWS V14.01,2013-05-23 23:15:00,
2013-05-23 19:16:00,73.1,71.0,29.87,WSW,237,16.0,17.0,93,0.00,,---,0.14,VWS V14.01,2013-05-23 23:16:00,
2013-05-23 19:17:00,73.1,71.0,29.88,WSW,240,14.0,18.0,93,0.00,,---,0.14,VWS V14.01,2013-05-23 23:17:00,
2013-05-23 19:18:00,73.1,71.0,29.88,WSW,241,13.0,18.0,93,0.00,,---,0.14,VWS V14.01,2013-05-23 23:18:00,
2013-05-23 19:19:00,73.2,71.1,29.88,WSW,241,13.0,18.0,93,0.00,,---,0.14,VWS V14.01,2013-05-23 23:19:00,
2013-05-23 19:20:00,73.2,71.1,29.88,WSW,240,14.0,14.0,93,0.00,,---,0.14,VWS V14.01,2013-05-23 23:20:00,
2013-05-23 19:21:00,73.0,70.9,29.87,WSW,239,14.0,16.0,93,0.00,,---,0.14,VWS V14.01,2013-05-23 23:21:00,
2013-05-23 19:22:00,73.2,71.1,29.88,WSW,239,13.0,15.0,93,0.00,,---,0.14,VWS V14.01,2013-05-23 23:22:00,
2013-05-23 19:23:00,73.2,71.1,29.88,WSW,239,12.0,15.0,93,0.00,,---,0.14,VWS V14.01,2013-05-23 23:23:00,
2013-05-23 19:24:00,73.2,71.1,29.88,WSW,238,12.0,15.0,93,0.00,,---,0.14,VWS V14.01,2013-05-23 23:24:00,
2013-05-23 19:25:00,73.1,71.0,29.88,WSW,238,12.0,13.0,93,0.00,,---,0.14,VWS V14.01,2013-05-23 23:25:00,
2013-05-23 19:26:00,73.0,70.9,29.88,WSW,240,13.0,18.0,93,0.00,,---,0.14,VWS V14.01,2013-05-23 23:26:00,
2013-05-23 19:27:00,73.3,71.2,29.88,WSW,238,12.0,14.0,93,0.00,,---,0.14,VWS V14.01,2013-05-23 23:27:00,
2013-05-23 19:28:00,73.3,71.2,29.88,WSW,238,12.0,14.0,93,0.00,,---,0.14,VWS V14.01,2013-05-23 23:28:00,
2013-05-23 19:29:00,73.2,71.1,29.88,WSW,238,12.0,14.0,93,0.00,,---,0.14,VWS V14.01,2013-05-23 23:29:00,
2013-05-23 19:30:00,73.2,71.1,29.88,WSW,238,12.0,14.0,93,0.00,,---,0.14,VWS V14.01,2013-05-23 23:30:00,
2013-05-23 19:31:00,73.2,71.1,29.88,WSW,239,12.0,15.0,93,0.00,,---,0.14,VWS V14.01,2013-05-23 23:31:00,
2013-05-23 19:32:00,73.1,71.0,29.88,WSW,238,13.0,15.0,93,0.00,,---,0.14,VWS V14.01,2013-05-23 23:32:00,
2013-05-23 19:33:00,73.1,71.0,29.88,WSW,238,12.0,15.0,93,0.00,,---,0.14,VWS V14.01,2013-05-23 23:33:00,
2013-05-23 19:34:00,73.1,71.0,29.88,WSW,238,11.0,15.0,93,0.00,,---,0.14,VWS V14.01,2013-05-23 23:34:00,
2013-05-23 19:35:00,73.2,71.1,29.88,WSW,238,13.0,13.0,93,0.00,,---,0.14,VWS V14.01,2013-05-23 23:35:00,
2013-05-23 19:36:00,73.3,71.2,29.88,WSW,238,13.0,14.0,93,0.00,,---,0.14,VWS V14.01,2013-05-23 23:36:00,
2013-05-23 19:37:00,73.3,71.2,29.88,WSW,240,13.0,14.0,93,0.00,,---,0.14,VWS V14.01,2013-05-23 23:37:00,
2013-05-23 19:38:00,73.2,71.1,29.88,WSW,242,13.0,15.0,93,0.00,,---,0.14,VWS V14.01,2013-05-23 23:38:00,
2013-05-23 19:39:00,73.2,71.1,29.88,WSW,242,12.0,15.0,93,0.00,,---,0.14,VWS V14.01,2013-05-23 23:39:00,
2013-05-23 19:40:00,73.3,71.2,29.88,WSW,242,15.0,15.0,93,0.00,,---,0.14,VWS V14.01,2013-05-23 23:40:00,
2013-05-23 19:41:00,73.1,71.0,29.88,WSW,238,13.0,15.0,93,0.00,,---,0.14,VWS V14.01,2013-05-23 23:41:00,
2013-05-23 19:42:00,73.2,71.1,29.88,WSW,242,13.0,16.0,93,0.00,,---,0.14,VWS V14.01,2013-05-23 23:42:00,
2013-05-23 19:43:00,73.2,71.1,29.88,WSW,243,11.0,16.0,93,0.00,,---,0.14,VWS V14.01,2013-05-23 23:43:00,
2013-05-23 19:44:00,73.3,71.2,29.88,WSW,243,12.0,16.0,93,0.00,,---,0.14,VWS V14.01,2013-05-23 23:44:00,
2013-05-23 19:45:00,73.2,71.1,29.88,WSW,244,11.0,11.0,93,0.00,,---,0.14,VWS V14.01,2013-05-23 23:45:00,
2013-05-23 19:46:00,73.2,71.1,29.88,WSW,240,12.0,14.0,93,0.00,,---,0.14,VWS V14.01,2013-05-23 23:46:00,
2013-05-23 19:47:00,73.2,71.1,29.88,WSW,242,12.0,14.0,93,0.00,,---,0.14,VWS V14.01,2013-05-23 23:47:00,
2013-05-23 19:48:00,73.2,71.1,29.88,WSW,242,12.0,14.0,93,0.00,,---,0.14,VWS V14.01,2013-05-23 23:48:00,
2013-05-23 19:49:00,73.1,71.0,29.88,WSW,242,13.0,14.0,93,0.00,,---,0.14,VWS V14.01,2013-05-23 23:49:00,
2013-05-23 19:50:00,73.1,71.0,29.88,WSW,242,11.0,11.0,93,0.00,,---,0.14,VWS V14.01,2013-05-23 23:50:00,
2013-05-23 19:51:00,73.2,71.1,29.88,WSW,242,13.0,16.0,93,0.00,,---,0.14,VWS V14.01,2013-05-23 23:51:00,
2013-05-23 19:52:00,73.2,71.1,29.88,WSW,242,10.0,12.0,93,0.00,,---,0.14,VWS V14.01,2013-05-23 23:52:00,
2013-05-23 19:53:00,73.2,71.1,29.88,WSW,241,11.0,12.0,93,0.00,,---,0.14,VWS V14.01,2013-05-23 23:53:00,
2013-05-23 19:54:00,73.1,71.0,29.88,WSW,241,10.0,12.0,93,0.00,,---,0.14,VWS V14.01,2013-05-23 23:54:00,
2013-05-23 19:55:00,73.2,71.1,29.88,WSW,241,11.0,11.0,93,0.00,,---,0.14,VWS V14.01,2013-05-23 23:55:00,
2013-05-23 19:56:00,73.2,71.1,29.88,WSW,242,12.0,14.0,93,0.00,,---,0.14,VWS V14.01,2013-05-23 23:56:00,
2013-05-23 19:57:00,73.1,71.0,29.88,WSW,240,11.0,12.0,93,0.00,,---,0.14,VWS V14.01,2013-05-23 23:57:00,
2013-05-23 19:58:00,73.1,71.0,29.88,WSW,239,9.0,12.0,93,0.00,,---,0.14,VWS V14.01,2013-05-23 23:58:00,
2013-05-23 19:59:00,73.2,71.1,29.88,WSW,239,10.0,12.0,93,0.00,,---,0.14,VWS V14.01,2013-05-23 23:59:00,
2013-05-23 20:00:00,73.2,71.1,29.88,WSW,239,11.0,11.0,93,0.00,,---,0.14,VWS V14.01,2013-05-24 00:00:00,
2013-05-23 20:01:00,73.2,71.1,29.88,WSW,242,9.0,12.0,93,0.00,,---,0.14,VWS V14.01,2013-05-24 00:01:00,
2013-05-23 20:02:00,73.1,71.0,29.88,WSW,238,11.0,11.0,93,0.00,,---,0.14,VWS V14.01,2013-05-24 00:02:00,
2013-05-23 20:03:00,73.1,71.0,29.88,WSW,238,9.0,11.0,93,0.00,,---,0.14,VWS V14.01,2013-05-24 00:03:00,
2013-05-23 20:04:00,73.1,71.0,29.88,WSW,237,12.0,12.0,93,0.00,,---,0.14,VWS V14.01,2013-05-24 00:04:00,
2013-05-23 20:05:00,73.1,71.0,29.88,SW,236,11.0,11.0,93,0.00,,---,0.14,VWS V14.01,2013-05-24 00:05:00,
2013-05-23 20:06:00,73.1,71.0,29.88,WSW,240,11.0,12.0,93,0.00,,---,0.14,VWS V14.01,2013-05-24 00:06:00,
2013-05-23 20:07:00,73.1,71.0,29.88,SW,236,11.0,12.0,93,0.00,,---,0.14,VWS V14.01,2013-05-24 00:07:00,
2013-05-23 20:08:00,73.1,71.0,29.88,SW,236,10.0,12.0,93,0.00,,---,0.14,VWS V14.01,2013-05-24 00:08:00,
2013-05-23 20:09:00,73.1,71.0,29.88,SW,236,11.0,12.0,93,0.00,,---,0.14,VWS V14.01,2013-05-24 00:09:00,
2013-05-23 20:10:00,73.1,71.0,29.88,SW,236,10.0,10.0,93,0.00,,---,0.14,VWS V14.01,2013-05-24 00:10:00,
2013-05-23 20:11:00,73.1,71.0,29.88,WSW,238,11.0,11.0,93,0.00,,---,0.14,VWS V14.01,2013-05-24 00:11:00,
2013-05-23 20:12:00,73.1,71.0,29.88,WSW,237,10.0,12.0,93,0.00,,---,0.14,VWS V14.01,2013-05-24 00:12:00,
2013-05-23 20:13:00,73.1,71.0,29.88,WSW,237,10.0,12.0,93,0.00,,---,0.14,VWS V14.01,2013-05-24 00:13:00,
2013-05-23 20:14:00,73.1,71.0,29.87,WSW,237,10.0,12.0,93,0.00,,---,0.14,VWS V14.01,2013-05-24 00:14:00,
2013-05-23 20:15:00,73.1,71.0,29.87,WSW,237,9.0,10.0,93,0.00,,---,0.14,VWS V14.01,2013-05-24 00:15:00,
2013-05-23 20:16:00,73.1,71.0,29.88,SW,236,11.0,12.0,93,0.00,,---,0.14,VWS V14.01,2013-05-24 00:16:00,
2013-05-23 20:17:00,73.1,71.0,29.87,WSW,237,10.0,11.0,93,0.00,,---,0.14,VWS V14.01,2013-05-24 00:17:00,
2013-05-23 20:18:00,73.1,71.0,29.87,WSW,237,12.0,12.0,93,0.00,,---,0.14,VWS V14.01,2013-05-24 00:18:00,
2013-05-23 20:19:00,73.1,71.0,29.87,WSW,237,11.0,12.0,93,0.00,,---,0.14,VWS V14.01,2013-05-24 00:19:00,
2013-05-23 20:20:00,73.1,71.0,29.87,WSW,237,11.0,11.0,93,0.00,,---,0.14,VWS V14.01,2013-05-24 00:20:00,
2013-05-23 20:21:00,73.1,71.0,29.88,WSW,237,10.0,12.0,93,0.00,,---,0.14,VWS V14.01,2013-05-24 00:21:00,
2013-05-23 20:22:00,73.1,71.0,29.87,WSW,237,11.0,12.0,93,0.00,,---,0.14,VWS V14.01,2013-05-24 00:22:00,
2013-05-23 20:23:00,73.1,71.0,29.87,WSW,238,9.0,12.0,93,0.00,,---,0.14,VWS V14.01,2013-05-24 00:23:00,
2013-05-23 20:24:00,73.1,71.0,29.87,WSW,238,11.0,12.0,93,0.00,,---,0.14,VWS V14.01,2013-05-24 00:24:00,
2013-05-23 20:25:00,73.1,71.0,29.87,WSW,238,10.0,10.0,93,0.00,,---,0.14,VWS V14.01,2013-05-24 00:25:00,
2013-05-23 20:26:00,73.1,71.0,29.87,WSW,237,11.0,11.0,93,0.00,,---,0.14,VWS V14.01,2013-05-24 00:26:00,
2013-05-23 20:27:00,73.2,71.1,29.87,WSW,238,11.0,12.0,93,0.00,,---,0.14,VWS V14.01,2013-05-24 00:27:00,
2013-05-23 20:28:00,73.2,71.1,29.87,WSW,238,11.0,12.0,93,0.00,,---,0.14,VWS V14.01,2013-05-24 00:28:00,
2013-05-23 20:29:00,73.1,71.0,29.87,WSW,238,11.0,12.0,93,0.00,,---,0.14,VWS V14.01,2013-05-24 00:29:00,
2013-05-23 20:30:00,73.1,71.0,29.87,WSW,238,8.0,8.0,93,0.00,,---,0.14,VWS V14.01,2013-05-24 00:30:00,
2013-05-23 20:31:00,73.1,71.0,29.87,WSW,237,11.0,12.0,93,0.00,,---,0.14,VWS V14.01,2013-05-24 00:31:00,
2013-05-23 20:32:00,73.1,71.0,29.87,WSW,238,10.0,12.0,93,0.00,,---,0.14,VWS V14.01,2013-05-24 00:32:00,
2013-05-23 20:33:00,73.1,71.0,29.87,WSW,238,7.0,12.0,93,0.00,,---,0.14,VWS V14.01,2013-05-24 00:33:00,
2013-05-23 20:34:00,73.2,71.1,29.87,WSW,238,10.0,12.0,93,0.00,,---,0.14,VWS V14.01,2013-05-24 00:34:00,
2013-05-23 20:35:00,73.2,71.1,29.87,WSW,238,10.0,10.0,93,0.00,,---,0.14,VWS V14.01,2013-05-24 00:35:00,
2013-05-23 20:36:00,73.2,71.1,29.87,WSW,238,10.0,12.0,93,0.00,,---,0.14,VWS V14.01,2013-05-24 00:36:00,
2013-05-23 20:37:00,73.1,71.0,29.87,WSW,238,9.0,11.0,93,0.00,,---,0.14,VWS V14.01,2013-05-24 00:37:00,
2013-05-23 20:38:00,73.1,71.0,29.87,WSW,238,9.0,11.0,93,0.00,,---,0.14,VWS V14.01,2013-05-24 00:38:00,
2013-05-23 20:39:00,73.2,71.1,29.87,WSW,238,9.0,11.0,93,0.00,,---,0.14,VWS V14.01,2013-05-24 00:39:00,
2013-05-23 20:40:00,73.2,71.1,29.87,WSW,238,11.0,11.0,93,0.00,,---,0.14,VWS V14.01,2013-05-24 00:40:00,
2013-05-23 20:41:00,73.1,71.0,29.87,WSW,238,9.0,12.0,93,0.00,,---,0.14,VWS V14.01,2013-05-24 00:41:00,
2013-05-23 20:42:00,73.1,71.0,29.87,WSW,238,9.0,11.0,93,0.00,,---,0.14,VWS V14.01,2013-05-24 00:42:00,
2013-05-23 20:43:00,73.1,71.0,29.87,WSW,239,10.0,11.0,93,0.00,,---,0.14,VWS V14.01,2013-05-24 00:43:00,
2013-05-23 20:44:00,73.1,71.0,29.87,WSW,239,8.0,11.0,93,0.00,,---,0.14,VWS V14.01,2013-05-24 00:44:00,
2013-05-23 20:45:00,73.1,71.0,29.88,WSW,239,7.0,11.0,93,0.00,,---,0.14,VWS V14.01,2013-05-24 00:45:00,
2013-05-23 20:46:00,73.1,71.0,29.87,WSW,238,10.0,11.0,93,0.00,,---,0.14,VWS V14.01,2013-05-24 00:46:00,
2013-05-23 20:47:00,73.2,71.1,29.88,WSW,239,9.0,10.0,93,0.00,,---,0.14,VWS V14.01,2013-05-24 00:47:00,
2013-05-23 20:48:00,73.2,71.1,29.88,WSW,239,9.0,10.0,93,0.00,,---,0.14,VWS V14.01,2013-05-24 00:48:00,
2013-05-23 20:49:00,73.2,71.1,29.88,WSW,239,9.0,10.0,93,0.00,,---,0.14,VWS V14.01,2013-05-24 00:49:00,
2013-05-23 20:50:00,73.3,71.2,29.88,WSW,239,9.0,9.0,93,0.00,,---,0.14,VWS V14.01,2013-05-24 00:50:00,
2013-05-23 20:51:00,73.1,71.0,29.87,WSW,238,9.0,11.0,93,0.00,,---,0.14,VWS V14.01,2013-05-24 00:51:00,
2013-05-23 20:52:00,73.2,71.1,29.88,WSW,239,10.0,12.0,93,0.00,,---,0.14,VWS V14.01,2013-05-24 00:52:00,
2013-05-23 20:53:00,73.2,71.1,29.88,WSW,239,10.0,12.0,93,0.00,,---,0.14,VWS V14.01,2013-05-24 00:53:00,
2013-05-23 20:54:00,73.2,71.1,29.88,WSW,239,9.0,12.0,93,0.00,,---,0.14,VWS V14.01,2013-05-24 00:54:00,
2013-05-23 20:55:00,73.2,71.1,29.88,WSW,238,10.0,11.0,93,0.00,,---,0.14,VWS V14.01,2013-05-24 00:55:00,
2013-05-23 20:56:00,73.2,71.1,29.88,WSW,239,9.0,10.0,93,0.00,,---,0.14,VWS V14.01,2013-05-24 00:56:00,
2013-05-23 20:57:00,73.2,71.1,29.88,WSW,237,10.0,12.0,93,0.00,,---,0.14,VWS V14.01,2013-05-24 00:57:00,
2013-05-23 20:58:00,73.1,71.0,29.88,SW,234,12.0,13.0,93,0.00,,---,0.14,VWS V14.01,2013-05-24 00:58:00,
2013-05-23 20:59:00,73.1,71.0,29.88,SW,234,9.0,13.0,93,0.00,,---,0.14,VWS V14.01,2013-05-24 00:59:00,
2013-05-23 21:00:00,73.1,71.0,29.88,SW,234,10.0,10.0,93,0.00,,---,0.14,VWS V14.01,2013-05-24 01:00:00,
2013-05-23 21:01:00,73.2,71.1,29.88,WSW,239,10.0,12.0,93,0.00,,---,0.14,VWS V14.01,2013-05-24 01:01:00,
2013-05-23 21:02:00,73.1,71.0,29.88,SW,234,11.0,13.0,93,0.00,,---,0.14,VWS V14.01,2013-05-24 01:02:00,
2013-05-23 21:03:00,73.1,71.0,29.88,SW,234,10.0,13.0,93,0.00,,---,0.14,VWS V14.01,2013-05-24 01:03:00,
2013-05-23 21:04:00,73.1,71.0,29.88,SW,234,8.0,13.0,93,0.00,,---,0.14,VWS V14.01,2013-05-24 01:04:00,
2013-05-23 21:05:00,73.2,71.1,29.88,SW,234,10.0,11.0,93,0.00,,---,0.14,VWS V14.01,2013-05-24 01:05:00,
2013-05-23 21:06:00,73.2,71.1,29.88,WSW,237,10.0,12.0,93,0.00,,---,0.14,VWS V14.01,2013-05-24 01:06:00,
2013-05-23 21:07:00,73.1,71.0,29.88,SW,234,11.0,11.0,93,0.00,,---,0.14,VWS V14.01,2013-05-24 01:07:00,
2013-05-23 21:08:00,73.1,71.0,29.88,SW,234,7.0,11.0,93,0.00,,---,0.14,VWS V14.01,2013-05-24 01:08:00,
2013-05-23 21:09:00,73.2,71.1,29.88,SW,234,9.0,11.0,93,0.00,,---,0.14,VWS V14.01,2013-05-24 01:09:00,
2013-05-23 21:10:00,73.2,71.1,29.88,SW,234,9.0,10.0,93,0.00,,---,0.14,VWS V14.01,2013-05-24 01:10:00,
2013-05-23 21:11:00,73.1,71.0,29.88,SW,234,11.0,13.0,93,0.00,,---,0.14,VWS V14.01,2013-05-24 01:11:00,
2013-05-23 21:12:00,73.2,71.1,29.88,SW,234,11.0,11.0,93,0.00,,---,0.14,VWS V14.01,2013-05-24 01:12:00,
2013-05-23 21:13:00,73.1,71.0,29.88,SW,234,11.0,11.0,93,0.00,,---,0.14,VWS V14.01,2013-05-24 01:13:00,
2013-05-23 21:14:00,73.1,71.0,29.88,SW,234,11.0,11.0,93,0.00,,---,0.14,VWS V14.01,2013-05-24 01:14:00,
2013-05-23 21:15:00,73.1,71.0,29.88,SW,234,9.0,10.0,93,0.00,,---,0.14,VWS V14.01,2013-05-24 01:15:00,
2013-05-23 21:16:00,73.2,71.1,29.88,SW,234,11.0,11.0,93,0.00,,---,0.14,VWS V14.01,2013-05-24 01:16:00,
2013-05-23 21:17:00,73.2,71.1,29.88,SW,234,10.0,10.0,93,0.00,,---,0.14,VWS V14.01,2013-05-24 01:17:00,
2013-05-23 21:18:00,73.2,71.1,29.88,SW,234,9.0,11.0,93,0.00,,---,0.14,VWS V14.01,2013-05-24 01:18:00,
2013-05-23 21:19:00,73.1,71.0,29.88,SW,234,9.0,11.0,93,0.00,,---,0.14,VWS V14.01,2013-05-24 01:19:00,
2013-05-23 21:20:00,73.1,71.0,29.88,SW,234,11.0,11.0,93,0.00,,---,0.14,VWS V14.01,2013-05-24 01:20:00,
2013-05-23 21:21:00,73.2,71.1,29.88,SW,234,11.0,11.0,93,0.00,,---,0.14,VWS V14.01,2013-05-24 01:21:00,
2013-05-23 21:22:00,73.1,71.0,29.88,SW,233,8.0,11.0,93,0.00,,---,0.14,VWS V14.01,2013-05-24 01:22:00,
2013-05-23 21:23:00,73.1,71.0,29.88,SW,233,9.0,11.0,93,0.00,,---,0.14,VWS V14.01,2013-05-24 01:23:00,
2013-05-23 21:24:00,73.2,71.1,29.88,SW,232,10.0,12.0,93,0.00,,---,0.14,VWS V14.01,2013-05-24 01:24:00,
2013-05-23 21:25:00,73.1,71.0,29.88,SW,232,10.0,10.0,93,0.00,,---,0.14,VWS V14.01,2013-05-24 01:25:00,
2013-05-23 21:26:00,73.1,71.0,29.88,SW,232,12.0,12.0,93,0.00,,---,0.14,VWS V14.01,2013-05-24 01:26:00,
2013-05-23 21:27:00,73.2,71.1,29.88,SW,234,10.0,10.0,93,0.00,,---,0.14,VWS V14.01,2013-05-24 01:27:00,
2013-05-23 21:28:00,73.1,71.0,29.88,SW,232,10.0,12.0,93,0.00,,---,0.14,VWS V14.01,2013-05-24 01:28:00,
2013-05-23 21:29:00,73.1,71.0,29.88,SW,232,10.0,12.0,93,0.00,,---,0.14,VWS V14.01,2013-05-24 01:29:00,
2013-05-23 21:30:00,73.1,71.0,29.88,SW,232,12.0,12.0,93,0.00,,---,0.14,VWS V14.01,2013-05-24 01:30:00,
2013-05-23 21:31:00,73.1,71.0,29.88,SW,233,9.0,11.0,93,0.00,,---,0.14,VWS V14.01,2013-05-24 01:31:00,
2013-05-23 21:32:00,73.1,71.0,29.88,SW,232,10.0,12.0,93,0.00,,---,0.14,VWS V14.01,2013-05-24 01:32:00,
2013-05-23 21:33:00,73.1,71.0,29.88,SW,232,11.0,12.0,93,0.00,,---,0.14,VWS V14.01,2013-05-24 01:33:00,
2013-05-23 21:34:00,73.1,71.0,29.88,SW,232,11.0,12.0,93,0.00,,---,0.14,VWS V14.01,2013-05-24 01:34:00,
2013-05-23 21:35:00,73.1,71.0,29.88,SW,232,10.0,12.0,93,0.00,,---,0.14,VWS V14.01,2013-05-24 01:35:00,
2013-05-23 21:36:00,73.1,71.0,29.88,SW,232,10.0,12.0,93,0.00,,---,0.14,VWS V14.01,2013-05-24 01:36:00,
2013-05-23 21:37:00,73.2,71.1,29.88,SW,232,10.0,12.0,93,0.00,,---,0.14,VWS V14.01,2013-05-24 01:37:00,
2013-05-23 21:38:00,73.2,71.1,29.88,SW,232,9.0,12.0,93,0.00,,---,0.14,VWS V14.01,2013-05-24 01:38:00,
2013-05-23 21:39:00,73.1,71.0,29.88,SW,232,10.0,12.0,93,0.00,,---,0.14,VWS V14.01,2013-05-24 01:39:00,
2013-05-23 21:40:00,73.2,71.1,29.88,SW,231,9.0,9.0,93,0.00,,---,0.14,VWS V14.01,2013-05-24 01:40:00,
2013-05-23 21:41:00,73.1,71.0,29.88,SW,232,10.0,12.0,93,0.00,,---,0.14,VWS V14.01,2013-05-24 01:41:00,
2013-05-23 21:42:00,73.2,71.1,29.88,SW,231,7.0,11.0,93,0.00,,---,0.14,VWS V14.01,2013-05-24 01:42:00,
2013-05-23 21:43:00,73.2,71.1,29.88,SW,231,7.0,11.0,93,0.00,,---,0.14,VWS V14.01,2013-05-24 01:43:00,
2013-05-23 21:44:00,73.1,71.0,29.88,SW,229,11.0,11.0,93,0.00,,---,0.14,VWS V14.01,2013-05-24 01:44:00,
2013-05-23 21:45:00,73.1,71.0,29.88,SW,229,9.0,11.0,93,0.00,,---,0.14,VWS V14.01,2013-05-24 01:45:00,
2013-05-23 21:46:00,73.1,71.0,29.88,SW,229,7.0,11.0,93,0.00,,---,0.14,VWS V14.01,2013-05-24 01:46:00,
2013-05-23 21:47:00,73.2,71.1,29.88,SW,232,9.0,12.0,93,0.00,,---,0.14,VWS V14.01,2013-05-24 01:47:00,
2013-05-23 21:48:00,73.1,71.0,29.88,SW,229,9.0,11.0,93,0.00,,---,0.14,VWS V14.01,2013-05-24 01:48:00,
2013-05-23 21:49:00,73.1,71.0,29.88,SW,229,10.0,11.0,93,0.00,,---,0.14,VWS V14.01,2013-05-24 01:49:00,
2013-05-23 21:50:00,73.1,71.0,29.88,SW,228,10.0,11.0,93,0.00,,---,0.14,VWS V14.01,2013-05-24 01:50:00,
2013-05-23 21:51:00,73.2,71.1,29.88,SW,231,7.0,11.0,93,0.00,,---,0.14,VWS V14.01,2013-05-24 01:51:00,
2013-05-23 21:52:00,73.0,70.9,29.88,SW,228,9.0,11.0,93,0.00,,---,0.14,VWS V14.01,2013-05-24 01:52:00,
2013-05-23 21:53:00,73.1,71.0,29.88,SW,228,9.0,11.0,93,0.00,,---,0.14,VWS V14.01,2013-05-24 01:53:00,
2013-05-23 21:54:00,73.1,71.0,29.88,SW,227,9.0,11.0,93,0.00,,---,0.14,VWS V14.01,2013-05-24 01:54:00,
2013-05-23 21:55:00,73.1,71.0,29.88,SW,227,9.0,11.0,93,0.00,,---,0.14,VWS V14.01,2013-05-24 01:55:00,
2013-05-23 21:56:00,73.2,71.1,29.88,SW,229,10.0,11.0,93,0.00,,---,0.14,VWS V14.01,2013-05-24 01:56:00,
2013-05-23 21:57:00,73.1,71.0,29.88,SW,222,9.0,11.0,93,0.00,,---,0.14,VWS V14.01,2013-05-24 01:57:00,
2013-05-23 21:58:00,73.1,71.0,29.88,SW,221,10.0,11.0,93,0.00,,---,0.14,VWS V14.01,2013-05-24 01:58:00,
2013-05-23 21:59:00,73.1,71.0,29.88,SW,221,10.0,11.0,93,0.00,,---,0.14,VWS V14.01,2013-05-24 01:59:00,
2013-05-23 22:00:00,73.1,71.0,29.87,SW,221,10.0,11.0,93,0.00,,---,0.14,VWS V14.01,2013-05-24 02:00:00,
2013-05-23 22:01:00,73.1,71.0,29.87,SW,221,9.0,10.0,93,0.00,,---,0.14,VWS V14.01,2013-05-24 02:01:00,
2013-05-23 22:02:00,73.0,70.9,29.88,SW,228,9.0,11.0,93,0.00,,---,0.14,VWS V14.01,2013-05-24 02:02:00,
2013-05-23 22:03:00,73.2,71.1,29.87,SW,220,10.0,11.0,93,0.00,,---,0.14,VWS V14.01,2013-05-24 02:03:00,
2013-05-23 22:04:00,73.2,71.1,29.87,SW,220,9.0,11.0,93,0.00,,---,0.14,VWS V14.01,2013-05-24 02:04:00,
2013-05-23 22:05:00,73.2,71.1,29.87,SW,220,9.0,9.0,93,0.00,,---,0.14,VWS V14.01,2013-05-24 02:05:00,
2013-05-23 22:06:00,73.1,71.0,29.88,SW,222,10.0,11.0,93,0.00,,---,0.14,VWS V14.01,2013-05-24 02:06:00,
2013-05-23 22:07:00,73.1,71.0,29.87,SW,219,10.0,11.0,93,0.00,,---,0.14,VWS V14.01,2013-05-24 02:07:00,
2013-05-23 22:08:00,73.1,71.0,29.87,SW,219,9.0,12.0,93,0.00,,---,0.14,VWS V14.01,2013-05-24 02:08:00,
2013-05-23 22:09:00,73.1,71.0,29.87,SW,219,9.0,12.0,93,0.00,,---,0.14,VWS V14.01,2013-05-24 02:09:00,
2013-05-23 22:10:00,73.1,71.0,29.87,SW,219,10.0,10.0,93,0.00,,---,0.14,VWS V14.01,2013-05-24 02:10:00,
2013-05-23 22:11:00,73.1,71.0,29.87,SW,221,8.0,10.0,93,0.00,,---,0.14,VWS V14.01,2013-05-24 02:11:00,
2013-05-23 22:12:00,73.1,71.0,29.87,SW,217,10.0,12.0,93,0.00,,---,0.14,VWS V14.01,2013-05-24 02:12:00,
2013-05-23 22:13:00,73.1,71.0,29.87,SW,217,9.0,12.0,93,0.00,,---,0.14,VWS V14.01,2013-05-24 02:13:00,
2013-05-23 22:14:00,73.1,71.0,29.87,SW,216,10.0,12.0,93,0.00,,---,0.14,VWS V14.01,2013-05-24 02:14:00,
2013-05-23 22:15:00,73.1,71.0,29.87,SW,216,11.0,11.0,93,0.00,,---,0.14,VWS V14.01,2013-05-24 02:15:00,
2013-05-23 22:16:00,73.1,71.0,29.87,SW,219,10.0,11.0,93,0.00,,---,0.14,VWS V14.01,2013-05-24 02:16:00,
2013-05-23 22:17:00,73.1,71.3,29.87,SW,216,10.0,11.0,94,0.00,,---,0.14,VWS V14.01,2013-05-24 02:17:00,
2013-05-23 22:18:00,73.1,71.0,29.87,SW,216,7.0,11.0,93,0.00,,---,0.14,VWS V14.01,2013-05-24 02:18:00,
2013-05-23 22:19:00,73.1,71.0,29.87,SW,216,9.0,11.0,93,0.00,,---,0.14,VWS V14.01,2013-05-24 02:19:00,
2013-05-23 22:20:00,73.1,71.0,29.87,SW,216,9.0,10.0,93,0.00,,---,0.14,VWS V14.01,2013-05-24 02:20:00,
2013-05-23 22:21:00,73.1,71.0,29.87,SW,217,10.0,12.0,93,0.00,,---,0.14,VWS V14.01,2013-05-24 02:21:00,
2013-05-23 22:22:00,73.1,71.0,29.87,SW,216,11.0,12.0,93,0.00,,---,0.14,VWS V14.01,2013-05-24 02:22:00,
2013-05-23 22:23:00,73.1,71.0,29.87,SW,216,10.0,12.0,93,0.00,,---,0.14,VWS V14.01,2013-05-24 02:23:00,
2013-05-23 22:24:00,73.2,71.1,29.87,SW,216,10.0,12.0,93,0.00,,---,0.14,VWS V14.01,2013-05-24 02:24:00,
2013-05-23 22:25:00,73.2,71.1,29.87,SW,216,12.0,12.0,93,0.00,,---,0.14,VWS V14.01,2013-05-24 02:25:00,
2013-05-23 22:26:00,73.2,71.1,29.87,SW,216,10.0,13.0,93,0.00,,---,0.14,VWS V14.01,2013-05-24 02:26:00,
2013-05-23 22:27:00,73.1,71.0,29.87,SW,216,8.0,11.0,93,0.00,,---,0.14,VWS V14.01,2013-05-24 02:27:00,
2013-05-23 22:28:00,73.3,71.2,29.87,SW,217,9.0,13.0,93,0.00,,---,0.14,VWS V14.01,2013-05-24 02:28:00,
2013-05-23 22:29:00,73.3,71.2,29.87,SW,220,12.0,13.0,93,0.00,,---,0.14,VWS V14.01,2013-05-24 02:29:00,
2013-05-23 22:30:00,73.3,71.2,29.87,SW,221,13.0,13.0,93,0.00,,---,0.14,VWS V14.01,2013-05-24 02:30:00,
2013-05-23 22:31:00,73.2,71.1,29.87,SW,221,13.0,13.0,93,0.00,,---,0.14,VWS V14.01,2013-05-24 02:31:00,
2013-05-23 22:32:00,73.1,71.0,29.87,SW,216,10.0,12.0,93,0.00,,---,0.14,VWS V14.01,2013-05-24 02:32:00,
2013-05-23 22:33:00,73.2,71.1,29.87,SW,220,12.0,14.0,93,0.00,,---,0.14,VWS V14.01,2013-05-24 02:33:00,
2013-05-23 22:34:00,73.2,71.1,29.87,SW,221,14.0,15.0,93,0.00,,---,0.14,VWS V14.01,2013-05-24 02:34:00,
2013-05-23 22:35:00,73.2,71.1,29.87,SW,221,13.0,15.0,93,0.00,,---,0.14,VWS V14.01,2013-05-24 02:35:00,
2013-05-23 22:36:00,73.3,71.2,29.87,SW,221,13.0,13.0,93,0.00,,---,0.14,VWS V14.01,2013-05-24 02:36:00,
2013-05-23 22:37:00,73.3,71.2,29.87,SW,221,15.0,16.0,93,0.00,,---,0.14,VWS V14.01,2013-05-24 02:37:00,
2013-05-23 22:38:00,73.3,71.2,29.87,SW,217,10.0,13.0,93,0.00,,---,0.14,VWS V14.01,2013-05-24 02:38:00,
2013-05-23 22:39:00,73.3,71.2,29.87,SW,221,14.0,16.0,93,0.00,,---,0.14,VWS V14.01,2013-05-24 02:39:00,
2013-05-23 22:40:00,73.3,71.2,29.87,SW,220,12.0,12.0,93,0.00,,---,0.14,VWS V14.01,2013-05-24 02:40:00,
2013-05-23 22:41:00,73.3,71.2,29.87,SW,218,14.0,14.0,93,0.00,,---,0.14,VWS V14.01,2013-05-24 02:41:00,
2013-05-23 22:42:00,73.3,71.2,29.87,SW,217,13.0,16.0,93,0.00,,---,0.14,VWS V14.01,2013-05-24 02:42:00,
2013-05-23 22:43:00,73.2,71.1,29.87,SW,220,12.0,14.0,93,0.00,,---,0.14,VWS V14.01,2013-05-24 02:43:00,
2013-05-23 22:44:00,73.2,71.1,29.87,SW,215,16.0,16.0,93,0.00,,---,0.14,VWS V14.01,2013-05-24 02:44:00,
2013-05-23 22:45:00,73.2,71.1,29.86,SW,215,13.0,13.0,93,0.00,,---,0.14,VWS V14.01,2013-05-24 02:45:00,
2013-05-23 22:46:00,73.3,71.5,29.86,SSW,213,14.0,15.0,94,0.00,,---,0.14,VWS V14.01,2013-05-24 02:46:00,
2013-05-23 22:47:00,73.3,71.2,29.86,SSW,213,14.0,15.0,93,0.00,,---,0.14,VWS V14.01,2013-05-24 02:47:00,
2013-05-23 22:48:00,73.3,71.2,29.87,SW,221,12.0,16.0,93,0.00,,---,0.14,VWS V14.01,2013-05-24 02:48:00,
2013-05-23 22:49:00,73.2,71.1,29.86,SSW,213,13.0,15.0,93,0.00,,---,0.14,VWS V14.01,2013-05-24 02:49:00,
2013-05-23 22:50:00,73.2,71.1,29.86,SSW,213,13.0,14.0,93,0.00,,---,0.14,VWS V14.01,2013-05-24 02:50:00,
2013-05-23 22:51:00,73.3,71.2,29.86,SSW,213,13.0,14.0,93,0.00,,---,0.14,VWS V14.01,2013-05-24 02:51:00,
2013-05-23 22:52:00,73.2,71.4,29.86,SSW,212,12.0,14.0,94,0.00,,---,0.14,VWS V14.01,2013-05-24 02:52:00,
2013-05-23 22:53:00,73.2,71.1,29.87,SW,215,15.0,16.0,93,0.00,,---,0.14,VWS V14.01,2013-05-24 02:53:00,
2013-05-23 22:54:00,73.2,71.4,29.86,SSW,211,14.0,15.0,94,0.00,,---,0.14,VWS V14.01,2013-05-24 02:54:00,
2013-05-23 22:55:00,73.2,71.4,29.86,SSW,211,12.0,12.0,94,0.00,,---,0.14,VWS V14.01,2013-05-24 02:55:00,
2013-05-23 22:56:00,73.2,71.1,29.86,SSW,211,12.0,14.0,93,0.00,,---,0.14,VWS V14.01,2013-05-24 02:56:00,
2013-05-23 22:57:00,73.2,71.4,29.86,SSW,211,14.0,14.0,94,0.00,,---,0.14,VWS V14.01,2013-05-24 02:57:00,
2013-05-23 22:58:00,73.2,71.1,29.86,SSW,213,13.0,15.0,93,0.00,,---,0.14,VWS V14.01,2013-05-24 02:58:00,
2013-05-23 22:59:00,73.2,71.4,29.86,SSW,211,13.0,14.0,94,0.00,,---,0.14,VWS V14.01,2013-05-24 02:59:00,
2013-05-23 23:00:00,73.2,71.4,29.86,SSW,211,12.0,14.0,94,0.00,,---,0.14,VWS V14.01,2013-05-24 03:00:00,
2013-05-23 23:01:00,73.2,71.4,29.86,SSW,211,12.0,12.0,94,0.00,,---,0.14,VWS V14.01,2013-05-24 03:01:00,
2013-05-23 23:02:00,73.2,71.4,29.86,SSW,211,11.0,12.0,94,0.00,,---,0.14,VWS V14.01,2013-05-24 03:02:00,
2013-05-23 23:03:00,73.3,71.5,29.86,SSW,211,11.0,13.0,94,0.00,,---,0.14,VWS V14.01,2013-05-24 03:03:00,
2013-05-23 23:04:00,73.2,71.4,29.86,SSW,211,12.0,15.0,94,0.00,,---,0.14,VWS V14.01,2013-05-24 03:04:00,
2013-05-23 23:05:00,73.2,71.1,29.86,SSW,211,12.0,12.0,93,0.00,,---,0.14,VWS V14.01,2013-05-24 03:05:00,
2013-05-23 23:06:00,73.2,71.4,29.86,SSW,211,13.0,14.0,94,0.00,,---,0.14,VWS V14.01,2013-05-24 03:06:00,
2013-05-23 23:07:00,73.2,71.4,29.86,SSW,211,12.0,14.0,94,0.00,,---,0.14,VWS V14.01,2013-05-24 03:07:00,
2013-05-23 23:08:00,73.2,71.4,29.86,SSW,211,14.0,14.0,94,0.00,,---,0.14,VWS V14.01,2013-05-24 03:08:00,
2013-05-23 23:09:00,73.2,71.4,29.86,SSW,211,12.0,14.0,94,0.00,,---,0.14,VWS V14.01,2013-05-24 03:09:00,
2013-05-23 23:10:00,73.2,71.4,29.86,SSW,211,12.0,12.0,94,0.00,,---,0.14,VWS V14.01,2013-05-24 03:10:00,
2013-05-23 23:11:00,73.2,71.4,29.86,SSW,211,13.0,13.0,94,0.00,,---,0.14,VWS V14.01,2013-05-24 03:11:00,
2013-05-23 23:12:00,73.2,71.4,29.86,SSW,211,12.0,13.0,94,0.00,,---,0.14,VWS V14.01,2013-05-24 03:12:00,
2013-05-23 23:13:00,73.2,71.4,29.86,SSW,211,14.0,14.0,94,0.00,,---,0.14,VWS V14.01,2013-05-24 03:13:00,
2013-05-23 23:14:00,73.2,71.4,29.86,SSW,211,11.0,14.0,94,0.00,,---,0.14,VWS V14.01,2013-05-24 03:14:00,
2013-05-23 23:15:00,73.2,71.4,29.86,SSW,211,12.0,13.0,94,0.00,,---,0.14,VWS V14.01,2013-05-24 03:15:00,
2013-05-23 23:16:00,73.2,71.4,29.86,SSW,211,13.0,13.0,94,0.00,,---,0.14,VWS V14.01,2013-05-24 03:16:00,
2013-05-23 23:17:00,73.2,71.4,29.86,SSW,211,9.0,13.0,94,0.00,,---,0.14,VWS V14.01,2013-05-24 03:17:00,
2013-05-23 23:18:00,73.3,71.5,29.86,SSW,211,11.0,13.0,94,0.00,,---,0.14,VWS V14.01,2013-05-24 03:18:00,
2013-05-23 23:19:00,73.3,71.5,29.86,SSW,211,11.0,13.0,94,0.00,,---,0.14,VWS V14.01,2013-05-24 03:19:00,
2013-05-23 23:20:00,73.2,71.4,29.86,SSW,211,11.0,13.0,94,0.00,,---,0.14,VWS V14.01,2013-05-24 03:20:00,
2013-05-23 23:21:00,73.3,71.5,29.86,SSW,211,10.0,12.0,94,0.00,,---,0.14,VWS V14.01,2013-05-24 03:21:00,
2013-05-23 23:22:00,73.3,71.5,29.86,SSW,211,9.0,12.0,94,0.00,,---,0.14,VWS V14.01,2013-05-24 03:22:00,
2013-05-23 23:23:00,73.3,71.5,29.86,SSW,210,10.0,12.0,94,0.00,,---,0.14,VWS V14.01,2013-05-24 03:23:00,
2013-05-23 23:24:00,73.3,71.5,29.86,SSW,210,12.0,12.0,94,0.00,,---,0.14,VWS V14.01,2013-05-24 03:24:00,
2013-05-23 23:25:00,73.3,71.5,29.86,SSW,210,10.0,12.0,94,0.00,,---,0.14,VWS V14.01,2013-05-24 03:25:00,
2013-05-23 23:26:00,73.2,71.4,29.86,SSW,211,11.0,13.0,94,0.00,,---,0.14,VWS V14.01,2013-05-24 03:26:00,
2013-05-23 23:27:00,73.3,71.5,29.86,SSW,210,11.0,12.0,94,0.00,,---,0.14,VWS V14.01,2013-05-24 03:27:00,
2013-05-23 23:28:00,73.3,71.5,29.86,SSW,210,10.0,12.0,94,0.00,,---,0.14,VWS V14.01,2013-05-24 03:28:00,
2013-05-23 23:29:00,73.3,71.5,29.86,SSW,210,12.0,12.0,94,0.00,,---,0.14,VWS V14.01,2013-05-24 03:29:00,
2013-05-23 23:30:00,73.3,71.5,29.85,SSW,210,9.0,10.0,94,0.00,,---,0.14,VWS V14.01,2013-05-24 03:30:00,
2013-05-23 23:31:00,73.3,71.5,29.86,SSW,211,9.0,12.0,94,0.00,,---,0.14,VWS V14.01,2013-05-24 03:31:00,
2013-05-23 23:32:00,73.3,71.5,29.85,SSW,210,9.0,12.0,94,0.00,,---,0.14,VWS V14.01,2013-05-24 03:32:00,
2013-05-23 23:33:00,73.3,71.5,29.85,SSW,210,12.0,12.0,94,0.00,,---,0.14,VWS V14.01,2013-05-24 03:33:00,
2013-05-23 23:34:00,73.3,71.5,29.85,SSW,210,11.0,12.0,94,0.00,,---,0.14,VWS V14.01,2013-05-24 03:34:00,
2013-05-23 23:35:00,73.2,71.4,29.85,SSW,210,9.0,12.0,94,0.00,,---,0.14,VWS V14.01,2013-05-24 03:35:00,
2013-05-23 23:36:00,73.3,71.5,29.85,SSW,210,11.0,12.0,94,0.00,,---,0.14,VWS V14.01,2013-05-24 03:36:00,
2013-05-23 23:37:00,73.3,71.5,29.86,SSW,210,11.0,12.0,94,0.00,,---,0.14,VWS V14.01,2013-05-24 03:37:00,
2013-05-23 23:38:00,73.3,71.5,29.85,SSW,210,11.0,12.0,94,0.00,,---,0.14,VWS V14.01,2013-05-24 03:38:00,
2013-05-23 23:39:00,73.2,71.4,29.85,SSW,211,12.0,12.0,94,0.00,,---,0.14,VWS V14.01,2013-05-24 03:39:00,
2013-05-23 23:40:00,73.2,71.4,29.85,SSW,212,10.0,10.0,94,0.00,,---,0.14,VWS V14.01,2013-05-24 03:40:00,
2013-05-23 23:41:00,73.2,71.4,29.85,SW,215,10.0,10.0,94,0.00,,---,0.14,VWS V14.01,2013-05-24 03:41:00,
2013-05-23 23:42:00,73.3,71.5,29.85,SSW,210,9.0,12.0,94,0.00,,---,0.14,VWS V14.01,2013-05-24 03:42:00,
2013-05-23 23:43:00,73.2,71.4,29.85,SW,215,12.0,12.0,94,0.00,,---,0.14,VWS V14.01,2013-05-24 03:43:00,
2013-05-23 23:44:00,73.2,71.4,29.85,SW,216,9.0,12.0,94,0.00,,---,0.14,VWS V14.01,2013-05-24 03:44:00,
2013-05-23 23:45:00,73.2,71.4,29.85,SW,217,9.0,12.0,94,0.00,,---,0.14,VWS V14.01,2013-05-24 03:45:00,
2013-05-23 23:46:00,73.3,71.5,29.85,SW,217,11.0,13.0,94,0.00,,---,0.14,VWS V14.01,2013-05-24 03:46:00,
2013-05-23 23:47:00,73.2,71.4,29.85,SW,217,11.0,13.0,94,0.00,,---,0.14,VWS V14.01,2013-05-24 03:47:00,
2013-05-23 23:48:00,73.2,71.4,29.85,SSW,211,10.0,12.0,94,0.00,,---,0.14,VWS V14.01,2013-05-24 03:48:00,
2013-05-23 23:49:00,73.2,71.4,29.85,SW,217,11.0,13.0,94,0.00,,---,0.14,VWS V14.01,2013-05-24 03:49:00,
2013-05-23 23:50:00,73.2,71.4,29.85,SW,217,10.0,10.0,94,0.00,,---,0.14,VWS V14.01,2013-05-24 03:50:00,
2013-05-23 23:51:00,73.2,71.4,29.85,SW,217,11.0,12.0,94,0.00,,---,0.14,VWS V14.01,2013-05-24 03:51:00,
2013-05-23 23:52:00,73.1,71.3,29.85,SW,217,11.0,12.0,94,0.00,,---,0.14,VWS V14.01,2013-05-24 03:52:00,
2013-05-23 23:53:00,73.2,71.4,29.85,SW,217,11.0,12.0,94,0.00,,---,0.14,VWS V14.01,2013-05-24 03:53:00,
2013-05-23 23:54:00,73.2,71.4,29.85,SW,216,9.0,12.0,94,0.00,,---,0.14,VWS V14.01,2013-05-24 03:54:00,
2013-05-23 23:55:00,73.2,71.4,29.85,SW,219,11.0,12.0,94,0.00,,---,0.14,VWS V14.01,2013-05-24 03:55:00,
2013-05-23 23:56:00,73.1,71.3,29.85,SW,220,12.0,13.0,94,0.00,,---,0.14,VWS V14.01,2013-05-24 03:56:00,
2013-05-23 23:57:00,73.1,71.3,29.85,SW,222,10.0,13.0,94,0.00,,---,0.14,VWS V14.01,2013-05-24 03:57:00,
2013-05-23 23:58:00,73.1,71.3,29.85,SW,222,9.0,13.0,94,0.00,,---,0.14,VWS V14.01,2013-05-24 03:58:00,
2013-05-23 23:59:00,73.1,71.3,29.85,SW,225,10.0,13.0,94,0.00,,---,0.14,VWS V14.01,2013-05-24 03:59:00,